<?xml version="1.0" encoding="UTF-8" standalone="no" ?>
<gpx xmlns="http://www.topografix.com/GPX/1/1" xmlns:xsi="http://www.w3.org/2001/XMLSchema-instance" xsi:schemaLocation="http://www.topografix.com/GPX/1/1 http://www.topografix.com/GPX/1/1/gpx.xsd" version="1.1" creator="VisuGPX - https://www.visugpx.com">
  <metadata>
    <name>Entrainement sur cellieu-chagnon 15kms</name>
    <desc><![CDATA[préparation trails de l'année 2012]]></desc>
  </metadata>
  <trk>
    <name><![CDATA[entrainement]]></name>
    <cmt><![CDATA[avec benjamin]]></cmt>
    <trkseg>
      <trkpt lat="45.52922" lon="4.56328">
        <ele>410</ele>
        <time>2012-01-14T09:14:10Z</time>
      </trkpt>
      <trkpt lat="45.529" lon="4.56306">
        <ele>413</ele>
        <time>2012-01-14T09:14:42Z</time>
      </trkpt>
      <trkpt lat="45.52903" lon="4.56293">
        <ele>412</ele>
        <time>2012-01-14T09:14:47Z</time>
      </trkpt>
      <trkpt lat="45.52908" lon="4.56282">
        <ele>411</ele>
        <time>2012-01-14T09:14:52Z</time>
      </trkpt>
      <trkpt lat="45.52908" lon="4.56275">
        <ele>411</ele>
        <time>2012-01-14T09:14:57Z</time>
      </trkpt>
      <trkpt lat="45.52903" lon="4.56284">
        <ele>411</ele>
        <time>2012-01-14T09:15:02Z</time>
      </trkpt>
      <trkpt lat="45.52898" lon="4.56295">
        <ele>411</ele>
        <time>2012-01-14T09:15:07Z</time>
      </trkpt>
      <trkpt lat="45.52892" lon="4.56308">
        <ele>411</ele>
        <time>2012-01-14T09:15:12Z</time>
      </trkpt>
      <trkpt lat="45.52887" lon="4.56322">
        <ele>411</ele>
        <time>2012-01-14T09:15:17Z</time>
      </trkpt>
      <trkpt lat="45.52883" lon="4.56334">
        <ele>411</ele>
        <time>2012-01-14T09:15:22Z</time>
      </trkpt>
      <trkpt lat="45.52878" lon="4.56346">
        <ele>411</ele>
        <time>2012-01-14T09:15:27Z</time>
      </trkpt>
      <trkpt lat="45.52873" lon="4.56361">
        <ele>413</ele>
        <time>2012-01-14T09:15:32Z</time>
      </trkpt>
      <trkpt lat="45.52866" lon="4.56372">
        <ele>414</ele>
        <time>2012-01-14T09:15:37Z</time>
      </trkpt>
      <trkpt lat="45.52859" lon="4.56381">
        <ele>414</ele>
        <time>2012-01-14T09:15:42Z</time>
      </trkpt>
      <trkpt lat="45.5285" lon="4.56385">
        <ele>414</ele>
        <time>2012-01-14T09:15:47Z</time>
      </trkpt>
      <trkpt lat="45.52839" lon="4.56381">
        <ele>414</ele>
        <time>2012-01-14T09:15:52Z</time>
      </trkpt>
      <trkpt lat="45.52829" lon="4.5638">
        <ele>414</ele>
        <time>2012-01-14T09:15:57Z</time>
      </trkpt>
      <trkpt lat="45.52821" lon="4.56388">
        <ele>414</ele>
        <time>2012-01-14T09:16:02Z</time>
      </trkpt>
      <trkpt lat="45.52813" lon="4.56403">
        <ele>414</ele>
        <time>2012-01-14T09:16:07Z</time>
      </trkpt>
      <trkpt lat="45.52805" lon="4.56419">
        <ele>414</ele>
        <time>2012-01-14T09:16:12Z</time>
      </trkpt>
      <trkpt lat="45.52798" lon="4.56433">
        <ele>414</ele>
        <time>2012-01-14T09:16:17Z</time>
      </trkpt>
      <trkpt lat="45.52791" lon="4.5644">
        <ele>415</ele>
        <time>2012-01-14T09:16:22Z</time>
      </trkpt>
      <trkpt lat="45.52782" lon="4.56448">
        <ele>415</ele>
        <time>2012-01-14T09:16:27Z</time>
      </trkpt>
      <trkpt lat="45.52774" lon="4.56457">
        <ele>415</ele>
        <time>2012-01-14T09:16:32Z</time>
      </trkpt>
      <trkpt lat="45.52765" lon="4.56469">
        <ele>416</ele>
        <time>2012-01-14T09:16:37Z</time>
      </trkpt>
      <trkpt lat="45.52757" lon="4.5648">
        <ele>418</ele>
        <time>2012-01-14T09:16:42Z</time>
      </trkpt>
      <trkpt lat="45.52749" lon="4.56489">
        <ele>419</ele>
        <time>2012-01-14T09:16:47Z</time>
      </trkpt>
      <trkpt lat="45.52742" lon="4.56493">
        <ele>420</ele>
        <time>2012-01-14T09:16:52Z</time>
      </trkpt>
      <trkpt lat="45.52735" lon="4.56502">
        <ele>420</ele>
        <time>2012-01-14T09:16:57Z</time>
      </trkpt>
      <trkpt lat="45.52728" lon="4.5651">
        <ele>421</ele>
        <time>2012-01-14T09:17:02Z</time>
      </trkpt>
      <trkpt lat="45.52723" lon="4.56514">
        <ele>421</ele>
        <time>2012-01-14T09:17:07Z</time>
      </trkpt>
      <trkpt lat="45.52718" lon="4.56519">
        <ele>421</ele>
        <time>2012-01-14T09:17:13Z</time>
      </trkpt>
      <trkpt lat="45.52713" lon="4.56524">
        <ele>422</ele>
        <time>2012-01-14T09:17:18Z</time>
      </trkpt>
      <trkpt lat="45.52707" lon="4.56528">
        <ele>422</ele>
        <time>2012-01-14T09:17:39Z</time>
      </trkpt>
      <trkpt lat="45.52706" lon="4.56531">
        <ele>422</ele>
        <time>2012-01-14T09:17:46Z</time>
      </trkpt>
      <trkpt lat="45.52705" lon="4.56533">
        <ele>422</ele>
        <time>2012-01-14T09:17:58Z</time>
      </trkpt>
      <trkpt lat="45.52701" lon="4.56538">
        <ele>422</ele>
        <time>2012-01-14T09:18:03Z</time>
      </trkpt>
      <trkpt lat="45.52695" lon="4.56544">
        <ele>422</ele>
        <time>2012-01-14T09:18:09Z</time>
      </trkpt>
      <trkpt lat="45.52692" lon="4.56548">
        <ele>422</ele>
        <time>2012-01-14T09:18:14Z</time>
      </trkpt>
      <trkpt lat="45.52684" lon="4.56559">
        <ele>423</ele>
        <time>2012-01-14T09:18:20Z</time>
      </trkpt>
      <trkpt lat="45.52678" lon="4.56569">
        <ele>423</ele>
        <time>2012-01-14T09:18:25Z</time>
      </trkpt>
      <trkpt lat="45.52672" lon="4.56574">
        <ele>424</ele>
        <time>2012-01-14T09:18:30Z</time>
      </trkpt>
      <trkpt lat="45.52664" lon="4.56582">
        <ele>424</ele>
        <time>2012-01-14T09:18:35Z</time>
      </trkpt>
      <trkpt lat="45.52656" lon="4.56588">
        <ele>425</ele>
        <time>2012-01-14T09:18:40Z</time>
      </trkpt>
      <trkpt lat="45.52647" lon="4.56593">
        <ele>425</ele>
        <time>2012-01-14T09:18:45Z</time>
      </trkpt>
      <trkpt lat="45.52638" lon="4.56597">
        <ele>426</ele>
        <time>2012-01-14T09:18:50Z</time>
      </trkpt>
      <trkpt lat="45.52629" lon="4.56601">
        <ele>428</ele>
        <time>2012-01-14T09:18:55Z</time>
      </trkpt>
      <trkpt lat="45.5262" lon="4.56605">
        <ele>430</ele>
        <time>2012-01-14T09:19:00Z</time>
      </trkpt>
      <trkpt lat="45.52611" lon="4.56611">
        <ele>431</ele>
        <time>2012-01-14T09:19:05Z</time>
      </trkpt>
      <trkpt lat="45.52602" lon="4.56618">
        <ele>431</ele>
        <time>2012-01-14T09:19:10Z</time>
      </trkpt>
      <trkpt lat="45.52593" lon="4.56627">
        <ele>432</ele>
        <time>2012-01-14T09:19:15Z</time>
      </trkpt>
      <trkpt lat="45.52583" lon="4.56636">
        <ele>432</ele>
        <time>2012-01-14T09:19:20Z</time>
      </trkpt>
      <trkpt lat="45.52573" lon="4.56644">
        <ele>433</ele>
        <time>2012-01-14T09:19:25Z</time>
      </trkpt>
      <trkpt lat="45.52565" lon="4.56652">
        <ele>433</ele>
        <time>2012-01-14T09:19:30Z</time>
      </trkpt>
      <trkpt lat="45.52557" lon="4.56657">
        <ele>433</ele>
        <time>2012-01-14T09:19:35Z</time>
      </trkpt>
      <trkpt lat="45.5255" lon="4.56669">
        <ele>433</ele>
        <time>2012-01-14T09:19:41Z</time>
      </trkpt>
      <trkpt lat="45.52551" lon="4.56685">
        <ele>433</ele>
        <time>2012-01-14T09:19:46Z</time>
      </trkpt>
      <trkpt lat="45.52546" lon="4.56701">
        <ele>433</ele>
        <time>2012-01-14T09:19:51Z</time>
      </trkpt>
      <trkpt lat="45.52533" lon="4.56704">
        <ele>433</ele>
        <time>2012-01-14T09:19:56Z</time>
      </trkpt>
      <trkpt lat="45.5252" lon="4.56704">
        <ele>433</ele>
        <time>2012-01-14T09:20:01Z</time>
      </trkpt>
      <trkpt lat="45.52509" lon="4.56702">
        <ele>433</ele>
        <time>2012-01-14T09:20:06Z</time>
      </trkpt>
      <trkpt lat="45.52497" lon="4.56694">
        <ele>433</ele>
        <time>2012-01-14T09:20:11Z</time>
      </trkpt>
      <trkpt lat="45.52487" lon="4.56686">
        <ele>433</ele>
        <time>2012-01-14T09:20:16Z</time>
      </trkpt>
      <trkpt lat="45.52477" lon="4.56676">
        <ele>432</ele>
        <time>2012-01-14T09:20:21Z</time>
      </trkpt>
      <trkpt lat="45.52467" lon="4.56668">
        <ele>432</ele>
        <time>2012-01-14T09:20:26Z</time>
      </trkpt>
      <trkpt lat="45.52457" lon="4.56661">
        <ele>432</ele>
        <time>2012-01-14T09:20:31Z</time>
      </trkpt>
      <trkpt lat="45.52446" lon="4.56655">
        <ele>431</ele>
        <time>2012-01-14T09:20:36Z</time>
      </trkpt>
      <trkpt lat="45.52435" lon="4.56652">
        <ele>430</ele>
        <time>2012-01-14T09:20:41Z</time>
      </trkpt>
      <trkpt lat="45.52424" lon="4.5665">
        <ele>429</ele>
        <time>2012-01-14T09:20:46Z</time>
      </trkpt>
      <trkpt lat="45.52413" lon="4.56648">
        <ele>426</ele>
        <time>2012-01-14T09:20:51Z</time>
      </trkpt>
      <trkpt lat="45.52402" lon="4.56644">
        <ele>424</ele>
        <time>2012-01-14T09:20:56Z</time>
      </trkpt>
      <trkpt lat="45.52392" lon="4.56637">
        <ele>422</ele>
        <time>2012-01-14T09:21:01Z</time>
      </trkpt>
      <trkpt lat="45.5238" lon="4.56633">
        <ele>422</ele>
        <time>2012-01-14T09:21:06Z</time>
      </trkpt>
      <trkpt lat="45.52367" lon="4.56631">
        <ele>421</ele>
        <time>2012-01-14T09:21:11Z</time>
      </trkpt>
      <trkpt lat="45.52355" lon="4.56633">
        <ele>421</ele>
        <time>2012-01-14T09:21:16Z</time>
      </trkpt>
      <trkpt lat="45.52347" lon="4.56645">
        <ele>421</ele>
        <time>2012-01-14T09:21:21Z</time>
      </trkpt>
      <trkpt lat="45.52346" lon="4.5666">
        <ele>420</ele>
        <time>2012-01-14T09:21:26Z</time>
      </trkpt>
      <trkpt lat="45.52343" lon="4.56675">
        <ele>418</ele>
        <time>2012-01-14T09:21:31Z</time>
      </trkpt>
      <trkpt lat="45.52341" lon="4.56693">
        <ele>416</ele>
        <time>2012-01-14T09:21:36Z</time>
      </trkpt>
      <trkpt lat="45.52338" lon="4.56709">
        <ele>414</ele>
        <time>2012-01-14T09:21:41Z</time>
      </trkpt>
      <trkpt lat="45.52335" lon="4.56726">
        <ele>412</ele>
        <time>2012-01-14T09:21:46Z</time>
      </trkpt>
      <trkpt lat="45.52333" lon="4.56743">
        <ele>409</ele>
        <time>2012-01-14T09:21:51Z</time>
      </trkpt>
      <trkpt lat="45.5233" lon="4.5676">
        <ele>407</ele>
        <time>2012-01-14T09:21:56Z</time>
      </trkpt>
      <trkpt lat="45.52328" lon="4.56776">
        <ele>406</ele>
        <time>2012-01-14T09:22:01Z</time>
      </trkpt>
      <trkpt lat="45.5232" lon="4.56789">
        <ele>404</ele>
        <time>2012-01-14T09:22:06Z</time>
      </trkpt>
      <trkpt lat="45.52315" lon="4.56804">
        <ele>402</ele>
        <time>2012-01-14T09:22:11Z</time>
      </trkpt>
      <trkpt lat="45.52311" lon="4.56817">
        <ele>399</ele>
        <time>2012-01-14T09:22:16Z</time>
      </trkpt>
      <trkpt lat="45.52304" lon="4.56829">
        <ele>397</ele>
        <time>2012-01-14T09:22:21Z</time>
      </trkpt>
      <trkpt lat="45.52301" lon="4.56844">
        <ele>395</ele>
        <time>2012-01-14T09:22:26Z</time>
      </trkpt>
      <trkpt lat="45.52299" lon="4.56856">
        <ele>394</ele>
        <time>2012-01-14T09:22:31Z</time>
      </trkpt>
      <trkpt lat="45.52303" lon="4.56869">
        <ele>392</ele>
        <time>2012-01-14T09:22:36Z</time>
      </trkpt>
      <trkpt lat="45.52308" lon="4.56881">
        <ele>390</ele>
        <time>2012-01-14T09:22:41Z</time>
      </trkpt>
      <trkpt lat="45.52307" lon="4.56896">
        <ele>387</ele>
        <time>2012-01-14T09:22:46Z</time>
      </trkpt>
      <trkpt lat="45.52304" lon="4.56911">
        <ele>385</ele>
        <time>2012-01-14T09:22:51Z</time>
      </trkpt>
      <trkpt lat="45.52304" lon="4.56927">
        <ele>383</ele>
        <time>2012-01-14T09:22:56Z</time>
      </trkpt>
      <trkpt lat="45.52303" lon="4.56944">
        <ele>382</ele>
        <time>2012-01-14T09:23:01Z</time>
      </trkpt>
      <trkpt lat="45.52303" lon="4.56961">
        <ele>381</ele>
        <time>2012-01-14T09:23:06Z</time>
      </trkpt>
      <trkpt lat="45.52301" lon="4.56977">
        <ele>379</ele>
        <time>2012-01-14T09:23:11Z</time>
      </trkpt>
      <trkpt lat="45.523" lon="4.56997">
        <ele>377</ele>
        <time>2012-01-14T09:23:17Z</time>
      </trkpt>
      <trkpt lat="45.52301" lon="4.57013">
        <ele>374</ele>
        <time>2012-01-14T09:23:22Z</time>
      </trkpt>
      <trkpt lat="45.52301" lon="4.5703">
        <ele>373</ele>
        <time>2012-01-14T09:23:27Z</time>
      </trkpt>
      <trkpt lat="45.52299" lon="4.5705">
        <ele>372</ele>
        <time>2012-01-14T09:23:32Z</time>
      </trkpt>
      <trkpt lat="45.52298" lon="4.57069">
        <ele>371</ele>
        <time>2012-01-14T09:23:37Z</time>
      </trkpt>
      <trkpt lat="45.523" lon="4.57086">
        <ele>369</ele>
        <time>2012-01-14T09:23:42Z</time>
      </trkpt>
      <trkpt lat="45.52306" lon="4.57099">
        <ele>366</ele>
        <time>2012-01-14T09:23:47Z</time>
      </trkpt>
      <trkpt lat="45.52316" lon="4.57113">
        <ele>363</ele>
        <time>2012-01-14T09:23:52Z</time>
      </trkpt>
      <trkpt lat="45.52318" lon="4.57132">
        <ele>361</ele>
        <time>2012-01-14T09:23:57Z</time>
      </trkpt>
      <trkpt lat="45.52313" lon="4.57149">
        <ele>359</ele>
        <time>2012-01-14T09:24:02Z</time>
      </trkpt>
      <trkpt lat="45.52306" lon="4.57168">
        <ele>359</ele>
        <time>2012-01-14T09:24:07Z</time>
      </trkpt>
      <trkpt lat="45.523" lon="4.57184">
        <ele>358</ele>
        <time>2012-01-14T09:24:12Z</time>
      </trkpt>
      <trkpt lat="45.52294" lon="4.57198">
        <ele>358</ele>
        <time>2012-01-14T09:24:17Z</time>
      </trkpt>
      <trkpt lat="45.52288" lon="4.5721">
        <ele>357</ele>
        <time>2012-01-14T09:24:22Z</time>
      </trkpt>
      <trkpt lat="45.52275" lon="4.5721">
        <ele>354</ele>
        <time>2012-01-14T09:24:27Z</time>
      </trkpt>
      <trkpt lat="45.52263" lon="4.57213">
        <ele>351</ele>
        <time>2012-01-14T09:24:32Z</time>
      </trkpt>
      <trkpt lat="45.5225" lon="4.57221">
        <ele>349</ele>
        <time>2012-01-14T09:24:37Z</time>
      </trkpt>
      <trkpt lat="45.5224" lon="4.57237">
        <ele>348</ele>
        <time>2012-01-14T09:24:42Z</time>
      </trkpt>
      <trkpt lat="45.5223" lon="4.57257">
        <ele>348</ele>
        <time>2012-01-14T09:24:47Z</time>
      </trkpt>
      <trkpt lat="45.52213" lon="4.57266">
        <ele>347</ele>
        <time>2012-01-14T09:24:52Z</time>
      </trkpt>
      <trkpt lat="45.52196" lon="4.57267">
        <ele>347</ele>
        <time>2012-01-14T09:24:57Z</time>
      </trkpt>
      <trkpt lat="45.52179" lon="4.57268">
        <ele>347</ele>
        <time>2012-01-14T09:25:02Z</time>
      </trkpt>
      <trkpt lat="45.52164" lon="4.57266">
        <ele>346</ele>
        <time>2012-01-14T09:25:07Z</time>
      </trkpt>
      <trkpt lat="45.52143" lon="4.57258">
        <ele>345</ele>
        <time>2012-01-14T09:25:12Z</time>
      </trkpt>
      <trkpt lat="45.5212" lon="4.57249">
        <ele>341</ele>
        <time>2012-01-14T09:25:17Z</time>
      </trkpt>
      <trkpt lat="45.52098" lon="4.57239">
        <ele>339</ele>
        <time>2012-01-14T09:25:22Z</time>
      </trkpt>
      <trkpt lat="45.52076" lon="4.57229">
        <ele>337</ele>
        <time>2012-01-14T09:25:27Z</time>
      </trkpt>
      <trkpt lat="45.52054" lon="4.57224">
        <ele>335</ele>
        <time>2012-01-14T09:25:32Z</time>
      </trkpt>
      <trkpt lat="45.52036" lon="4.57222">
        <ele>332</ele>
        <time>2012-01-14T09:25:37Z</time>
      </trkpt>
      <trkpt lat="45.52019" lon="4.57218">
        <ele>330</ele>
        <time>2012-01-14T09:25:42Z</time>
      </trkpt>
      <trkpt lat="45.52002" lon="4.57224">
        <ele>328</ele>
        <time>2012-01-14T09:25:47Z</time>
      </trkpt>
      <trkpt lat="45.51989" lon="4.57216">
        <ele>326</ele>
        <time>2012-01-14T09:25:52Z</time>
      </trkpt>
      <trkpt lat="45.51976" lon="4.57212">
        <ele>324</ele>
        <time>2012-01-14T09:25:57Z</time>
      </trkpt>
      <trkpt lat="45.51962" lon="4.57211">
        <ele>323</ele>
        <time>2012-01-14T09:26:02Z</time>
      </trkpt>
      <trkpt lat="45.51949" lon="4.57212">
        <ele>321</ele>
        <time>2012-01-14T09:26:07Z</time>
      </trkpt>
      <trkpt lat="45.51943" lon="4.57191">
        <ele>320</ele>
        <time>2012-01-14T09:26:12Z</time>
      </trkpt>
      <trkpt lat="45.51952" lon="4.57173">
        <ele>319</ele>
        <time>2012-01-14T09:26:17Z</time>
      </trkpt>
      <trkpt lat="45.51958" lon="4.57154">
        <ele>317</ele>
        <time>2012-01-14T09:26:22Z</time>
      </trkpt>
      <trkpt lat="45.51963" lon="4.57137">
        <ele>316</ele>
        <time>2012-01-14T09:26:27Z</time>
      </trkpt>
      <trkpt lat="45.5197" lon="4.5712">
        <ele>314</ele>
        <time>2012-01-14T09:26:32Z</time>
      </trkpt>
      <trkpt lat="45.51974" lon="4.57112">
        <ele>313</ele>
        <time>2012-01-14T09:26:37Z</time>
      </trkpt>
      <trkpt lat="45.51977" lon="4.57103">
        <ele>312</ele>
        <time>2012-01-14T09:26:43Z</time>
      </trkpt>
      <trkpt lat="45.51981" lon="4.57095">
        <ele>312</ele>
        <time>2012-01-14T09:26:49Z</time>
      </trkpt>
      <trkpt lat="45.51989" lon="4.57088">
        <ele>312</ele>
        <time>2012-01-14T09:26:54Z</time>
      </trkpt>
      <trkpt lat="45.51998" lon="4.57083">
        <ele>312</ele>
        <time>2012-01-14T09:26:59Z</time>
      </trkpt>
      <trkpt lat="45.52003" lon="4.57083">
        <ele>312</ele>
        <time>2012-01-14T09:27:04Z</time>
      </trkpt>
      <trkpt lat="45.52008" lon="4.57083">
        <ele>312</ele>
        <time>2012-01-14T09:27:11Z</time>
      </trkpt>
      <trkpt lat="45.52012" lon="4.57085">
        <ele>312</ele>
        <time>2012-01-14T09:27:16Z</time>
      </trkpt>
      <trkpt lat="45.52017" lon="4.57088">
        <ele>312</ele>
        <time>2012-01-14T09:27:22Z</time>
      </trkpt>
      <trkpt lat="45.52022" lon="4.57091">
        <ele>312</ele>
        <time>2012-01-14T09:27:28Z</time>
      </trkpt>
      <trkpt lat="45.52028" lon="4.57094">
        <ele>312</ele>
        <time>2012-01-14T09:27:34Z</time>
      </trkpt>
      <trkpt lat="45.52034" lon="4.57098">
        <ele>312</ele>
        <time>2012-01-14T09:27:39Z</time>
      </trkpt>
      <trkpt lat="45.5204" lon="4.57099">
        <ele>312</ele>
        <time>2012-01-14T09:27:45Z</time>
      </trkpt>
      <trkpt lat="45.52045" lon="4.57098">
        <ele>312</ele>
        <time>2012-01-14T09:27:50Z</time>
      </trkpt>
      <trkpt lat="45.52049" lon="4.57093">
        <ele>312</ele>
        <time>2012-01-14T09:27:56Z</time>
      </trkpt>
      <trkpt lat="45.5205" lon="4.5709">
        <ele>312</ele>
        <time>2012-01-14T09:28:01Z</time>
      </trkpt>
      <trkpt lat="45.5205" lon="4.57085">
        <ele>312</ele>
        <time>2012-01-14T09:28:06Z</time>
      </trkpt>
      <trkpt lat="45.5205" lon="4.57078">
        <ele>312</ele>
        <time>2012-01-14T09:28:12Z</time>
      </trkpt>
      <trkpt lat="45.5205" lon="4.57072">
        <ele>312</ele>
        <time>2012-01-14T09:28:18Z</time>
      </trkpt>
      <trkpt lat="45.52047" lon="4.57067">
        <ele>312</ele>
        <time>2012-01-14T09:28:24Z</time>
      </trkpt>
      <trkpt lat="45.52046" lon="4.57059">
        <ele>312</ele>
        <time>2012-01-14T09:28:29Z</time>
      </trkpt>
      <trkpt lat="45.52043" lon="4.57052">
        <ele>312</ele>
        <time>2012-01-14T09:28:34Z</time>
      </trkpt>
      <trkpt lat="45.52042" lon="4.57046">
        <ele>314</ele>
        <time>2012-01-14T09:28:40Z</time>
      </trkpt>
      <trkpt lat="45.5204" lon="4.57039">
        <ele>315</ele>
        <time>2012-01-14T09:28:46Z</time>
      </trkpt>
      <trkpt lat="45.52039" lon="4.57032">
        <ele>316</ele>
        <time>2012-01-14T09:28:51Z</time>
      </trkpt>
      <trkpt lat="45.52038" lon="4.57025">
        <ele>318</ele>
        <time>2012-01-14T09:28:57Z</time>
      </trkpt>
      <trkpt lat="45.52036" lon="4.57018">
        <ele>319</ele>
        <time>2012-01-14T09:29:02Z</time>
      </trkpt>
      <trkpt lat="45.52035" lon="4.57011">
        <ele>320</ele>
        <time>2012-01-14T09:29:07Z</time>
      </trkpt>
      <trkpt lat="45.52034" lon="4.57003">
        <ele>320</ele>
        <time>2012-01-14T09:29:13Z</time>
      </trkpt>
      <trkpt lat="45.52033" lon="4.56994">
        <ele>321</ele>
        <time>2012-01-14T09:29:19Z</time>
      </trkpt>
      <trkpt lat="45.52032" lon="4.56988">
        <ele>321</ele>
        <time>2012-01-14T09:29:24Z</time>
      </trkpt>
      <trkpt lat="45.52031" lon="4.5698">
        <ele>321</ele>
        <time>2012-01-14T09:29:30Z</time>
      </trkpt>
      <trkpt lat="45.52029" lon="4.56972">
        <ele>322</ele>
        <time>2012-01-14T09:29:35Z</time>
      </trkpt>
      <trkpt lat="45.52029" lon="4.56964">
        <ele>323</ele>
        <time>2012-01-14T09:29:41Z</time>
      </trkpt>
      <trkpt lat="45.52027" lon="4.56955">
        <ele>325</ele>
        <time>2012-01-14T09:29:46Z</time>
      </trkpt>
      <trkpt lat="45.52026" lon="4.56947">
        <ele>327</ele>
        <time>2012-01-14T09:29:52Z</time>
      </trkpt>
      <trkpt lat="45.52026" lon="4.56939">
        <ele>328</ele>
        <time>2012-01-14T09:29:58Z</time>
      </trkpt>
      <trkpt lat="45.52025" lon="4.56932">
        <ele>328</ele>
        <time>2012-01-14T09:30:03Z</time>
      </trkpt>
      <trkpt lat="45.52026" lon="4.56925">
        <ele>329</ele>
        <time>2012-01-14T09:30:08Z</time>
      </trkpt>
      <trkpt lat="45.52026" lon="4.56919">
        <ele>329</ele>
        <time>2012-01-14T09:30:13Z</time>
      </trkpt>
      <trkpt lat="45.52026" lon="4.56911">
        <ele>330</ele>
        <time>2012-01-14T09:30:18Z</time>
      </trkpt>
      <trkpt lat="45.52026" lon="4.56904">
        <ele>331</ele>
        <time>2012-01-14T09:30:23Z</time>
      </trkpt>
      <trkpt lat="45.52025" lon="4.56895">
        <ele>332</ele>
        <time>2012-01-14T09:30:29Z</time>
      </trkpt>
      <trkpt lat="45.52025" lon="4.56887">
        <ele>333</ele>
        <time>2012-01-14T09:30:35Z</time>
      </trkpt>
      <trkpt lat="45.52024" lon="4.56879">
        <ele>333</ele>
        <time>2012-01-14T09:30:40Z</time>
      </trkpt>
      <trkpt lat="45.52023" lon="4.56871">
        <ele>335</ele>
        <time>2012-01-14T09:30:45Z</time>
      </trkpt>
      <trkpt lat="45.52023" lon="4.56863">
        <ele>337</ele>
        <time>2012-01-14T09:30:51Z</time>
      </trkpt>
      <trkpt lat="45.52023" lon="4.56856">
        <ele>337</ele>
        <time>2012-01-14T09:30:56Z</time>
      </trkpt>
      <trkpt lat="45.52022" lon="4.56847">
        <ele>337</ele>
        <time>2012-01-14T09:31:02Z</time>
      </trkpt>
      <trkpt lat="45.52021" lon="4.56839">
        <ele>338</ele>
        <time>2012-01-14T09:31:07Z</time>
      </trkpt>
      <trkpt lat="45.5202" lon="4.56833">
        <ele>340</ele>
        <time>2012-01-14T09:31:19Z</time>
      </trkpt>
      <trkpt lat="45.5202" lon="4.56824">
        <ele>340</ele>
        <time>2012-01-14T09:31:25Z</time>
      </trkpt>
      <trkpt lat="45.52017" lon="4.56815">
        <ele>340</ele>
        <time>2012-01-14T09:31:31Z</time>
      </trkpt>
      <trkpt lat="45.52015" lon="4.56808">
        <ele>341</ele>
        <time>2012-01-14T09:31:36Z</time>
      </trkpt>
      <trkpt lat="45.52012" lon="4.568">
        <ele>342</ele>
        <time>2012-01-14T09:31:41Z</time>
      </trkpt>
      <trkpt lat="45.5201" lon="4.56792">
        <ele>343</ele>
        <time>2012-01-14T09:31:46Z</time>
      </trkpt>
      <trkpt lat="45.52007" lon="4.56784">
        <ele>343</ele>
        <time>2012-01-14T09:31:51Z</time>
      </trkpt>
      <trkpt lat="45.52004" lon="4.56778">
        <ele>344</ele>
        <time>2012-01-14T09:31:56Z</time>
      </trkpt>
      <trkpt lat="45.52" lon="4.5677">
        <ele>345</ele>
        <time>2012-01-14T09:32:01Z</time>
      </trkpt>
      <trkpt lat="45.51997" lon="4.56762">
        <ele>347</ele>
        <time>2012-01-14T09:32:07Z</time>
      </trkpt>
      <trkpt lat="45.51992" lon="4.56754">
        <ele>349</ele>
        <time>2012-01-14T09:32:12Z</time>
      </trkpt>
      <trkpt lat="45.51987" lon="4.56745">
        <ele>350</ele>
        <time>2012-01-14T09:32:18Z</time>
      </trkpt>
      <trkpt lat="45.51984" lon="4.56738">
        <ele>351</ele>
        <time>2012-01-14T09:32:23Z</time>
      </trkpt>
      <trkpt lat="45.51981" lon="4.56731">
        <ele>351</ele>
        <time>2012-01-14T09:32:28Z</time>
      </trkpt>
      <trkpt lat="45.51976" lon="4.56725">
        <ele>352</ele>
        <time>2012-01-14T09:32:34Z</time>
      </trkpt>
      <trkpt lat="45.51971" lon="4.56717">
        <ele>354</ele>
        <time>2012-01-14T09:32:40Z</time>
      </trkpt>
      <trkpt lat="45.51967" lon="4.56709">
        <ele>356</ele>
        <time>2012-01-14T09:32:45Z</time>
      </trkpt>
      <trkpt lat="45.51961" lon="4.56703">
        <ele>356</ele>
        <time>2012-01-14T09:32:51Z</time>
      </trkpt>
      <trkpt lat="45.51956" lon="4.56696">
        <ele>356</ele>
        <time>2012-01-14T09:32:57Z</time>
      </trkpt>
      <trkpt lat="45.51952" lon="4.56688">
        <ele>356</ele>
        <time>2012-01-14T09:33:03Z</time>
      </trkpt>
      <trkpt lat="45.51947" lon="4.56681">
        <ele>357</ele>
        <time>2012-01-14T09:33:09Z</time>
      </trkpt>
      <trkpt lat="45.51942" lon="4.56676">
        <ele>358</ele>
        <time>2012-01-14T09:33:14Z</time>
      </trkpt>
      <trkpt lat="45.51936" lon="4.56672">
        <ele>360</ele>
        <time>2012-01-14T09:33:19Z</time>
      </trkpt>
      <trkpt lat="45.51931" lon="4.56665">
        <ele>361</ele>
        <time>2012-01-14T09:33:24Z</time>
      </trkpt>
      <trkpt lat="45.51921" lon="4.56654">
        <ele>361</ele>
        <time>2012-01-14T09:33:29Z</time>
      </trkpt>
      <trkpt lat="45.5191" lon="4.56646">
        <ele>364</ele>
        <time>2012-01-14T09:33:34Z</time>
      </trkpt>
      <trkpt lat="45.51899" lon="4.56641">
        <ele>367</ele>
        <time>2012-01-14T09:33:39Z</time>
      </trkpt>
      <trkpt lat="45.51885" lon="4.56644">
        <ele>370</ele>
        <time>2012-01-14T09:33:44Z</time>
      </trkpt>
      <trkpt lat="45.51875" lon="4.56641">
        <ele>373</ele>
        <time>2012-01-14T09:33:49Z</time>
      </trkpt>
      <trkpt lat="45.51865" lon="4.56628">
        <ele>376</ele>
        <time>2012-01-14T09:33:54Z</time>
      </trkpt>
      <trkpt lat="45.51856" lon="4.56617">
        <ele>377</ele>
        <time>2012-01-14T09:33:59Z</time>
      </trkpt>
      <trkpt lat="45.51847" lon="4.56607">
        <ele>377</ele>
        <time>2012-01-14T09:34:04Z</time>
      </trkpt>
      <trkpt lat="45.51837" lon="4.566">
        <ele>378</ele>
        <time>2012-01-14T09:34:09Z</time>
      </trkpt>
      <trkpt lat="45.51831" lon="4.56588">
        <ele>378</ele>
        <time>2012-01-14T09:34:14Z</time>
      </trkpt>
      <trkpt lat="45.51827" lon="4.56575">
        <ele>378</ele>
        <time>2012-01-14T09:34:19Z</time>
      </trkpt>
      <trkpt lat="45.51824" lon="4.56567">
        <ele>378</ele>
        <time>2012-01-14T09:34:25Z</time>
      </trkpt>
      <trkpt lat="45.5182" lon="4.5656">
        <ele>378</ele>
        <time>2012-01-14T09:34:31Z</time>
      </trkpt>
      <trkpt lat="45.51815" lon="4.56554">
        <ele>378</ele>
        <time>2012-01-14T09:34:37Z</time>
      </trkpt>
      <trkpt lat="45.5181" lon="4.56548">
        <ele>378</ele>
        <time>2012-01-14T09:34:43Z</time>
      </trkpt>
      <trkpt lat="45.51805" lon="4.56543">
        <ele>378</ele>
        <time>2012-01-14T09:34:49Z</time>
      </trkpt>
      <trkpt lat="45.518" lon="4.56536">
        <ele>378</ele>
        <time>2012-01-14T09:34:55Z</time>
      </trkpt>
      <trkpt lat="45.51795" lon="4.56532">
        <ele>378</ele>
        <time>2012-01-14T09:35:00Z</time>
      </trkpt>
      <trkpt lat="45.51789" lon="4.56526">
        <ele>379</ele>
        <time>2012-01-14T09:35:06Z</time>
      </trkpt>
      <trkpt lat="45.51784" lon="4.5652">
        <ele>381</ele>
        <time>2012-01-14T09:35:11Z</time>
      </trkpt>
      <trkpt lat="45.51779" lon="4.56514">
        <ele>382</ele>
        <time>2012-01-14T09:35:17Z</time>
      </trkpt>
      <trkpt lat="45.51773" lon="4.56507">
        <ele>384</ele>
        <time>2012-01-14T09:35:23Z</time>
      </trkpt>
      <trkpt lat="45.51768" lon="4.56502">
        <ele>384</ele>
        <time>2012-01-14T09:35:29Z</time>
      </trkpt>
      <trkpt lat="45.51764" lon="4.56497">
        <ele>385</ele>
        <time>2012-01-14T09:35:35Z</time>
      </trkpt>
      <trkpt lat="45.51759" lon="4.56491">
        <ele>386</ele>
        <time>2012-01-14T09:35:41Z</time>
      </trkpt>
      <trkpt lat="45.51754" lon="4.56486">
        <ele>387</ele>
        <time>2012-01-14T09:35:47Z</time>
      </trkpt>
      <trkpt lat="45.5175" lon="4.56481">
        <ele>389</ele>
        <time>2012-01-14T09:35:52Z</time>
      </trkpt>
      <trkpt lat="45.51746" lon="4.56475">
        <ele>390</ele>
        <time>2012-01-14T09:36:01Z</time>
      </trkpt>
      <trkpt lat="45.51741" lon="4.56465">
        <ele>392</ele>
        <time>2012-01-14T09:36:06Z</time>
      </trkpt>
      <trkpt lat="45.51735" lon="4.56452">
        <ele>394</ele>
        <time>2012-01-14T09:36:11Z</time>
      </trkpt>
      <trkpt lat="45.51729" lon="4.5644">
        <ele>395</ele>
        <time>2012-01-14T09:36:16Z</time>
      </trkpt>
      <trkpt lat="45.51722" lon="4.56429">
        <ele>395</ele>
        <time>2012-01-14T09:36:21Z</time>
      </trkpt>
      <trkpt lat="45.51718" lon="4.56416">
        <ele>396</ele>
        <time>2012-01-14T09:36:26Z</time>
      </trkpt>
      <trkpt lat="45.51716" lon="4.56403">
        <ele>397</ele>
        <time>2012-01-14T09:36:31Z</time>
      </trkpt>
      <trkpt lat="45.51714" lon="4.5639">
        <ele>397</ele>
        <time>2012-01-14T09:36:36Z</time>
      </trkpt>
      <trkpt lat="45.5171" lon="4.56377">
        <ele>398</ele>
        <time>2012-01-14T09:36:41Z</time>
      </trkpt>
      <trkpt lat="45.51705" lon="4.56366">
        <ele>401</ele>
        <time>2012-01-14T09:36:46Z</time>
      </trkpt>
      <trkpt lat="45.517" lon="4.56358">
        <ele>403</ele>
        <time>2012-01-14T09:36:51Z</time>
      </trkpt>
      <trkpt lat="45.51699" lon="4.56349">
        <ele>404</ele>
        <time>2012-01-14T09:36:56Z</time>
      </trkpt>
      <trkpt lat="45.517" lon="4.5634">
        <ele>404</ele>
        <time>2012-01-14T09:37:01Z</time>
      </trkpt>
      <trkpt lat="45.51701" lon="4.56336">
        <ele>405</ele>
        <time>2012-01-14T09:37:20Z</time>
      </trkpt>
      <trkpt lat="45.51703" lon="4.56331">
        <ele>406</ele>
        <time>2012-01-14T09:37:26Z</time>
      </trkpt>
      <trkpt lat="45.51705" lon="4.56315">
        <ele>406</ele>
        <time>2012-01-14T09:37:31Z</time>
      </trkpt>
      <trkpt lat="45.51705" lon="4.56295">
        <ele>406</ele>
        <time>2012-01-14T09:37:36Z</time>
      </trkpt>
      <trkpt lat="45.51709" lon="4.56281">
        <ele>406</ele>
        <time>2012-01-14T09:37:41Z</time>
      </trkpt>
      <trkpt lat="45.51713" lon="4.56267">
        <ele>406</ele>
        <time>2012-01-14T09:37:46Z</time>
      </trkpt>
      <trkpt lat="45.51716" lon="4.5625">
        <ele>406</ele>
        <time>2012-01-14T09:37:51Z</time>
      </trkpt>
      <trkpt lat="45.51716" lon="4.5623">
        <ele>406</ele>
        <time>2012-01-14T09:37:56Z</time>
      </trkpt>
      <trkpt lat="45.51711" lon="4.5621">
        <ele>406</ele>
        <time>2012-01-14T09:38:01Z</time>
      </trkpt>
      <trkpt lat="45.51706" lon="4.56191">
        <ele>406</ele>
        <time>2012-01-14T09:38:06Z</time>
      </trkpt>
      <trkpt lat="45.51702" lon="4.56172">
        <ele>406</ele>
        <time>2012-01-14T09:38:11Z</time>
      </trkpt>
      <trkpt lat="45.51697" lon="4.56152">
        <ele>406</ele>
        <time>2012-01-14T09:38:16Z</time>
      </trkpt>
      <trkpt lat="45.51692" lon="4.56135">
        <ele>406</ele>
        <time>2012-01-14T09:38:21Z</time>
      </trkpt>
      <trkpt lat="45.51687" lon="4.5612">
        <ele>406</ele>
        <time>2012-01-14T09:38:26Z</time>
      </trkpt>
      <trkpt lat="45.51682" lon="4.56104">
        <ele>406</ele>
        <time>2012-01-14T09:38:31Z</time>
      </trkpt>
      <trkpt lat="45.51679" lon="4.56087">
        <ele>406</ele>
        <time>2012-01-14T09:38:36Z</time>
      </trkpt>
      <trkpt lat="45.51675" lon="4.5607">
        <ele>406</ele>
        <time>2012-01-14T09:38:41Z</time>
      </trkpt>
      <trkpt lat="45.5167" lon="4.56053">
        <ele>406</ele>
        <time>2012-01-14T09:38:46Z</time>
      </trkpt>
      <trkpt lat="45.51667" lon="4.56039">
        <ele>406</ele>
        <time>2012-01-14T09:38:51Z</time>
      </trkpt>
      <trkpt lat="45.51663" lon="4.5602">
        <ele>406</ele>
        <time>2012-01-14T09:38:56Z</time>
      </trkpt>
      <trkpt lat="45.51661" lon="4.56004">
        <ele>406</ele>
        <time>2012-01-14T09:39:01Z</time>
      </trkpt>
      <trkpt lat="45.5166" lon="4.55988">
        <ele>406</ele>
        <time>2012-01-14T09:39:06Z</time>
      </trkpt>
      <trkpt lat="45.51659" lon="4.55972">
        <ele>406</ele>
        <time>2012-01-14T09:39:11Z</time>
      </trkpt>
      <trkpt lat="45.51657" lon="4.55957">
        <ele>406</ele>
        <time>2012-01-14T09:39:16Z</time>
      </trkpt>
      <trkpt lat="45.51655" lon="4.5594">
        <ele>406</ele>
        <time>2012-01-14T09:39:21Z</time>
      </trkpt>
      <trkpt lat="45.51655" lon="4.55925">
        <ele>406</ele>
        <time>2012-01-14T09:39:26Z</time>
      </trkpt>
      <trkpt lat="45.51656" lon="4.55912">
        <ele>406</ele>
        <time>2012-01-14T09:39:31Z</time>
      </trkpt>
      <trkpt lat="45.5166" lon="4.559">
        <ele>406</ele>
        <time>2012-01-14T09:39:36Z</time>
      </trkpt>
      <trkpt lat="45.51659" lon="4.55883">
        <ele>406</ele>
        <time>2012-01-14T09:39:41Z</time>
      </trkpt>
      <trkpt lat="45.51659" lon="4.55868">
        <ele>406</ele>
        <time>2012-01-14T09:39:46Z</time>
      </trkpt>
      <trkpt lat="45.51651" lon="4.55867">
        <ele>407</ele>
        <time>2012-01-14T09:39:51Z</time>
      </trkpt>
      <trkpt lat="45.5164" lon="4.55876">
        <ele>408</ele>
        <time>2012-01-14T09:39:57Z</time>
      </trkpt>
      <trkpt lat="45.51629" lon="4.55881">
        <ele>409</ele>
        <time>2012-01-14T09:40:02Z</time>
      </trkpt>
      <trkpt lat="45.51616" lon="4.55888">
        <ele>409</ele>
        <time>2012-01-14T09:40:07Z</time>
      </trkpt>
      <trkpt lat="45.51605" lon="4.55894">
        <ele>409</ele>
        <time>2012-01-14T09:40:13Z</time>
      </trkpt>
      <trkpt lat="45.51591" lon="4.55905">
        <ele>409</ele>
        <time>2012-01-14T09:40:18Z</time>
      </trkpt>
      <trkpt lat="45.5158" lon="4.55911">
        <ele>410</ele>
        <time>2012-01-14T09:40:23Z</time>
      </trkpt>
      <trkpt lat="45.51567" lon="4.55917">
        <ele>410</ele>
        <time>2012-01-14T09:40:28Z</time>
      </trkpt>
      <trkpt lat="45.51557" lon="4.5592">
        <ele>410</ele>
        <time>2012-01-14T09:40:34Z</time>
      </trkpt>
      <trkpt lat="45.51543" lon="4.55924">
        <ele>411</ele>
        <time>2012-01-14T09:40:39Z</time>
      </trkpt>
      <trkpt lat="45.51531" lon="4.55928">
        <ele>411</ele>
        <time>2012-01-14T09:40:44Z</time>
      </trkpt>
      <trkpt lat="45.51519" lon="4.55932">
        <ele>411</ele>
        <time>2012-01-14T09:40:50Z</time>
      </trkpt>
      <trkpt lat="45.51505" lon="4.55937">
        <ele>411</ele>
        <time>2012-01-14T09:40:56Z</time>
      </trkpt>
      <trkpt lat="45.51493" lon="4.55944">
        <ele>411</ele>
        <time>2012-01-14T09:41:01Z</time>
      </trkpt>
      <trkpt lat="45.51481" lon="4.55951">
        <ele>412</ele>
        <time>2012-01-14T09:41:06Z</time>
      </trkpt>
      <trkpt lat="45.5147" lon="4.55959">
        <ele>413</ele>
        <time>2012-01-14T09:41:11Z</time>
      </trkpt>
      <trkpt lat="45.51459" lon="4.55963">
        <ele>413</ele>
        <time>2012-01-14T09:41:16Z</time>
      </trkpt>
      <trkpt lat="45.51447" lon="4.55969">
        <ele>413</ele>
        <time>2012-01-14T09:41:21Z</time>
      </trkpt>
      <trkpt lat="45.51435" lon="4.55975">
        <ele>413</ele>
        <time>2012-01-14T09:41:26Z</time>
      </trkpt>
      <trkpt lat="45.5142" lon="4.55984">
        <ele>413</ele>
        <time>2012-01-14T09:41:32Z</time>
      </trkpt>
      <trkpt lat="45.51408" lon="4.55988">
        <ele>413</ele>
        <time>2012-01-14T09:41:37Z</time>
      </trkpt>
      <trkpt lat="45.51397" lon="4.55991">
        <ele>413</ele>
        <time>2012-01-14T09:41:42Z</time>
      </trkpt>
      <trkpt lat="45.51387" lon="4.55993">
        <ele>413</ele>
        <time>2012-01-14T09:41:47Z</time>
      </trkpt>
      <trkpt lat="45.51376" lon="4.55996">
        <ele>413</ele>
        <time>2012-01-14T09:41:52Z</time>
      </trkpt>
      <trkpt lat="45.51362" lon="4.55997">
        <ele>413</ele>
        <time>2012-01-14T09:41:58Z</time>
      </trkpt>
      <trkpt lat="45.51352" lon="4.55993">
        <ele>413</ele>
        <time>2012-01-14T09:42:03Z</time>
      </trkpt>
      <trkpt lat="45.51344" lon="4.55982">
        <ele>413</ele>
        <time>2012-01-14T09:42:08Z</time>
      </trkpt>
      <trkpt lat="45.51337" lon="4.55968">
        <ele>413</ele>
        <time>2012-01-14T09:42:13Z</time>
      </trkpt>
      <trkpt lat="45.51329" lon="4.55955">
        <ele>413</ele>
        <time>2012-01-14T09:42:18Z</time>
      </trkpt>
      <trkpt lat="45.51322" lon="4.55941">
        <ele>413</ele>
        <time>2012-01-14T09:42:23Z</time>
      </trkpt>
      <trkpt lat="45.51314" lon="4.55928">
        <ele>413</ele>
        <time>2012-01-14T09:42:28Z</time>
      </trkpt>
      <trkpt lat="45.51306" lon="4.55914">
        <ele>413</ele>
        <time>2012-01-14T09:42:33Z</time>
      </trkpt>
      <trkpt lat="45.51298" lon="4.55902">
        <ele>413</ele>
        <time>2012-01-14T09:42:38Z</time>
      </trkpt>
      <trkpt lat="45.51292" lon="4.55892">
        <ele>413</ele>
        <time>2012-01-14T09:42:43Z</time>
      </trkpt>
      <trkpt lat="45.51284" lon="4.55883">
        <ele>413</ele>
        <time>2012-01-14T09:42:48Z</time>
      </trkpt>
      <trkpt lat="45.51278" lon="4.55871">
        <ele>412</ele>
        <time>2012-01-14T09:42:53Z</time>
      </trkpt>
      <trkpt lat="45.51271" lon="4.55859">
        <ele>412</ele>
        <time>2012-01-14T09:42:58Z</time>
      </trkpt>
      <trkpt lat="45.51266" lon="4.55846">
        <ele>412</ele>
        <time>2012-01-14T09:43:03Z</time>
      </trkpt>
      <trkpt lat="45.51261" lon="4.55833">
        <ele>412</ele>
        <time>2012-01-14T09:43:08Z</time>
      </trkpt>
      <trkpt lat="45.51258" lon="4.55819">
        <ele>412</ele>
        <time>2012-01-14T09:43:13Z</time>
      </trkpt>
      <trkpt lat="45.51255" lon="4.55802">
        <ele>412</ele>
        <time>2012-01-14T09:43:19Z</time>
      </trkpt>
      <trkpt lat="45.51252" lon="4.55787">
        <ele>412</ele>
        <time>2012-01-14T09:43:24Z</time>
      </trkpt>
      <trkpt lat="45.5125" lon="4.55772">
        <ele>412</ele>
        <time>2012-01-14T09:43:29Z</time>
      </trkpt>
      <trkpt lat="45.51248" lon="4.55757">
        <ele>411</ele>
        <time>2012-01-14T09:43:34Z</time>
      </trkpt>
      <trkpt lat="45.51246" lon="4.55743">
        <ele>410</ele>
        <time>2012-01-14T09:43:39Z</time>
      </trkpt>
      <trkpt lat="45.51243" lon="4.55728">
        <ele>410</ele>
        <time>2012-01-14T09:43:44Z</time>
      </trkpt>
      <trkpt lat="45.51241" lon="4.55713">
        <ele>410</ele>
        <time>2012-01-14T09:43:49Z</time>
      </trkpt>
      <trkpt lat="45.5124" lon="4.55698">
        <ele>410</ele>
        <time>2012-01-14T09:43:54Z</time>
      </trkpt>
      <trkpt lat="45.51237" lon="4.55684">
        <ele>410</ele>
        <time>2012-01-14T09:43:59Z</time>
      </trkpt>
      <trkpt lat="45.51235" lon="4.55669">
        <ele>410</ele>
        <time>2012-01-14T09:44:04Z</time>
      </trkpt>
      <trkpt lat="45.51231" lon="4.55653">
        <ele>410</ele>
        <time>2012-01-14T09:44:09Z</time>
      </trkpt>
      <trkpt lat="45.51228" lon="4.55638">
        <ele>410</ele>
        <time>2012-01-14T09:44:14Z</time>
      </trkpt>
      <trkpt lat="45.51226" lon="4.55622">
        <ele>410</ele>
        <time>2012-01-14T09:44:19Z</time>
      </trkpt>
      <trkpt lat="45.51223" lon="4.55607">
        <ele>410</ele>
        <time>2012-01-14T09:44:24Z</time>
      </trkpt>
      <trkpt lat="45.5122" lon="4.55591">
        <ele>410</ele>
        <time>2012-01-14T09:44:29Z</time>
      </trkpt>
      <trkpt lat="45.51217" lon="4.55576">
        <ele>410</ele>
        <time>2012-01-14T09:44:34Z</time>
      </trkpt>
      <trkpt lat="45.51215" lon="4.55557">
        <ele>410</ele>
        <time>2012-01-14T09:44:40Z</time>
      </trkpt>
      <trkpt lat="45.51215" lon="4.55543">
        <ele>410</ele>
        <time>2012-01-14T09:44:45Z</time>
      </trkpt>
      <trkpt lat="45.51211" lon="4.55528">
        <ele>410</ele>
        <time>2012-01-14T09:44:50Z</time>
      </trkpt>
      <trkpt lat="45.51207" lon="4.55513">
        <ele>410</ele>
        <time>2012-01-14T09:44:55Z</time>
      </trkpt>
      <trkpt lat="45.51204" lon="4.55494">
        <ele>410</ele>
        <time>2012-01-14T09:45:00Z</time>
      </trkpt>
      <trkpt lat="45.51202" lon="4.55478">
        <ele>410</ele>
        <time>2012-01-14T09:45:05Z</time>
      </trkpt>
      <trkpt lat="45.51203" lon="4.55462">
        <ele>410</ele>
        <time>2012-01-14T09:45:10Z</time>
      </trkpt>
      <trkpt lat="45.51207" lon="4.55448">
        <ele>410</ele>
        <time>2012-01-14T09:45:15Z</time>
      </trkpt>
      <trkpt lat="45.51213" lon="4.55434">
        <ele>409</ele>
        <time>2012-01-14T09:45:20Z</time>
      </trkpt>
      <trkpt lat="45.51219" lon="4.55419">
        <ele>408</ele>
        <time>2012-01-14T09:45:25Z</time>
      </trkpt>
      <trkpt lat="45.51226" lon="4.55406">
        <ele>407</ele>
        <time>2012-01-14T09:45:30Z</time>
      </trkpt>
      <trkpt lat="45.51232" lon="4.55392">
        <ele>406</ele>
        <time>2012-01-14T09:45:35Z</time>
      </trkpt>
      <trkpt lat="45.51239" lon="4.55378">
        <ele>405</ele>
        <time>2012-01-14T09:45:40Z</time>
      </trkpt>
      <trkpt lat="45.51245" lon="4.55364">
        <ele>404</ele>
        <time>2012-01-14T09:45:45Z</time>
      </trkpt>
      <trkpt lat="45.51251" lon="4.5535">
        <ele>403</ele>
        <time>2012-01-14T09:45:50Z</time>
      </trkpt>
      <trkpt lat="45.51257" lon="4.55336">
        <ele>403</ele>
        <time>2012-01-14T09:45:55Z</time>
      </trkpt>
      <trkpt lat="45.51263" lon="4.55323">
        <ele>402</ele>
        <time>2012-01-14T09:46:00Z</time>
      </trkpt>
      <trkpt lat="45.51269" lon="4.55309">
        <ele>401</ele>
        <time>2012-01-14T09:46:06Z</time>
      </trkpt>
      <trkpt lat="45.51275" lon="4.55291">
        <ele>401</ele>
        <time>2012-01-14T09:46:11Z</time>
      </trkpt>
      <trkpt lat="45.51281" lon="4.55276">
        <ele>401</ele>
        <time>2012-01-14T09:46:16Z</time>
      </trkpt>
      <trkpt lat="45.51288" lon="4.55262">
        <ele>401</ele>
        <time>2012-01-14T09:46:21Z</time>
      </trkpt>
      <trkpt lat="45.51292" lon="4.55245">
        <ele>401</ele>
        <time>2012-01-14T09:46:26Z</time>
      </trkpt>
      <trkpt lat="45.51292" lon="4.55227">
        <ele>401</ele>
        <time>2012-01-14T09:46:31Z</time>
      </trkpt>
      <trkpt lat="45.5129" lon="4.55207">
        <ele>401</ele>
        <time>2012-01-14T09:46:36Z</time>
      </trkpt>
      <trkpt lat="45.51284" lon="4.55189">
        <ele>401</ele>
        <time>2012-01-14T09:46:41Z</time>
      </trkpt>
      <trkpt lat="45.51284" lon="4.55175">
        <ele>399</ele>
        <time>2012-01-14T09:46:46Z</time>
      </trkpt>
      <trkpt lat="45.51278" lon="4.55163">
        <ele>399</ele>
        <time>2012-01-14T09:46:51Z</time>
      </trkpt>
      <trkpt lat="45.51268" lon="4.55162">
        <ele>398</ele>
        <time>2012-01-14T09:46:56Z</time>
      </trkpt>
      <trkpt lat="45.51257" lon="4.55168">
        <ele>398</ele>
        <time>2012-01-14T09:47:01Z</time>
      </trkpt>
      <trkpt lat="45.51246" lon="4.55175">
        <ele>398</ele>
        <time>2012-01-14T09:47:06Z</time>
      </trkpt>
      <trkpt lat="45.51235" lon="4.55182">
        <ele>398</ele>
        <time>2012-01-14T09:47:11Z</time>
      </trkpt>
      <trkpt lat="45.51223" lon="4.55192">
        <ele>398</ele>
        <time>2012-01-14T09:47:16Z</time>
      </trkpt>
      <trkpt lat="45.51214" lon="4.55196">
        <ele>398</ele>
        <time>2012-01-14T09:47:21Z</time>
      </trkpt>
      <trkpt lat="45.51205" lon="4.55201">
        <ele>398</ele>
        <time>2012-01-14T09:47:26Z</time>
      </trkpt>
      <trkpt lat="45.51197" lon="4.55205">
        <ele>398</ele>
        <time>2012-01-14T09:47:31Z</time>
      </trkpt>
      <trkpt lat="45.51186" lon="4.55212">
        <ele>398</ele>
        <time>2012-01-14T09:47:36Z</time>
      </trkpt>
      <trkpt lat="45.51175" lon="4.55215">
        <ele>398</ele>
        <time>2012-01-14T09:47:41Z</time>
      </trkpt>
      <trkpt lat="45.51166" lon="4.55218">
        <ele>398</ele>
        <time>2012-01-14T09:47:46Z</time>
      </trkpt>
      <trkpt lat="45.51154" lon="4.55219">
        <ele>398</ele>
        <time>2012-01-14T09:47:51Z</time>
      </trkpt>
      <trkpt lat="45.51144" lon="4.55216">
        <ele>398</ele>
        <time>2012-01-14T09:47:56Z</time>
      </trkpt>
      <trkpt lat="45.51136" lon="4.55206">
        <ele>398</ele>
        <time>2012-01-14T09:48:01Z</time>
      </trkpt>
      <trkpt lat="45.51128" lon="4.55195">
        <ele>398</ele>
        <time>2012-01-14T09:48:07Z</time>
      </trkpt>
      <trkpt lat="45.51121" lon="4.55181">
        <ele>399</ele>
        <time>2012-01-14T09:48:12Z</time>
      </trkpt>
      <trkpt lat="45.51115" lon="4.55173">
        <ele>401</ele>
        <time>2012-01-14T09:48:17Z</time>
      </trkpt>
      <trkpt lat="45.51112" lon="4.55166">
        <ele>403</ele>
        <time>2012-01-14T09:48:23Z</time>
      </trkpt>
      <trkpt lat="45.51109" lon="4.55161">
        <ele>403</ele>
        <time>2012-01-14T09:48:29Z</time>
      </trkpt>
      <trkpt lat="45.51105" lon="4.55155">
        <ele>403</ele>
        <time>2012-01-14T09:48:35Z</time>
      </trkpt>
      <trkpt lat="45.51101" lon="4.55152">
        <ele>403</ele>
        <time>2012-01-14T09:48:41Z</time>
      </trkpt>
      <trkpt lat="45.511" lon="4.55146">
        <ele>403</ele>
        <time>2012-01-14T09:48:46Z</time>
      </trkpt>
      <trkpt lat="45.51101" lon="4.55137">
        <ele>403</ele>
        <time>2012-01-14T09:48:51Z</time>
      </trkpt>
      <trkpt lat="45.51104" lon="4.5513">
        <ele>403</ele>
        <time>2012-01-14T09:48:57Z</time>
      </trkpt>
      <trkpt lat="45.51106" lon="4.55128">
        <ele>403</ele>
        <time>2012-01-14T09:49:09Z</time>
      </trkpt>
      <trkpt lat="45.51105" lon="4.55126">
        <ele>403</ele>
        <time>2012-01-14T09:49:16Z</time>
      </trkpt>
      <trkpt lat="45.51104" lon="4.55121">
        <ele>403</ele>
        <time>2012-01-14T09:49:21Z</time>
      </trkpt>
      <trkpt lat="45.51105" lon="4.55114">
        <ele>403</ele>
        <time>2012-01-14T09:49:27Z</time>
      </trkpt>
      <trkpt lat="45.5111" lon="4.55098">
        <ele>403</ele>
        <time>2012-01-14T09:49:32Z</time>
      </trkpt>
      <trkpt lat="45.51116" lon="4.55083">
        <ele>403</ele>
        <time>2012-01-14T09:49:37Z</time>
      </trkpt>
      <trkpt lat="45.51122" lon="4.5507">
        <ele>404</ele>
        <time>2012-01-14T09:49:42Z</time>
      </trkpt>
      <trkpt lat="45.51127" lon="4.55055">
        <ele>404</ele>
        <time>2012-01-14T09:49:47Z</time>
      </trkpt>
      <trkpt lat="45.51133" lon="4.5504">
        <ele>404</ele>
        <time>2012-01-14T09:49:52Z</time>
      </trkpt>
      <trkpt lat="45.51138" lon="4.55026">
        <ele>405</ele>
        <time>2012-01-14T09:49:57Z</time>
      </trkpt>
      <trkpt lat="45.5114" lon="4.55012">
        <ele>405</ele>
        <time>2012-01-14T09:50:02Z</time>
      </trkpt>
      <trkpt lat="45.51136" lon="4.54997">
        <ele>405</ele>
        <time>2012-01-14T09:50:07Z</time>
      </trkpt>
      <trkpt lat="45.5113" lon="4.54983">
        <ele>405</ele>
        <time>2012-01-14T09:50:12Z</time>
      </trkpt>
      <trkpt lat="45.51124" lon="4.54973">
        <ele>405</ele>
        <time>2012-01-14T09:50:17Z</time>
      </trkpt>
      <trkpt lat="45.51115" lon="4.54959">
        <ele>405</ele>
        <time>2012-01-14T09:50:22Z</time>
      </trkpt>
      <trkpt lat="45.51109" lon="4.54946">
        <ele>405</ele>
        <time>2012-01-14T09:50:27Z</time>
      </trkpt>
      <trkpt lat="45.51103" lon="4.54932">
        <ele>405</ele>
        <time>2012-01-14T09:50:32Z</time>
      </trkpt>
      <trkpt lat="45.51097" lon="4.54919">
        <ele>406</ele>
        <time>2012-01-14T09:50:37Z</time>
      </trkpt>
      <trkpt lat="45.51092" lon="4.54907">
        <ele>407</ele>
        <time>2012-01-14T09:50:43Z</time>
      </trkpt>
      <trkpt lat="45.51085" lon="4.54892">
        <ele>409</ele>
        <time>2012-01-14T09:50:48Z</time>
      </trkpt>
      <trkpt lat="45.51078" lon="4.54878">
        <ele>410</ele>
        <time>2012-01-14T09:50:53Z</time>
      </trkpt>
      <trkpt lat="45.51074" lon="4.54865">
        <ele>411</ele>
        <time>2012-01-14T09:50:58Z</time>
      </trkpt>
      <trkpt lat="45.51071" lon="4.54848">
        <ele>413</ele>
        <time>2012-01-14T09:51:03Z</time>
      </trkpt>
      <trkpt lat="45.51073" lon="4.54832">
        <ele>414</ele>
        <time>2012-01-14T09:51:08Z</time>
      </trkpt>
      <trkpt lat="45.51075" lon="4.54816">
        <ele>414</ele>
        <time>2012-01-14T09:51:13Z</time>
      </trkpt>
      <trkpt lat="45.51077" lon="4.54801">
        <ele>415</ele>
        <time>2012-01-14T09:51:18Z</time>
      </trkpt>
      <trkpt lat="45.51078" lon="4.54785">
        <ele>416</ele>
        <time>2012-01-14T09:51:23Z</time>
      </trkpt>
      <trkpt lat="45.51078" lon="4.54768">
        <ele>416</ele>
        <time>2012-01-14T09:51:28Z</time>
      </trkpt>
      <trkpt lat="45.51077" lon="4.5475">
        <ele>416</ele>
        <time>2012-01-14T09:51:33Z</time>
      </trkpt>
      <trkpt lat="45.51078" lon="4.54733">
        <ele>416</ele>
        <time>2012-01-14T09:51:38Z</time>
      </trkpt>
      <trkpt lat="45.51079" lon="4.54717">
        <ele>416</ele>
        <time>2012-01-14T09:51:43Z</time>
      </trkpt>
      <trkpt lat="45.5108" lon="4.54702">
        <ele>416</ele>
        <time>2012-01-14T09:51:48Z</time>
      </trkpt>
      <trkpt lat="45.51083" lon="4.54686">
        <ele>416</ele>
        <time>2012-01-14T09:51:53Z</time>
      </trkpt>
      <trkpt lat="45.51085" lon="4.5467">
        <ele>416</ele>
        <time>2012-01-14T09:51:58Z</time>
      </trkpt>
      <trkpt lat="45.51087" lon="4.54654">
        <ele>416</ele>
        <time>2012-01-14T09:52:03Z</time>
      </trkpt>
      <trkpt lat="45.51088" lon="4.54638">
        <ele>416</ele>
        <time>2012-01-14T09:52:08Z</time>
      </trkpt>
      <trkpt lat="45.51089" lon="4.54622">
        <ele>416</ele>
        <time>2012-01-14T09:52:13Z</time>
      </trkpt>
      <trkpt lat="45.51089" lon="4.54605">
        <ele>415</ele>
        <time>2012-01-14T09:52:18Z</time>
      </trkpt>
      <trkpt lat="45.51089" lon="4.54589">
        <ele>414</ele>
        <time>2012-01-14T09:52:23Z</time>
      </trkpt>
      <trkpt lat="45.51088" lon="4.54572">
        <ele>412</ele>
        <time>2012-01-14T09:52:28Z</time>
      </trkpt>
      <trkpt lat="45.51089" lon="4.54556">
        <ele>411</ele>
        <time>2012-01-14T09:52:33Z</time>
      </trkpt>
      <trkpt lat="45.51091" lon="4.5454">
        <ele>409</ele>
        <time>2012-01-14T09:52:38Z</time>
      </trkpt>
      <trkpt lat="45.51094" lon="4.54524">
        <ele>408</ele>
        <time>2012-01-14T09:52:43Z</time>
      </trkpt>
      <trkpt lat="45.51096" lon="4.54508">
        <ele>407</ele>
        <time>2012-01-14T09:52:48Z</time>
      </trkpt>
      <trkpt lat="45.511" lon="4.54494">
        <ele>406</ele>
        <time>2012-01-14T09:52:53Z</time>
      </trkpt>
      <trkpt lat="45.51105" lon="4.5448">
        <ele>406</ele>
        <time>2012-01-14T09:52:58Z</time>
      </trkpt>
      <trkpt lat="45.5111" lon="4.54465">
        <ele>405</ele>
        <time>2012-01-14T09:53:03Z</time>
      </trkpt>
      <trkpt lat="45.51114" lon="4.5445">
        <ele>405</ele>
        <time>2012-01-14T09:53:08Z</time>
      </trkpt>
      <trkpt lat="45.51109" lon="4.5444">
        <ele>405</ele>
        <time>2012-01-14T09:53:13Z</time>
      </trkpt>
      <trkpt lat="45.511" lon="4.54442">
        <ele>405</ele>
        <time>2012-01-14T09:53:18Z</time>
      </trkpt>
      <trkpt lat="45.51095" lon="4.54444">
        <ele>405</ele>
        <time>2012-01-14T09:53:25Z</time>
      </trkpt>
      <trkpt lat="45.51094" lon="4.54446">
        <ele>405</ele>
        <time>2012-01-14T09:53:32Z</time>
      </trkpt>
      <trkpt lat="45.51085" lon="4.54448">
        <ele>405</ele>
        <time>2012-01-14T09:53:37Z</time>
      </trkpt>
      <trkpt lat="45.51076" lon="4.54452">
        <ele>405</ele>
        <time>2012-01-14T09:53:42Z</time>
      </trkpt>
      <trkpt lat="45.51065" lon="4.54455">
        <ele>404</ele>
        <time>2012-01-14T09:53:47Z</time>
      </trkpt>
      <trkpt lat="45.51056" lon="4.54462">
        <ele>402</ele>
        <time>2012-01-14T09:53:52Z</time>
      </trkpt>
      <trkpt lat="45.51046" lon="4.54467">
        <ele>402</ele>
        <time>2012-01-14T09:53:57Z</time>
      </trkpt>
      <trkpt lat="45.51034" lon="4.54467">
        <ele>402</ele>
        <time>2012-01-14T09:54:02Z</time>
      </trkpt>
      <trkpt lat="45.5102" lon="4.54467">
        <ele>402</ele>
        <time>2012-01-14T09:54:07Z</time>
      </trkpt>
      <trkpt lat="45.51007" lon="4.5447">
        <ele>404</ele>
        <time>2012-01-14T09:54:12Z</time>
      </trkpt>
      <trkpt lat="45.50993" lon="4.5447">
        <ele>406</ele>
        <time>2012-01-14T09:54:17Z</time>
      </trkpt>
      <trkpt lat="45.50981" lon="4.54477">
        <ele>409</ele>
        <time>2012-01-14T09:54:22Z</time>
      </trkpt>
      <trkpt lat="45.50968" lon="4.54486">
        <ele>412</ele>
        <time>2012-01-14T09:54:27Z</time>
      </trkpt>
      <trkpt lat="45.50957" lon="4.54491">
        <ele>415</ele>
        <time>2012-01-14T09:54:32Z</time>
      </trkpt>
      <trkpt lat="45.50947" lon="4.54494">
        <ele>416</ele>
        <time>2012-01-14T09:54:37Z</time>
      </trkpt>
      <trkpt lat="45.50936" lon="4.54496">
        <ele>417</ele>
        <time>2012-01-14T09:54:42Z</time>
      </trkpt>
      <trkpt lat="45.50925" lon="4.54499">
        <ele>418</ele>
        <time>2012-01-14T09:54:48Z</time>
      </trkpt>
      <trkpt lat="45.50913" lon="4.545">
        <ele>418</ele>
        <time>2012-01-14T09:54:53Z</time>
      </trkpt>
      <trkpt lat="45.50902" lon="4.54502">
        <ele>419</ele>
        <time>2012-01-14T09:54:58Z</time>
      </trkpt>
      <trkpt lat="45.5089" lon="4.54503">
        <ele>419</ele>
        <time>2012-01-14T09:55:03Z</time>
      </trkpt>
      <trkpt lat="45.5088" lon="4.54506">
        <ele>420</ele>
        <time>2012-01-14T09:55:08Z</time>
      </trkpt>
      <trkpt lat="45.50868" lon="4.54509">
        <ele>421</ele>
        <time>2012-01-14T09:55:13Z</time>
      </trkpt>
      <trkpt lat="45.50855" lon="4.54516">
        <ele>423</ele>
        <time>2012-01-14T09:55:18Z</time>
      </trkpt>
      <trkpt lat="45.50843" lon="4.54515">
        <ele>423</ele>
        <time>2012-01-14T09:55:23Z</time>
      </trkpt>
      <trkpt lat="45.50832" lon="4.54518">
        <ele>423</ele>
        <time>2012-01-14T09:55:28Z</time>
      </trkpt>
      <trkpt lat="45.5082" lon="4.5452">
        <ele>423</ele>
        <time>2012-01-14T09:55:33Z</time>
      </trkpt>
      <trkpt lat="45.50809" lon="4.54522">
        <ele>423</ele>
        <time>2012-01-14T09:55:38Z</time>
      </trkpt>
      <trkpt lat="45.50798" lon="4.54524">
        <ele>423</ele>
        <time>2012-01-14T09:55:43Z</time>
      </trkpt>
      <trkpt lat="45.50786" lon="4.54527">
        <ele>423</ele>
        <time>2012-01-14T09:55:48Z</time>
      </trkpt>
      <trkpt lat="45.50775" lon="4.5453">
        <ele>423</ele>
        <time>2012-01-14T09:55:53Z</time>
      </trkpt>
      <trkpt lat="45.50764" lon="4.54531">
        <ele>423</ele>
        <time>2012-01-14T09:55:58Z</time>
      </trkpt>
      <trkpt lat="45.50753" lon="4.54533">
        <ele>423</ele>
        <time>2012-01-14T09:56:03Z</time>
      </trkpt>
      <trkpt lat="45.50743" lon="4.54536">
        <ele>423</ele>
        <time>2012-01-14T09:56:08Z</time>
      </trkpt>
      <trkpt lat="45.50732" lon="4.54539">
        <ele>423</ele>
        <time>2012-01-14T09:56:13Z</time>
      </trkpt>
      <trkpt lat="45.50721" lon="4.54542">
        <ele>423</ele>
        <time>2012-01-14T09:56:18Z</time>
      </trkpt>
      <trkpt lat="45.5071" lon="4.54539">
        <ele>423</ele>
        <time>2012-01-14T09:56:23Z</time>
      </trkpt>
      <trkpt lat="45.507" lon="4.54536">
        <ele>423</ele>
        <time>2012-01-14T09:56:28Z</time>
      </trkpt>
      <trkpt lat="45.50689" lon="4.54538">
        <ele>423</ele>
        <time>2012-01-14T09:56:33Z</time>
      </trkpt>
      <trkpt lat="45.50678" lon="4.54535">
        <ele>423</ele>
        <time>2012-01-14T09:56:38Z</time>
      </trkpt>
      <trkpt lat="45.50667" lon="4.54533">
        <ele>423</ele>
        <time>2012-01-14T09:56:43Z</time>
      </trkpt>
      <trkpt lat="45.50656" lon="4.54529">
        <ele>423</ele>
        <time>2012-01-14T09:56:48Z</time>
      </trkpt>
      <trkpt lat="45.50646" lon="4.54524">
        <ele>423</ele>
        <time>2012-01-14T09:56:53Z</time>
      </trkpt>
      <trkpt lat="45.50637" lon="4.54515">
        <ele>423</ele>
        <time>2012-01-14T09:56:58Z</time>
      </trkpt>
      <trkpt lat="45.50644" lon="4.545">
        <ele>423</ele>
        <time>2012-01-14T09:57:03Z</time>
      </trkpt>
      <trkpt lat="45.50654" lon="4.54488">
        <ele>422</ele>
        <time>2012-01-14T09:57:08Z</time>
      </trkpt>
      <trkpt lat="45.50664" lon="4.54477">
        <ele>422</ele>
        <time>2012-01-14T09:57:13Z</time>
      </trkpt>
      <trkpt lat="45.50673" lon="4.54465">
        <ele>422</ele>
        <time>2012-01-14T09:57:18Z</time>
      </trkpt>
      <trkpt lat="45.50681" lon="4.54455">
        <ele>422</ele>
        <time>2012-01-14T09:57:23Z</time>
      </trkpt>
      <trkpt lat="45.50689" lon="4.54444">
        <ele>422</ele>
        <time>2012-01-14T09:57:28Z</time>
      </trkpt>
      <trkpt lat="45.50696" lon="4.54433">
        <ele>422</ele>
        <time>2012-01-14T09:57:33Z</time>
      </trkpt>
      <trkpt lat="45.50704" lon="4.54424">
        <ele>422</ele>
        <time>2012-01-14T09:57:38Z</time>
      </trkpt>
      <trkpt lat="45.50711" lon="4.54413">
        <ele>422</ele>
        <time>2012-01-14T09:57:43Z</time>
      </trkpt>
      <trkpt lat="45.50719" lon="4.54403">
        <ele>422</ele>
        <time>2012-01-14T09:57:48Z</time>
      </trkpt>
      <trkpt lat="45.50727" lon="4.5439">
        <ele>423</ele>
        <time>2012-01-14T09:57:53Z</time>
      </trkpt>
      <trkpt lat="45.50733" lon="4.54378">
        <ele>423</ele>
        <time>2012-01-14T09:57:58Z</time>
      </trkpt>
      <trkpt lat="45.50741" lon="4.54366">
        <ele>423</ele>
        <time>2012-01-14T09:58:03Z</time>
      </trkpt>
      <trkpt lat="45.50747" lon="4.54355">
        <ele>423</ele>
        <time>2012-01-14T09:58:08Z</time>
      </trkpt>
      <trkpt lat="45.50752" lon="4.54347">
        <ele>423</ele>
        <time>2012-01-14T09:58:13Z</time>
      </trkpt>
      <trkpt lat="45.50756" lon="4.54338">
        <ele>423</ele>
        <time>2012-01-14T09:58:18Z</time>
      </trkpt>
      <trkpt lat="45.50761" lon="4.54326">
        <ele>423</ele>
        <time>2012-01-14T09:58:23Z</time>
      </trkpt>
      <trkpt lat="45.50766" lon="4.54314">
        <ele>423</ele>
        <time>2012-01-14T09:58:28Z</time>
      </trkpt>
      <trkpt lat="45.50772" lon="4.54302">
        <ele>423</ele>
        <time>2012-01-14T09:58:33Z</time>
      </trkpt>
      <trkpt lat="45.50778" lon="4.54291">
        <ele>424</ele>
        <time>2012-01-14T09:58:38Z</time>
      </trkpt>
      <trkpt lat="45.50787" lon="4.54282">
        <ele>424</ele>
        <time>2012-01-14T09:58:43Z</time>
      </trkpt>
      <trkpt lat="45.50797" lon="4.54275">
        <ele>424</ele>
        <time>2012-01-14T09:58:49Z</time>
      </trkpt>
      <trkpt lat="45.50809" lon="4.54265">
        <ele>424</ele>
        <time>2012-01-14T09:58:54Z</time>
      </trkpt>
      <trkpt lat="45.5082" lon="4.54259">
        <ele>424</ele>
        <time>2012-01-14T09:58:59Z</time>
      </trkpt>
      <trkpt lat="45.50831" lon="4.54255">
        <ele>425</ele>
        <time>2012-01-14T09:59:04Z</time>
      </trkpt>
      <trkpt lat="45.50841" lon="4.5425">
        <ele>425</ele>
        <time>2012-01-14T09:59:09Z</time>
      </trkpt>
      <trkpt lat="45.50852" lon="4.54246">
        <ele>426</ele>
        <time>2012-01-14T09:59:14Z</time>
      </trkpt>
      <trkpt lat="45.50863" lon="4.54243">
        <ele>429</ele>
        <time>2012-01-14T09:59:19Z</time>
      </trkpt>
      <trkpt lat="45.50874" lon="4.54244">
        <ele>430</ele>
        <time>2012-01-14T09:59:24Z</time>
      </trkpt>
      <trkpt lat="45.50885" lon="4.54246">
        <ele>430</ele>
        <time>2012-01-14T09:59:29Z</time>
      </trkpt>
      <trkpt lat="45.50896" lon="4.54252">
        <ele>430</ele>
        <time>2012-01-14T09:59:34Z</time>
      </trkpt>
      <trkpt lat="45.50907" lon="4.5426">
        <ele>430</ele>
        <time>2012-01-14T09:59:39Z</time>
      </trkpt>
      <trkpt lat="45.50918" lon="4.54261">
        <ele>430</ele>
        <time>2012-01-14T09:59:44Z</time>
      </trkpt>
      <trkpt lat="45.50928" lon="4.54253">
        <ele>430</ele>
        <time>2012-01-14T09:59:49Z</time>
      </trkpt>
      <trkpt lat="45.50933" lon="4.54238">
        <ele>430</ele>
        <time>2012-01-14T09:59:54Z</time>
      </trkpt>
      <trkpt lat="45.50937" lon="4.54221">
        <ele>430</ele>
        <time>2012-01-14T09:59:59Z</time>
      </trkpt>
      <trkpt lat="45.5094" lon="4.54207">
        <ele>430</ele>
        <time>2012-01-14T10:00:04Z</time>
      </trkpt>
      <trkpt lat="45.50945" lon="4.54192">
        <ele>430</ele>
        <time>2012-01-14T10:00:10Z</time>
      </trkpt>
      <trkpt lat="45.50954" lon="4.54183">
        <ele>430</ele>
        <time>2012-01-14T10:00:15Z</time>
      </trkpt>
      <trkpt lat="45.50965" lon="4.54175">
        <ele>430</ele>
        <time>2012-01-14T10:00:20Z</time>
      </trkpt>
      <trkpt lat="45.50975" lon="4.54175">
        <ele>430</ele>
        <time>2012-01-14T10:00:25Z</time>
      </trkpt>
      <trkpt lat="45.50985" lon="4.54171">
        <ele>430</ele>
        <time>2012-01-14T10:00:30Z</time>
      </trkpt>
      <trkpt lat="45.50991" lon="4.5417">
        <ele>430</ele>
        <time>2012-01-14T10:00:35Z</time>
      </trkpt>
      <trkpt lat="45.50998" lon="4.54169">
        <ele>431</ele>
        <time>2012-01-14T10:00:40Z</time>
      </trkpt>
      <trkpt lat="45.51006" lon="4.54169">
        <ele>433</ele>
        <time>2012-01-14T10:00:45Z</time>
      </trkpt>
      <trkpt lat="45.51013" lon="4.54169">
        <ele>433</ele>
        <time>2012-01-14T10:00:50Z</time>
      </trkpt>
      <trkpt lat="45.5102" lon="4.54167">
        <ele>434</ele>
        <time>2012-01-14T10:00:56Z</time>
      </trkpt>
      <trkpt lat="45.51025" lon="4.54164">
        <ele>434</ele>
        <time>2012-01-14T10:01:01Z</time>
      </trkpt>
      <trkpt lat="45.51033" lon="4.54163">
        <ele>434</ele>
        <time>2012-01-14T10:01:07Z</time>
      </trkpt>
      <trkpt lat="45.5104" lon="4.5416">
        <ele>434</ele>
        <time>2012-01-14T10:01:12Z</time>
      </trkpt>
      <trkpt lat="45.51046" lon="4.54159">
        <ele>434</ele>
        <time>2012-01-14T10:01:17Z</time>
      </trkpt>
      <trkpt lat="45.51053" lon="4.54156">
        <ele>434</ele>
        <time>2012-01-14T10:01:22Z</time>
      </trkpt>
      <trkpt lat="45.51059" lon="4.54153">
        <ele>434</ele>
        <time>2012-01-14T10:01:27Z</time>
      </trkpt>
      <trkpt lat="45.51066" lon="4.54152">
        <ele>435</ele>
        <time>2012-01-14T10:01:32Z</time>
      </trkpt>
      <trkpt lat="45.51072" lon="4.5415">
        <ele>435</ele>
        <time>2012-01-14T10:01:37Z</time>
      </trkpt>
      <trkpt lat="45.51079" lon="4.54148">
        <ele>436</ele>
        <time>2012-01-14T10:01:42Z</time>
      </trkpt>
      <trkpt lat="45.51086" lon="4.54145">
        <ele>436</ele>
        <time>2012-01-14T10:01:47Z</time>
      </trkpt>
      <trkpt lat="45.51094" lon="4.54143">
        <ele>436</ele>
        <time>2012-01-14T10:01:52Z</time>
      </trkpt>
      <trkpt lat="45.51102" lon="4.54141">
        <ele>437</ele>
        <time>2012-01-14T10:01:57Z</time>
      </trkpt>
      <trkpt lat="45.51113" lon="4.54139">
        <ele>439</ele>
        <time>2012-01-14T10:02:02Z</time>
      </trkpt>
      <trkpt lat="45.51123" lon="4.54132">
        <ele>440</ele>
        <time>2012-01-14T10:02:07Z</time>
      </trkpt>
      <trkpt lat="45.51135" lon="4.54125">
        <ele>441</ele>
        <time>2012-01-14T10:02:12Z</time>
      </trkpt>
      <trkpt lat="45.51145" lon="4.54119">
        <ele>442</ele>
        <time>2012-01-14T10:02:17Z</time>
      </trkpt>
      <trkpt lat="45.51154" lon="4.54112">
        <ele>442</ele>
        <time>2012-01-14T10:02:22Z</time>
      </trkpt>
      <trkpt lat="45.51164" lon="4.54104">
        <ele>443</ele>
        <time>2012-01-14T10:02:27Z</time>
      </trkpt>
      <trkpt lat="45.51173" lon="4.54096">
        <ele>443</ele>
        <time>2012-01-14T10:02:32Z</time>
      </trkpt>
      <trkpt lat="45.51183" lon="4.54087">
        <ele>443</ele>
        <time>2012-01-14T10:02:37Z</time>
      </trkpt>
      <trkpt lat="45.51192" lon="4.5408">
        <ele>443</ele>
        <time>2012-01-14T10:02:42Z</time>
      </trkpt>
      <trkpt lat="45.51201" lon="4.5407">
        <ele>444</ele>
        <time>2012-01-14T10:02:47Z</time>
      </trkpt>
      <trkpt lat="45.51209" lon="4.5406">
        <ele>445</ele>
        <time>2012-01-14T10:02:52Z</time>
      </trkpt>
      <trkpt lat="45.51217" lon="4.54049">
        <ele>446</ele>
        <time>2012-01-14T10:02:57Z</time>
      </trkpt>
      <trkpt lat="45.51225" lon="4.54039">
        <ele>446</ele>
        <time>2012-01-14T10:03:02Z</time>
      </trkpt>
      <trkpt lat="45.51233" lon="4.54028">
        <ele>446</ele>
        <time>2012-01-14T10:03:07Z</time>
      </trkpt>
      <trkpt lat="45.51241" lon="4.54017">
        <ele>446</ele>
        <time>2012-01-14T10:03:12Z</time>
      </trkpt>
      <trkpt lat="45.51248" lon="4.54007">
        <ele>446</ele>
        <time>2012-01-14T10:03:17Z</time>
      </trkpt>
      <trkpt lat="45.51257" lon="4.53996">
        <ele>446</ele>
        <time>2012-01-14T10:03:22Z</time>
      </trkpt>
      <trkpt lat="45.51267" lon="4.53987">
        <ele>446</ele>
        <time>2012-01-14T10:03:27Z</time>
      </trkpt>
      <trkpt lat="45.51276" lon="4.53979">
        <ele>446</ele>
        <time>2012-01-14T10:03:32Z</time>
      </trkpt>
      <trkpt lat="45.51286" lon="4.5397">
        <ele>446</ele>
        <time>2012-01-14T10:03:37Z</time>
      </trkpt>
      <trkpt lat="45.51296" lon="4.53962">
        <ele>446</ele>
        <time>2012-01-14T10:03:42Z</time>
      </trkpt>
      <trkpt lat="45.51306" lon="4.53953">
        <ele>446</ele>
        <time>2012-01-14T10:03:47Z</time>
      </trkpt>
      <trkpt lat="45.51316" lon="4.53946">
        <ele>446</ele>
        <time>2012-01-14T10:03:52Z</time>
      </trkpt>
      <trkpt lat="45.51326" lon="4.53939">
        <ele>446</ele>
        <time>2012-01-14T10:03:57Z</time>
      </trkpt>
      <trkpt lat="45.51337" lon="4.53934">
        <ele>446</ele>
        <time>2012-01-14T10:04:02Z</time>
      </trkpt>
      <trkpt lat="45.51348" lon="4.5393">
        <ele>446</ele>
        <time>2012-01-14T10:04:07Z</time>
      </trkpt>
      <trkpt lat="45.51359" lon="4.53927">
        <ele>446</ele>
        <time>2012-01-14T10:04:12Z</time>
      </trkpt>
      <trkpt lat="45.5137" lon="4.53924">
        <ele>446</ele>
        <time>2012-01-14T10:04:17Z</time>
      </trkpt>
      <trkpt lat="45.5138" lon="4.53921">
        <ele>447</ele>
        <time>2012-01-14T10:04:22Z</time>
      </trkpt>
      <trkpt lat="45.51391" lon="4.53918">
        <ele>447</ele>
        <time>2012-01-14T10:04:27Z</time>
      </trkpt>
      <trkpt lat="45.51402" lon="4.53915">
        <ele>448</ele>
        <time>2012-01-14T10:04:32Z</time>
      </trkpt>
      <trkpt lat="45.51413" lon="4.53909">
        <ele>449</ele>
        <time>2012-01-14T10:04:37Z</time>
      </trkpt>
      <trkpt lat="45.51423" lon="4.53904">
        <ele>450</ele>
        <time>2012-01-14T10:04:42Z</time>
      </trkpt>
      <trkpt lat="45.51434" lon="4.53898">
        <ele>450</ele>
        <time>2012-01-14T10:04:47Z</time>
      </trkpt>
      <trkpt lat="45.51445" lon="4.53892">
        <ele>451</ele>
        <time>2012-01-14T10:04:52Z</time>
      </trkpt>
      <trkpt lat="45.51456" lon="4.53884">
        <ele>452</ele>
        <time>2012-01-14T10:04:57Z</time>
      </trkpt>
      <trkpt lat="45.51467" lon="4.53882">
        <ele>452</ele>
        <time>2012-01-14T10:05:02Z</time>
      </trkpt>
      <trkpt lat="45.51478" lon="4.53887">
        <ele>452</ele>
        <time>2012-01-14T10:05:07Z</time>
      </trkpt>
      <trkpt lat="45.51485" lon="4.53897">
        <ele>452</ele>
        <time>2012-01-14T10:05:12Z</time>
      </trkpt>
      <trkpt lat="45.5149" lon="4.53912">
        <ele>452</ele>
        <time>2012-01-14T10:05:17Z</time>
      </trkpt>
      <trkpt lat="45.51492" lon="4.53929">
        <ele>452</ele>
        <time>2012-01-14T10:05:22Z</time>
      </trkpt>
      <trkpt lat="45.51488" lon="4.53944">
        <ele>452</ele>
        <time>2012-01-14T10:05:27Z</time>
      </trkpt>
      <trkpt lat="45.51483" lon="4.53958">
        <ele>452</ele>
        <time>2012-01-14T10:05:32Z</time>
      </trkpt>
      <trkpt lat="45.51478" lon="4.53972">
        <ele>452</ele>
        <time>2012-01-14T10:05:37Z</time>
      </trkpt>
      <trkpt lat="45.51473" lon="4.53986">
        <ele>452</ele>
        <time>2012-01-14T10:05:42Z</time>
      </trkpt>
      <trkpt lat="45.51466" lon="4.53998">
        <ele>452</ele>
        <time>2012-01-14T10:05:47Z</time>
      </trkpt>
      <trkpt lat="45.51457" lon="4.5401">
        <ele>452</ele>
        <time>2012-01-14T10:05:52Z</time>
      </trkpt>
      <trkpt lat="45.51446" lon="4.54018">
        <ele>452</ele>
        <time>2012-01-14T10:05:57Z</time>
      </trkpt>
      <trkpt lat="45.51438" lon="4.54034">
        <ele>454</ele>
        <time>2012-01-14T10:06:02Z</time>
      </trkpt>
      <trkpt lat="45.51424" lon="4.54037">
        <ele>455</ele>
        <time>2012-01-14T10:06:07Z</time>
      </trkpt>
      <trkpt lat="45.51412" lon="4.54039">
        <ele>456</ele>
        <time>2012-01-14T10:06:12Z</time>
      </trkpt>
      <trkpt lat="45.51401" lon="4.54046">
        <ele>458</ele>
        <time>2012-01-14T10:06:17Z</time>
      </trkpt>
      <trkpt lat="45.51389" lon="4.54057">
        <ele>459</ele>
        <time>2012-01-14T10:06:22Z</time>
      </trkpt>
      <trkpt lat="45.5138" lon="4.54071">
        <ele>460</ele>
        <time>2012-01-14T10:06:27Z</time>
      </trkpt>
      <trkpt lat="45.51374" lon="4.54082">
        <ele>460</ele>
        <time>2012-01-14T10:06:32Z</time>
      </trkpt>
      <trkpt lat="45.51367" lon="4.54093">
        <ele>460</ele>
        <time>2012-01-14T10:06:37Z</time>
      </trkpt>
      <trkpt lat="45.51356" lon="4.54102">
        <ele>460</ele>
        <time>2012-01-14T10:06:42Z</time>
      </trkpt>
      <trkpt lat="45.51355" lon="4.54118">
        <ele>461</ele>
        <time>2012-01-14T10:06:47Z</time>
      </trkpt>
      <trkpt lat="45.51354" lon="4.54134">
        <ele>463</ele>
        <time>2012-01-14T10:06:52Z</time>
      </trkpt>
      <trkpt lat="45.51357" lon="4.5415">
        <ele>466</ele>
        <time>2012-01-14T10:06:57Z</time>
      </trkpt>
      <trkpt lat="45.51362" lon="4.54166">
        <ele>468</ele>
        <time>2012-01-14T10:07:02Z</time>
      </trkpt>
      <trkpt lat="45.51367" lon="4.5418">
        <ele>470</ele>
        <time>2012-01-14T10:07:07Z</time>
      </trkpt>
      <trkpt lat="45.51371" lon="4.54195">
        <ele>472</ele>
        <time>2012-01-14T10:07:12Z</time>
      </trkpt>
      <trkpt lat="45.51378" lon="4.54208">
        <ele>473</ele>
        <time>2012-01-14T10:07:17Z</time>
      </trkpt>
      <trkpt lat="45.51384" lon="4.54223">
        <ele>474</ele>
        <time>2012-01-14T10:07:22Z</time>
      </trkpt>
      <trkpt lat="45.51389" lon="4.54239">
        <ele>476</ele>
        <time>2012-01-14T10:07:27Z</time>
      </trkpt>
      <trkpt lat="45.51394" lon="4.54251">
        <ele>477</ele>
        <time>2012-01-14T10:07:32Z</time>
      </trkpt>
      <trkpt lat="45.51399" lon="4.54264">
        <ele>478</ele>
        <time>2012-01-14T10:07:37Z</time>
      </trkpt>
      <trkpt lat="45.51402" lon="4.54275">
        <ele>480</ele>
        <time>2012-01-14T10:07:42Z</time>
      </trkpt>
      <trkpt lat="45.51405" lon="4.54282">
        <ele>480</ele>
        <time>2012-01-14T10:07:47Z</time>
      </trkpt>
      <trkpt lat="45.51408" lon="4.54287">
        <ele>480</ele>
        <time>2012-01-14T10:07:52Z</time>
      </trkpt>
      <trkpt lat="45.51411" lon="4.54292">
        <ele>480</ele>
        <time>2012-01-14T10:07:57Z</time>
      </trkpt>
      <trkpt lat="45.51416" lon="4.54297">
        <ele>480</ele>
        <time>2012-01-14T10:08:03Z</time>
      </trkpt>
      <trkpt lat="45.51421" lon="4.54303">
        <ele>480</ele>
        <time>2012-01-14T10:08:09Z</time>
      </trkpt>
      <trkpt lat="45.51427" lon="4.54308">
        <ele>480</ele>
        <time>2012-01-14T10:08:15Z</time>
      </trkpt>
      <trkpt lat="45.51433" lon="4.54314">
        <ele>480</ele>
        <time>2012-01-14T10:08:21Z</time>
      </trkpt>
      <trkpt lat="45.51438" lon="4.54319">
        <ele>480</ele>
        <time>2012-01-14T10:08:26Z</time>
      </trkpt>
      <trkpt lat="45.51445" lon="4.54324">
        <ele>480</ele>
        <time>2012-01-14T10:08:32Z</time>
      </trkpt>
      <trkpt lat="45.51451" lon="4.54329">
        <ele>480</ele>
        <time>2012-01-14T10:08:38Z</time>
      </trkpt>
      <trkpt lat="45.51457" lon="4.54333">
        <ele>480</ele>
        <time>2012-01-14T10:08:43Z</time>
      </trkpt>
      <trkpt lat="45.51462" lon="4.54336">
        <ele>480</ele>
        <time>2012-01-14T10:08:48Z</time>
      </trkpt>
      <trkpt lat="45.51469" lon="4.54339">
        <ele>480</ele>
        <time>2012-01-14T10:08:54Z</time>
      </trkpt>
      <trkpt lat="45.51474" lon="4.54338">
        <ele>480</ele>
        <time>2012-01-14T10:08:59Z</time>
      </trkpt>
      <trkpt lat="45.51481" lon="4.54336">
        <ele>481</ele>
        <time>2012-01-14T10:09:04Z</time>
      </trkpt>
      <trkpt lat="45.51487" lon="4.54332">
        <ele>481</ele>
        <time>2012-01-14T10:09:09Z</time>
      </trkpt>
      <trkpt lat="45.51497" lon="4.54326">
        <ele>482</ele>
        <time>2012-01-14T10:09:14Z</time>
      </trkpt>
      <trkpt lat="45.51508" lon="4.54319">
        <ele>482</ele>
        <time>2012-01-14T10:09:19Z</time>
      </trkpt>
      <trkpt lat="45.51518" lon="4.54312">
        <ele>482</ele>
        <time>2012-01-14T10:09:24Z</time>
      </trkpt>
      <trkpt lat="45.51529" lon="4.54305">
        <ele>482</ele>
        <time>2012-01-14T10:09:29Z</time>
      </trkpt>
      <trkpt lat="45.5154" lon="4.54295">
        <ele>483</ele>
        <time>2012-01-14T10:09:34Z</time>
      </trkpt>
      <trkpt lat="45.5155" lon="4.54284">
        <ele>484</ele>
        <time>2012-01-14T10:09:39Z</time>
      </trkpt>
      <trkpt lat="45.51561" lon="4.54277">
        <ele>485</ele>
        <time>2012-01-14T10:09:44Z</time>
      </trkpt>
      <trkpt lat="45.51572" lon="4.54273">
        <ele>487</ele>
        <time>2012-01-14T10:09:49Z</time>
      </trkpt>
      <trkpt lat="45.51583" lon="4.54268">
        <ele>489</ele>
        <time>2012-01-14T10:09:54Z</time>
      </trkpt>
      <trkpt lat="45.51594" lon="4.54261">
        <ele>490</ele>
        <time>2012-01-14T10:09:59Z</time>
      </trkpt>
      <trkpt lat="45.51605" lon="4.54254">
        <ele>491</ele>
        <time>2012-01-14T10:10:04Z</time>
      </trkpt>
      <trkpt lat="45.51616" lon="4.54248">
        <ele>492</ele>
        <time>2012-01-14T10:10:09Z</time>
      </trkpt>
      <trkpt lat="45.51626" lon="4.54244">
        <ele>492</ele>
        <time>2012-01-14T10:10:14Z</time>
      </trkpt>
      <trkpt lat="45.51638" lon="4.54241">
        <ele>492</ele>
        <time>2012-01-14T10:10:19Z</time>
      </trkpt>
      <trkpt lat="45.5165" lon="4.54241">
        <ele>492</ele>
        <time>2012-01-14T10:10:24Z</time>
      </trkpt>
      <trkpt lat="45.51661" lon="4.54239">
        <ele>492</ele>
        <time>2012-01-14T10:10:29Z</time>
      </trkpt>
      <trkpt lat="45.51672" lon="4.54237">
        <ele>494</ele>
        <time>2012-01-14T10:10:34Z</time>
      </trkpt>
      <trkpt lat="45.51682" lon="4.54233">
        <ele>496</ele>
        <time>2012-01-14T10:10:39Z</time>
      </trkpt>
      <trkpt lat="45.51693" lon="4.54227">
        <ele>497</ele>
        <time>2012-01-14T10:10:44Z</time>
      </trkpt>
      <trkpt lat="45.51704" lon="4.54222">
        <ele>497</ele>
        <time>2012-01-14T10:10:49Z</time>
      </trkpt>
      <trkpt lat="45.51713" lon="4.54217">
        <ele>498</ele>
        <time>2012-01-14T10:10:54Z</time>
      </trkpt>
      <trkpt lat="45.51723" lon="4.54211">
        <ele>499</ele>
        <time>2012-01-14T10:10:59Z</time>
      </trkpt>
      <trkpt lat="45.51733" lon="4.54205">
        <ele>499</ele>
        <time>2012-01-14T10:11:04Z</time>
      </trkpt>
      <trkpt lat="45.51744" lon="4.54203">
        <ele>499</ele>
        <time>2012-01-14T10:11:09Z</time>
      </trkpt>
      <trkpt lat="45.51755" lon="4.54201">
        <ele>500</ele>
        <time>2012-01-14T10:11:14Z</time>
      </trkpt>
      <trkpt lat="45.51763" lon="4.54209">
        <ele>500</ele>
        <time>2012-01-14T10:11:19Z</time>
      </trkpt>
      <trkpt lat="45.5177" lon="4.54211">
        <ele>501</ele>
        <time>2012-01-14T10:11:24Z</time>
      </trkpt>
      <trkpt lat="45.51777" lon="4.54214">
        <ele>504</ele>
        <time>2012-01-14T10:11:29Z</time>
      </trkpt>
      <trkpt lat="45.51785" lon="4.54216">
        <ele>507</ele>
        <time>2012-01-14T10:11:34Z</time>
      </trkpt>
      <trkpt lat="45.51792" lon="4.54217">
        <ele>508</ele>
        <time>2012-01-14T10:11:39Z</time>
      </trkpt>
      <trkpt lat="45.51801" lon="4.54221">
        <ele>510</ele>
        <time>2012-01-14T10:11:44Z</time>
      </trkpt>
      <trkpt lat="45.5181" lon="4.54223">
        <ele>511</ele>
        <time>2012-01-14T10:11:49Z</time>
      </trkpt>
      <trkpt lat="45.51819" lon="4.54225">
        <ele>512</ele>
        <time>2012-01-14T10:11:54Z</time>
      </trkpt>
      <trkpt lat="45.51828" lon="4.54227">
        <ele>513</ele>
        <time>2012-01-14T10:11:59Z</time>
      </trkpt>
      <trkpt lat="45.51835" lon="4.54229">
        <ele>515</ele>
        <time>2012-01-14T10:12:04Z</time>
      </trkpt>
      <trkpt lat="45.5184" lon="4.54229">
        <ele>515</ele>
        <time>2012-01-14T10:12:10Z</time>
      </trkpt>
      <trkpt lat="45.51846" lon="4.54229">
        <ele>516</ele>
        <time>2012-01-14T10:12:16Z</time>
      </trkpt>
      <trkpt lat="45.5185" lon="4.5423">
        <ele>516</ele>
        <time>2012-01-14T10:12:21Z</time>
      </trkpt>
      <trkpt lat="45.51852" lon="4.54232">
        <ele>516</ele>
        <time>2012-01-14T10:12:26Z</time>
      </trkpt>
      <trkpt lat="45.51852" lon="4.54234">
        <ele>516</ele>
        <time>2012-01-14T10:12:33Z</time>
      </trkpt>
      <trkpt lat="45.51853" lon="4.54236">
        <ele>516</ele>
        <time>2012-01-14T10:12:42Z</time>
      </trkpt>
      <trkpt lat="45.51852" lon="4.54234">
        <ele>516</ele>
        <time>2012-01-14T10:12:57Z</time>
      </trkpt>
      <trkpt lat="45.5185" lon="4.54231">
        <ele>516</ele>
        <time>2012-01-14T10:13:04Z</time>
      </trkpt>
      <trkpt lat="45.5185" lon="4.5423">
        <ele>516</ele>
        <time>2012-01-14T10:13:18Z</time>
      </trkpt>
      <trkpt lat="45.51851" lon="4.54229">
        <ele>516</ele>
        <time>2012-01-14T10:13:28Z</time>
      </trkpt>
      <trkpt lat="45.51853" lon="4.54227">
        <ele>516</ele>
        <time>2012-01-14T10:13:34Z</time>
      </trkpt>
      <trkpt lat="45.51857" lon="4.54223">
        <ele>516</ele>
        <time>2012-01-14T10:13:41Z</time>
      </trkpt>
      <trkpt lat="45.51858" lon="4.54221">
        <ele>516</ele>
        <time>2012-01-14T10:13:53Z</time>
      </trkpt>
      <trkpt lat="45.5186" lon="4.54214">
        <ele>516</ele>
        <time>2012-01-14T10:13:59Z</time>
      </trkpt>
      <trkpt lat="45.51862" lon="4.54203">
        <ele>516</ele>
        <time>2012-01-14T10:14:05Z</time>
      </trkpt>
      <trkpt lat="45.51865" lon="4.5419">
        <ele>517</ele>
        <time>2012-01-14T10:14:10Z</time>
      </trkpt>
      <trkpt lat="45.51865" lon="4.5418">
        <ele>517</ele>
        <time>2012-01-14T10:14:16Z</time>
      </trkpt>
      <trkpt lat="45.51868" lon="4.54173">
        <ele>518</ele>
        <time>2012-01-14T10:14:22Z</time>
      </trkpt>
      <trkpt lat="45.5187" lon="4.54165">
        <ele>519</ele>
        <time>2012-01-14T10:14:27Z</time>
      </trkpt>
      <trkpt lat="45.51873" lon="4.54152">
        <ele>519</ele>
        <time>2012-01-14T10:14:33Z</time>
      </trkpt>
      <trkpt lat="45.51876" lon="4.54141">
        <ele>519</ele>
        <time>2012-01-14T10:14:38Z</time>
      </trkpt>
      <trkpt lat="45.5188" lon="4.54131">
        <ele>520</ele>
        <time>2012-01-14T10:14:43Z</time>
      </trkpt>
      <trkpt lat="45.51883" lon="4.54119">
        <ele>521</ele>
        <time>2012-01-14T10:14:48Z</time>
      </trkpt>
      <trkpt lat="45.51885" lon="4.54103">
        <ele>524</ele>
        <time>2012-01-14T10:14:53Z</time>
      </trkpt>
      <trkpt lat="45.51887" lon="4.54088">
        <ele>526</ele>
        <time>2012-01-14T10:14:58Z</time>
      </trkpt>
      <trkpt lat="45.51891" lon="4.54075">
        <ele>529</ele>
        <time>2012-01-14T10:15:03Z</time>
      </trkpt>
      <trkpt lat="45.51894" lon="4.54064">
        <ele>530</ele>
        <time>2012-01-14T10:15:09Z</time>
      </trkpt>
      <trkpt lat="45.51899" lon="4.54056">
        <ele>530</ele>
        <time>2012-01-14T10:15:15Z</time>
      </trkpt>
      <trkpt lat="45.51902" lon="4.54047">
        <ele>530</ele>
        <time>2012-01-14T10:15:21Z</time>
      </trkpt>
      <trkpt lat="45.51906" lon="4.54042">
        <ele>531</ele>
        <time>2012-01-14T10:15:26Z</time>
      </trkpt>
      <trkpt lat="45.51908" lon="4.54035">
        <ele>531</ele>
        <time>2012-01-14T10:15:31Z</time>
      </trkpt>
      <trkpt lat="45.5191" lon="4.54026">
        <ele>532</ele>
        <time>2012-01-14T10:15:37Z</time>
      </trkpt>
      <trkpt lat="45.51914" lon="4.54017">
        <ele>533</ele>
        <time>2012-01-14T10:15:44Z</time>
      </trkpt>
      <trkpt lat="45.51916" lon="4.54009">
        <ele>534</ele>
        <time>2012-01-14T10:15:50Z</time>
      </trkpt>
      <trkpt lat="45.51919" lon="4.54001">
        <ele>535</ele>
        <time>2012-01-14T10:15:56Z</time>
      </trkpt>
      <trkpt lat="45.5192" lon="4.53996">
        <ele>538</ele>
        <time>2012-01-14T10:16:04Z</time>
      </trkpt>
      <trkpt lat="45.51921" lon="4.53988">
        <ele>540</ele>
        <time>2012-01-14T10:16:10Z</time>
      </trkpt>
      <trkpt lat="45.51923" lon="4.5398">
        <ele>541</ele>
        <time>2012-01-14T10:16:16Z</time>
      </trkpt>
      <trkpt lat="45.51925" lon="4.53973">
        <ele>541</ele>
        <time>2012-01-14T10:16:21Z</time>
      </trkpt>
      <trkpt lat="45.51927" lon="4.53964">
        <ele>541</ele>
        <time>2012-01-14T10:16:27Z</time>
      </trkpt>
      <trkpt lat="45.5193" lon="4.53957">
        <ele>541</ele>
        <time>2012-01-14T10:16:33Z</time>
      </trkpt>
      <trkpt lat="45.51932" lon="4.53949">
        <ele>541</ele>
        <time>2012-01-14T10:16:38Z</time>
      </trkpt>
      <trkpt lat="45.51934" lon="4.53941">
        <ele>543</ele>
        <time>2012-01-14T10:16:43Z</time>
      </trkpt>
      <trkpt lat="45.51936" lon="4.53934">
        <ele>545</ele>
        <time>2012-01-14T10:16:48Z</time>
      </trkpt>
      <trkpt lat="45.51939" lon="4.53925">
        <ele>546</ele>
        <time>2012-01-14T10:16:53Z</time>
      </trkpt>
      <trkpt lat="45.51941" lon="4.53915">
        <ele>547</ele>
        <time>2012-01-14T10:16:58Z</time>
      </trkpt>
      <trkpt lat="45.51942" lon="4.53904">
        <ele>548</ele>
        <time>2012-01-14T10:17:03Z</time>
      </trkpt>
      <trkpt lat="45.51944" lon="4.53896">
        <ele>549</ele>
        <time>2012-01-14T10:17:08Z</time>
      </trkpt>
      <trkpt lat="45.51947" lon="4.53888">
        <ele>550</ele>
        <time>2012-01-14T10:17:13Z</time>
      </trkpt>
      <trkpt lat="45.5195" lon="4.53878">
        <ele>550</ele>
        <time>2012-01-14T10:17:19Z</time>
      </trkpt>
      <trkpt lat="45.51954" lon="4.53865">
        <ele>551</ele>
        <time>2012-01-14T10:17:24Z</time>
      </trkpt>
      <trkpt lat="45.51958" lon="4.53847">
        <ele>555</ele>
        <time>2012-01-14T10:17:29Z</time>
      </trkpt>
      <trkpt lat="45.51964" lon="4.53829">
        <ele>559</ele>
        <time>2012-01-14T10:17:35Z</time>
      </trkpt>
      <trkpt lat="45.5197" lon="4.53816">
        <ele>559</ele>
        <time>2012-01-14T10:17:40Z</time>
      </trkpt>
      <trkpt lat="45.51975" lon="4.53806">
        <ele>559</ele>
        <time>2012-01-14T10:17:45Z</time>
      </trkpt>
      <trkpt lat="45.51981" lon="4.53796">
        <ele>559</ele>
        <time>2012-01-14T10:17:50Z</time>
      </trkpt>
      <trkpt lat="45.51984" lon="4.53791">
        <ele>559</ele>
        <time>2012-01-14T10:17:55Z</time>
      </trkpt>
      <trkpt lat="45.51987" lon="4.53785">
        <ele>560</ele>
        <time>2012-01-14T10:18:01Z</time>
      </trkpt>
      <trkpt lat="45.5199" lon="4.53781">
        <ele>561</ele>
        <time>2012-01-14T10:18:06Z</time>
      </trkpt>
      <trkpt lat="45.51994" lon="4.53776">
        <ele>562</ele>
        <time>2012-01-14T10:18:12Z</time>
      </trkpt>
      <trkpt lat="45.51996" lon="4.53769">
        <ele>564</ele>
        <time>2012-01-14T10:18:18Z</time>
      </trkpt>
      <trkpt lat="45.52" lon="4.53764">
        <ele>566</ele>
        <time>2012-01-14T10:18:24Z</time>
      </trkpt>
      <trkpt lat="45.52003" lon="4.53759">
        <ele>566</ele>
        <time>2012-01-14T10:18:30Z</time>
      </trkpt>
      <trkpt lat="45.52007" lon="4.53753">
        <ele>566</ele>
        <time>2012-01-14T10:18:36Z</time>
      </trkpt>
      <trkpt lat="45.5201" lon="4.53747">
        <ele>566</ele>
        <time>2012-01-14T10:18:42Z</time>
      </trkpt>
      <trkpt lat="45.52011" lon="4.5374">
        <ele>567</ele>
        <time>2012-01-14T10:18:47Z</time>
      </trkpt>
      <trkpt lat="45.52013" lon="4.53733">
        <ele>568</ele>
        <time>2012-01-14T10:18:53Z</time>
      </trkpt>
      <trkpt lat="45.52016" lon="4.53726">
        <ele>570</ele>
        <time>2012-01-14T10:18:58Z</time>
      </trkpt>
      <trkpt lat="45.52019" lon="4.53719">
        <ele>573</ele>
        <time>2012-01-14T10:19:04Z</time>
      </trkpt>
      <trkpt lat="45.52022" lon="4.53709">
        <ele>575</ele>
        <time>2012-01-14T10:19:10Z</time>
      </trkpt>
      <trkpt lat="45.52027" lon="4.53701">
        <ele>578</ele>
        <time>2012-01-14T10:19:16Z</time>
      </trkpt>
      <trkpt lat="45.52033" lon="4.53697">
        <ele>580</ele>
        <time>2012-01-14T10:19:22Z</time>
      </trkpt>
      <trkpt lat="45.52038" lon="4.53694">
        <ele>580</ele>
        <time>2012-01-14T10:19:27Z</time>
      </trkpt>
      <trkpt lat="45.52044" lon="4.5369">
        <ele>581</ele>
        <time>2012-01-14T10:19:33Z</time>
      </trkpt>
      <trkpt lat="45.52049" lon="4.53686">
        <ele>583</ele>
        <time>2012-01-14T10:19:39Z</time>
      </trkpt>
      <trkpt lat="45.52054" lon="4.53681">
        <ele>583</ele>
        <time>2012-01-14T10:19:45Z</time>
      </trkpt>
      <trkpt lat="45.52059" lon="4.53675">
        <ele>584</ele>
        <time>2012-01-14T10:19:51Z</time>
      </trkpt>
      <trkpt lat="45.52064" lon="4.53669">
        <ele>585</ele>
        <time>2012-01-14T10:19:57Z</time>
      </trkpt>
      <trkpt lat="45.52069" lon="4.53663">
        <ele>586</ele>
        <time>2012-01-14T10:20:03Z</time>
      </trkpt>
      <trkpt lat="45.52074" lon="4.53657">
        <ele>586</ele>
        <time>2012-01-14T10:20:09Z</time>
      </trkpt>
      <trkpt lat="45.52079" lon="4.5365">
        <ele>587</ele>
        <time>2012-01-14T10:20:15Z</time>
      </trkpt>
      <trkpt lat="45.52082" lon="4.53643">
        <ele>587</ele>
        <time>2012-01-14T10:20:21Z</time>
      </trkpt>
      <trkpt lat="45.52086" lon="4.53635">
        <ele>588</ele>
        <time>2012-01-14T10:20:27Z</time>
      </trkpt>
      <trkpt lat="45.52089" lon="4.53627">
        <ele>589</ele>
        <time>2012-01-14T10:20:32Z</time>
      </trkpt>
      <trkpt lat="45.5209" lon="4.5362">
        <ele>590</ele>
        <time>2012-01-14T10:20:37Z</time>
      </trkpt>
      <trkpt lat="45.52092" lon="4.53611">
        <ele>591</ele>
        <time>2012-01-14T10:20:42Z</time>
      </trkpt>
      <trkpt lat="45.52094" lon="4.53604">
        <ele>591</ele>
        <time>2012-01-14T10:20:47Z</time>
      </trkpt>
      <trkpt lat="45.52091" lon="4.53595">
        <ele>593</ele>
        <time>2012-01-14T10:20:52Z</time>
      </trkpt>
      <trkpt lat="45.5209" lon="4.53586">
        <ele>593</ele>
        <time>2012-01-14T10:20:57Z</time>
      </trkpt>
      <trkpt lat="45.52089" lon="4.53576">
        <ele>594</ele>
        <time>2012-01-14T10:21:02Z</time>
      </trkpt>
      <trkpt lat="45.52089" lon="4.53558">
        <ele>594</ele>
        <time>2012-01-14T10:21:07Z</time>
      </trkpt>
      <trkpt lat="45.52095" lon="4.53542">
        <ele>595</ele>
        <time>2012-01-14T10:21:12Z</time>
      </trkpt>
      <trkpt lat="45.52102" lon="4.5353">
        <ele>596</ele>
        <time>2012-01-14T10:21:17Z</time>
      </trkpt>
      <trkpt lat="45.52108" lon="4.53525">
        <ele>597</ele>
        <time>2012-01-14T10:21:23Z</time>
      </trkpt>
      <trkpt lat="45.52114" lon="4.5352">
        <ele>597</ele>
        <time>2012-01-14T10:21:29Z</time>
      </trkpt>
      <trkpt lat="45.52119" lon="4.53518">
        <ele>597</ele>
        <time>2012-01-14T10:21:34Z</time>
      </trkpt>
      <trkpt lat="45.52124" lon="4.53514">
        <ele>597</ele>
        <time>2012-01-14T10:21:40Z</time>
      </trkpt>
      <trkpt lat="45.52131" lon="4.53512">
        <ele>597</ele>
        <time>2012-01-14T10:21:45Z</time>
      </trkpt>
      <trkpt lat="45.52136" lon="4.53508">
        <ele>598</ele>
        <time>2012-01-14T10:21:51Z</time>
      </trkpt>
      <trkpt lat="45.52141" lon="4.53506">
        <ele>598</ele>
        <time>2012-01-14T10:21:57Z</time>
      </trkpt>
      <trkpt lat="45.52147" lon="4.53506">
        <ele>598</ele>
        <time>2012-01-14T10:22:02Z</time>
      </trkpt>
      <trkpt lat="45.52153" lon="4.53503">
        <ele>598</ele>
        <time>2012-01-14T10:22:08Z</time>
      </trkpt>
      <trkpt lat="45.52158" lon="4.53503">
        <ele>598</ele>
        <time>2012-01-14T10:22:13Z</time>
      </trkpt>
      <trkpt lat="45.52164" lon="4.53501">
        <ele>598</ele>
        <time>2012-01-14T10:22:19Z</time>
      </trkpt>
      <trkpt lat="45.5217" lon="4.535">
        <ele>598</ele>
        <time>2012-01-14T10:22:24Z</time>
      </trkpt>
      <trkpt lat="45.52177" lon="4.53498">
        <ele>598</ele>
        <time>2012-01-14T10:22:30Z</time>
      </trkpt>
      <trkpt lat="45.52183" lon="4.53496">
        <ele>598</ele>
        <time>2012-01-14T10:22:35Z</time>
      </trkpt>
      <trkpt lat="45.52189" lon="4.53495">
        <ele>598</ele>
        <time>2012-01-14T10:22:40Z</time>
      </trkpt>
      <trkpt lat="45.52193" lon="4.53493">
        <ele>598</ele>
        <time>2012-01-14T10:22:45Z</time>
      </trkpt>
      <trkpt lat="45.52199" lon="4.53489">
        <ele>598</ele>
        <time>2012-01-14T10:22:50Z</time>
      </trkpt>
      <trkpt lat="45.52206" lon="4.53487">
        <ele>598</ele>
        <time>2012-01-14T10:22:55Z</time>
      </trkpt>
      <trkpt lat="45.52212" lon="4.53484">
        <ele>598</ele>
        <time>2012-01-14T10:23:00Z</time>
      </trkpt>
      <trkpt lat="45.52219" lon="4.53482">
        <ele>598</ele>
        <time>2012-01-14T10:23:05Z</time>
      </trkpt>
      <trkpt lat="45.52225" lon="4.5348">
        <ele>598</ele>
        <time>2012-01-14T10:23:10Z</time>
      </trkpt>
      <trkpt lat="45.52232" lon="4.53477">
        <ele>598</ele>
        <time>2012-01-14T10:23:16Z</time>
      </trkpt>
      <trkpt lat="45.52237" lon="4.53474">
        <ele>598</ele>
        <time>2012-01-14T10:23:21Z</time>
      </trkpt>
      <trkpt lat="45.52244" lon="4.5347">
        <ele>598</ele>
        <time>2012-01-14T10:23:26Z</time>
      </trkpt>
      <trkpt lat="45.52251" lon="4.53467">
        <ele>599</ele>
        <time>2012-01-14T10:23:31Z</time>
      </trkpt>
      <trkpt lat="45.52257" lon="4.53464">
        <ele>601</ele>
        <time>2012-01-14T10:23:36Z</time>
      </trkpt>
      <trkpt lat="45.52264" lon="4.5346">
        <ele>602</ele>
        <time>2012-01-14T10:23:41Z</time>
      </trkpt>
      <trkpt lat="45.52271" lon="4.53457">
        <ele>603</ele>
        <time>2012-01-14T10:23:46Z</time>
      </trkpt>
      <trkpt lat="45.52279" lon="4.53455">
        <ele>603</ele>
        <time>2012-01-14T10:23:52Z</time>
      </trkpt>
      <trkpt lat="45.52285" lon="4.53451">
        <ele>603</ele>
        <time>2012-01-14T10:23:57Z</time>
      </trkpt>
      <trkpt lat="45.5229" lon="4.53448">
        <ele>603</ele>
        <time>2012-01-14T10:24:02Z</time>
      </trkpt>
      <trkpt lat="45.52297" lon="4.53444">
        <ele>603</ele>
        <time>2012-01-14T10:24:07Z</time>
      </trkpt>
      <trkpt lat="45.52304" lon="4.53441">
        <ele>603</ele>
        <time>2012-01-14T10:24:13Z</time>
      </trkpt>
      <trkpt lat="45.5231" lon="4.53438">
        <ele>603</ele>
        <time>2012-01-14T10:24:18Z</time>
      </trkpt>
      <trkpt lat="45.52316" lon="4.53434">
        <ele>603</ele>
        <time>2012-01-14T10:24:23Z</time>
      </trkpt>
      <trkpt lat="45.52322" lon="4.53431">
        <ele>603</ele>
        <time>2012-01-14T10:24:28Z</time>
      </trkpt>
      <trkpt lat="45.52328" lon="4.53428">
        <ele>603</ele>
        <time>2012-01-14T10:24:33Z</time>
      </trkpt>
      <trkpt lat="45.52334" lon="4.53425">
        <ele>603</ele>
        <time>2012-01-14T10:24:38Z</time>
      </trkpt>
      <trkpt lat="45.5234" lon="4.53421">
        <ele>603</ele>
        <time>2012-01-14T10:24:43Z</time>
      </trkpt>
      <trkpt lat="45.52345" lon="4.53415">
        <ele>603</ele>
        <time>2012-01-14T10:24:48Z</time>
      </trkpt>
      <trkpt lat="45.52349" lon="4.53408">
        <ele>603</ele>
        <time>2012-01-14T10:24:54Z</time>
      </trkpt>
      <trkpt lat="45.52349" lon="4.534">
        <ele>603</ele>
        <time>2012-01-14T10:25:00Z</time>
      </trkpt>
      <trkpt lat="45.52346" lon="4.53391">
        <ele>603</ele>
        <time>2012-01-14T10:25:05Z</time>
      </trkpt>
      <trkpt lat="45.52344" lon="4.53382">
        <ele>603</ele>
        <time>2012-01-14T10:25:10Z</time>
      </trkpt>
      <trkpt lat="45.52339" lon="4.5337">
        <ele>603</ele>
        <time>2012-01-14T10:25:15Z</time>
      </trkpt>
      <trkpt lat="45.52334" lon="4.53353">
        <ele>603</ele>
        <time>2012-01-14T10:25:20Z</time>
      </trkpt>
      <trkpt lat="45.52331" lon="4.53336">
        <ele>603</ele>
        <time>2012-01-14T10:25:25Z</time>
      </trkpt>
      <trkpt lat="45.52328" lon="4.53318">
        <ele>603</ele>
        <time>2012-01-14T10:25:30Z</time>
      </trkpt>
      <trkpt lat="45.52327" lon="4.533">
        <ele>603</ele>
        <time>2012-01-14T10:25:35Z</time>
      </trkpt>
      <trkpt lat="45.52326" lon="4.53282">
        <ele>603</ele>
        <time>2012-01-14T10:25:40Z</time>
      </trkpt>
      <trkpt lat="45.52326" lon="4.53265">
        <ele>603</ele>
        <time>2012-01-14T10:25:45Z</time>
      </trkpt>
      <trkpt lat="45.52325" lon="4.53248">
        <ele>603</ele>
        <time>2012-01-14T10:25:50Z</time>
      </trkpt>
      <trkpt lat="45.52325" lon="4.53231">
        <ele>603</ele>
        <time>2012-01-14T10:25:55Z</time>
      </trkpt>
      <trkpt lat="45.52324" lon="4.53214">
        <ele>602</ele>
        <time>2012-01-14T10:26:00Z</time>
      </trkpt>
      <trkpt lat="45.52323" lon="4.53197">
        <ele>602</ele>
        <time>2012-01-14T10:26:05Z</time>
      </trkpt>
      <trkpt lat="45.52323" lon="4.5318">
        <ele>601</ele>
        <time>2012-01-14T10:26:10Z</time>
      </trkpt>
      <trkpt lat="45.52322" lon="4.53162">
        <ele>601</ele>
        <time>2012-01-14T10:26:15Z</time>
      </trkpt>
      <trkpt lat="45.52322" lon="4.53145">
        <ele>601</ele>
        <time>2012-01-14T10:26:20Z</time>
      </trkpt>
      <trkpt lat="45.5232" lon="4.53128">
        <ele>601</ele>
        <time>2012-01-14T10:26:25Z</time>
      </trkpt>
      <trkpt lat="45.52317" lon="4.53107">
        <ele>601</ele>
        <time>2012-01-14T10:26:31Z</time>
      </trkpt>
      <trkpt lat="45.52315" lon="4.53091">
        <ele>601</ele>
        <time>2012-01-14T10:26:36Z</time>
      </trkpt>
      <trkpt lat="45.52312" lon="4.53075">
        <ele>601</ele>
        <time>2012-01-14T10:26:41Z</time>
      </trkpt>
      <trkpt lat="45.52309" lon="4.5306">
        <ele>601</ele>
        <time>2012-01-14T10:26:46Z</time>
      </trkpt>
      <trkpt lat="45.52306" lon="4.53044">
        <ele>601</ele>
        <time>2012-01-14T10:26:51Z</time>
      </trkpt>
      <trkpt lat="45.52303" lon="4.53029">
        <ele>601</ele>
        <time>2012-01-14T10:26:56Z</time>
      </trkpt>
      <trkpt lat="45.52301" lon="4.53013">
        <ele>601</ele>
        <time>2012-01-14T10:27:01Z</time>
      </trkpt>
      <trkpt lat="45.52301" lon="4.52997">
        <ele>601</ele>
        <time>2012-01-14T10:27:06Z</time>
      </trkpt>
      <trkpt lat="45.52303" lon="4.52982">
        <ele>601</ele>
        <time>2012-01-14T10:27:11Z</time>
      </trkpt>
      <trkpt lat="45.52303" lon="4.52965">
        <ele>601</ele>
        <time>2012-01-14T10:27:16Z</time>
      </trkpt>
      <trkpt lat="45.52304" lon="4.52949">
        <ele>601</ele>
        <time>2012-01-14T10:27:21Z</time>
      </trkpt>
      <trkpt lat="45.52304" lon="4.52933">
        <ele>601</ele>
        <time>2012-01-14T10:27:26Z</time>
      </trkpt>
      <trkpt lat="45.52303" lon="4.52917">
        <ele>601</ele>
        <time>2012-01-14T10:27:31Z</time>
      </trkpt>
      <trkpt lat="45.52302" lon="4.52902">
        <ele>601</ele>
        <time>2012-01-14T10:27:36Z</time>
      </trkpt>
      <trkpt lat="45.52301" lon="4.52886">
        <ele>601</ele>
        <time>2012-01-14T10:27:41Z</time>
      </trkpt>
      <trkpt lat="45.52301" lon="4.52871">
        <ele>601</ele>
        <time>2012-01-14T10:27:46Z</time>
      </trkpt>
      <trkpt lat="45.52303" lon="4.52857">
        <ele>601</ele>
        <time>2012-01-14T10:27:52Z</time>
      </trkpt>
      <trkpt lat="45.52303" lon="4.52848">
        <ele>602</ele>
        <time>2012-01-14T10:27:57Z</time>
      </trkpt>
      <trkpt lat="45.52304" lon="4.52839">
        <ele>602</ele>
        <time>2012-01-14T10:28:02Z</time>
      </trkpt>
      <trkpt lat="45.52306" lon="4.5283">
        <ele>602</ele>
        <time>2012-01-14T10:28:07Z</time>
      </trkpt>
      <trkpt lat="45.52307" lon="4.5282">
        <ele>602</ele>
        <time>2012-01-14T10:28:12Z</time>
      </trkpt>
      <trkpt lat="45.52309" lon="4.52811">
        <ele>602</ele>
        <time>2012-01-14T10:28:17Z</time>
      </trkpt>
      <trkpt lat="45.5231" lon="4.52803">
        <ele>602</ele>
        <time>2012-01-14T10:28:22Z</time>
      </trkpt>
      <trkpt lat="45.52312" lon="4.52795">
        <ele>602</ele>
        <time>2012-01-14T10:28:27Z</time>
      </trkpt>
      <trkpt lat="45.52314" lon="4.52788">
        <ele>602</ele>
        <time>2012-01-14T10:28:32Z</time>
      </trkpt>
      <trkpt lat="45.52315" lon="4.52786">
        <ele>602</ele>
        <time>2012-01-14T10:28:37Z</time>
      </trkpt>
      <trkpt lat="45.52315" lon="4.52782">
        <ele>602</ele>
        <time>2012-01-14T10:29:50Z</time>
      </trkpt>
      <trkpt lat="45.52316" lon="4.52784">
        <ele>602</ele>
        <time>2012-01-14T10:30:16Z</time>
      </trkpt>
      <trkpt lat="45.52324" lon="4.52786">
        <ele>602</ele>
        <time>2012-01-14T10:30:21Z</time>
      </trkpt>
      <trkpt lat="45.52334" lon="4.52779">
        <ele>602</ele>
        <time>2012-01-14T10:30:26Z</time>
      </trkpt>
      <trkpt lat="45.52345" lon="4.52775">
        <ele>600</ele>
        <time>2012-01-14T10:30:31Z</time>
      </trkpt>
      <trkpt lat="45.52356" lon="4.5277">
        <ele>596</ele>
        <time>2012-01-14T10:30:36Z</time>
      </trkpt>
      <trkpt lat="45.52366" lon="4.52763">
        <ele>593</ele>
        <time>2012-01-14T10:30:41Z</time>
      </trkpt>
      <trkpt lat="45.52375" lon="4.52754">
        <ele>589</ele>
        <time>2012-01-14T10:30:46Z</time>
      </trkpt>
      <trkpt lat="45.52383" lon="4.52748">
        <ele>586</ele>
        <time>2012-01-14T10:30:51Z</time>
      </trkpt>
      <trkpt lat="45.52391" lon="4.52739">
        <ele>584</ele>
        <time>2012-01-14T10:30:56Z</time>
      </trkpt>
      <trkpt lat="45.52399" lon="4.5273">
        <ele>581</ele>
        <time>2012-01-14T10:31:01Z</time>
      </trkpt>
      <trkpt lat="45.52405" lon="4.52717">
        <ele>579</ele>
        <time>2012-01-14T10:31:06Z</time>
      </trkpt>
      <trkpt lat="45.52415" lon="4.52707">
        <ele>576</ele>
        <time>2012-01-14T10:31:11Z</time>
      </trkpt>
      <trkpt lat="45.52427" lon="4.52696">
        <ele>574</ele>
        <time>2012-01-14T10:31:16Z</time>
      </trkpt>
      <trkpt lat="45.52434" lon="4.52683">
        <ele>572</ele>
        <time>2012-01-14T10:31:21Z</time>
      </trkpt>
      <trkpt lat="45.52443" lon="4.52669">
        <ele>570</ele>
        <time>2012-01-14T10:31:26Z</time>
      </trkpt>
      <trkpt lat="45.52457" lon="4.52664">
        <ele>567</ele>
        <time>2012-01-14T10:31:31Z</time>
      </trkpt>
      <trkpt lat="45.52469" lon="4.52664">
        <ele>563</ele>
        <time>2012-01-14T10:31:36Z</time>
      </trkpt>
      <trkpt lat="45.52479" lon="4.52676">
        <ele>561</ele>
        <time>2012-01-14T10:31:41Z</time>
      </trkpt>
      <trkpt lat="45.52491" lon="4.52688">
        <ele>557</ele>
        <time>2012-01-14T10:31:46Z</time>
      </trkpt>
      <trkpt lat="45.52501" lon="4.527">
        <ele>556</ele>
        <time>2012-01-14T10:31:51Z</time>
      </trkpt>
      <trkpt lat="45.52515" lon="4.52712">
        <ele>550</ele>
        <time>2012-01-14T10:31:57Z</time>
      </trkpt>
      <trkpt lat="45.5253" lon="4.52719">
        <ele>545</ele>
        <time>2012-01-14T10:32:02Z</time>
      </trkpt>
      <trkpt lat="45.52544" lon="4.5271">
        <ele>544</ele>
        <time>2012-01-14T10:32:07Z</time>
      </trkpt>
      <trkpt lat="45.52556" lon="4.52696">
        <ele>544</ele>
        <time>2012-01-14T10:32:12Z</time>
      </trkpt>
      <trkpt lat="45.52567" lon="4.52682">
        <ele>544</ele>
        <time>2012-01-14T10:32:17Z</time>
      </trkpt>
      <trkpt lat="45.52575" lon="4.52669">
        <ele>546</ele>
        <time>2012-01-14T10:32:22Z</time>
      </trkpt>
      <trkpt lat="45.52585" lon="4.52658">
        <ele>547</ele>
        <time>2012-01-14T10:32:27Z</time>
      </trkpt>
      <trkpt lat="45.52597" lon="4.52649">
        <ele>548</ele>
        <time>2012-01-14T10:32:32Z</time>
      </trkpt>
      <trkpt lat="45.52607" lon="4.5264">
        <ele>548</ele>
        <time>2012-01-14T10:32:37Z</time>
      </trkpt>
      <trkpt lat="45.52617" lon="4.52628">
        <ele>548</ele>
        <time>2012-01-14T10:32:42Z</time>
      </trkpt>
      <trkpt lat="45.52628" lon="4.52618">
        <ele>548</ele>
        <time>2012-01-14T10:32:47Z</time>
      </trkpt>
      <trkpt lat="45.52637" lon="4.52616">
        <ele>547</ele>
        <time>2012-01-14T10:32:53Z</time>
      </trkpt>
      <trkpt lat="45.52643" lon="4.52619">
        <ele>545</ele>
        <time>2012-01-14T10:32:58Z</time>
      </trkpt>
      <trkpt lat="45.52649" lon="4.52624">
        <ele>542</ele>
        <time>2012-01-14T10:33:03Z</time>
      </trkpt>
      <trkpt lat="45.52657" lon="4.52631">
        <ele>539</ele>
        <time>2012-01-14T10:33:08Z</time>
      </trkpt>
      <trkpt lat="45.52664" lon="4.52639">
        <ele>535</ele>
        <time>2012-01-14T10:33:13Z</time>
      </trkpt>
      <trkpt lat="45.52672" lon="4.52652">
        <ele>533</ele>
        <time>2012-01-14T10:33:19Z</time>
      </trkpt>
      <trkpt lat="45.52679" lon="4.52663">
        <ele>532</ele>
        <time>2012-01-14T10:33:24Z</time>
      </trkpt>
      <trkpt lat="45.5269" lon="4.52671">
        <ele>530</ele>
        <time>2012-01-14T10:33:29Z</time>
      </trkpt>
      <trkpt lat="45.52697" lon="4.52675">
        <ele>528</ele>
        <time>2012-01-14T10:33:34Z</time>
      </trkpt>
      <trkpt lat="45.52705" lon="4.52682">
        <ele>527</ele>
        <time>2012-01-14T10:33:39Z</time>
      </trkpt>
      <trkpt lat="45.52709" lon="4.52688">
        <ele>526</ele>
        <time>2012-01-14T10:33:44Z</time>
      </trkpt>
      <trkpt lat="45.52712" lon="4.52692">
        <ele>526</ele>
        <time>2012-01-14T10:33:51Z</time>
      </trkpt>
      <trkpt lat="45.52713" lon="4.52692">
        <ele>526</ele>
        <time>2012-01-14T10:33:56Z</time>
      </trkpt>
      <trkpt lat="45.52712" lon="4.52693">
        <ele>526</ele>
        <time>2012-01-14T10:34:11Z</time>
      </trkpt>
      <trkpt lat="45.52713" lon="4.52695">
        <ele>526</ele>
        <time>2012-01-14T10:34:23Z</time>
      </trkpt>
      <trkpt lat="45.52714" lon="4.52697">
        <ele>526</ele>
        <time>2012-01-14T10:34:30Z</time>
      </trkpt>
      <trkpt lat="45.52716" lon="4.52699">
        <ele>526</ele>
        <time>2012-01-14T10:34:40Z</time>
      </trkpt>
      <trkpt lat="45.52716" lon="4.527">
        <ele>526</ele>
        <time>2012-01-14T10:34:53Z</time>
      </trkpt>
      <trkpt lat="45.52717" lon="4.52702">
        <ele>526</ele>
        <time>2012-01-14T10:35:14Z</time>
      </trkpt>
      <trkpt lat="45.52723" lon="4.52707">
        <ele>525</ele>
        <time>2012-01-14T10:35:20Z</time>
      </trkpt>
      <trkpt lat="45.52729" lon="4.52714">
        <ele>524</ele>
        <time>2012-01-14T10:35:25Z</time>
      </trkpt>
      <trkpt lat="45.52735" lon="4.52719">
        <ele>522</ele>
        <time>2012-01-14T10:35:30Z</time>
      </trkpt>
      <trkpt lat="45.52742" lon="4.52725">
        <ele>521</ele>
        <time>2012-01-14T10:35:35Z</time>
      </trkpt>
      <trkpt lat="45.52742" lon="4.52739">
        <ele>519</ele>
        <time>2012-01-14T10:35:40Z</time>
      </trkpt>
      <trkpt lat="45.52738" lon="4.5275">
        <ele>517</ele>
        <time>2012-01-14T10:35:45Z</time>
      </trkpt>
      <trkpt lat="45.52733" lon="4.52766">
        <ele>517</ele>
        <time>2012-01-14T10:35:50Z</time>
      </trkpt>
      <trkpt lat="45.52729" lon="4.52783">
        <ele>517</ele>
        <time>2012-01-14T10:35:55Z</time>
      </trkpt>
      <trkpt lat="45.52723" lon="4.52804">
        <ele>517</ele>
        <time>2012-01-14T10:36:01Z</time>
      </trkpt>
      <trkpt lat="45.52718" lon="4.52822">
        <ele>517</ele>
        <time>2012-01-14T10:36:06Z</time>
      </trkpt>
      <trkpt lat="45.52716" lon="4.52841">
        <ele>516</ele>
        <time>2012-01-14T10:36:11Z</time>
      </trkpt>
      <trkpt lat="45.52717" lon="4.5286">
        <ele>515</ele>
        <time>2012-01-14T10:36:16Z</time>
      </trkpt>
      <trkpt lat="45.52722" lon="4.52878">
        <ele>514</ele>
        <time>2012-01-14T10:36:21Z</time>
      </trkpt>
      <trkpt lat="45.52728" lon="4.52896">
        <ele>514</ele>
        <time>2012-01-14T10:36:26Z</time>
      </trkpt>
      <trkpt lat="45.52734" lon="4.52912">
        <ele>513</ele>
        <time>2012-01-14T10:36:31Z</time>
      </trkpt>
      <trkpt lat="45.52744" lon="4.52926">
        <ele>512</ele>
        <time>2012-01-14T10:36:36Z</time>
      </trkpt>
      <trkpt lat="45.5275" lon="4.52943">
        <ele>511</ele>
        <time>2012-01-14T10:36:41Z</time>
      </trkpt>
      <trkpt lat="45.52755" lon="4.52961">
        <ele>510</ele>
        <time>2012-01-14T10:36:46Z</time>
      </trkpt>
      <trkpt lat="45.52757" lon="4.52979">
        <ele>508</ele>
        <time>2012-01-14T10:36:51Z</time>
      </trkpt>
      <trkpt lat="45.52758" lon="4.52997">
        <ele>508</ele>
        <time>2012-01-14T10:36:56Z</time>
      </trkpt>
      <trkpt lat="45.5276" lon="4.53015">
        <ele>507</ele>
        <time>2012-01-14T10:37:01Z</time>
      </trkpt>
      <trkpt lat="45.5276" lon="4.53033">
        <ele>506</ele>
        <time>2012-01-14T10:37:06Z</time>
      </trkpt>
      <trkpt lat="45.52765" lon="4.5305">
        <ele>505</ele>
        <time>2012-01-14T10:37:11Z</time>
      </trkpt>
      <trkpt lat="45.52773" lon="4.53065">
        <ele>503</ele>
        <time>2012-01-14T10:37:16Z</time>
      </trkpt>
      <trkpt lat="45.52782" lon="4.53079">
        <ele>501</ele>
        <time>2012-01-14T10:37:21Z</time>
      </trkpt>
      <trkpt lat="45.52794" lon="4.53092">
        <ele>499</ele>
        <time>2012-01-14T10:37:26Z</time>
      </trkpt>
      <trkpt lat="45.52803" lon="4.53105">
        <ele>499</ele>
        <time>2012-01-14T10:37:31Z</time>
      </trkpt>
      <trkpt lat="45.52812" lon="4.53117">
        <ele>499</ele>
        <time>2012-01-14T10:37:36Z</time>
      </trkpt>
      <trkpt lat="45.52821" lon="4.53129">
        <ele>498</ele>
        <time>2012-01-14T10:37:41Z</time>
      </trkpt>
      <trkpt lat="45.52831" lon="4.53141">
        <ele>498</ele>
        <time>2012-01-14T10:37:46Z</time>
      </trkpt>
      <trkpt lat="45.52841" lon="4.53152">
        <ele>498</ele>
        <time>2012-01-14T10:37:51Z</time>
      </trkpt>
      <trkpt lat="45.52851" lon="4.53161">
        <ele>498</ele>
        <time>2012-01-14T10:37:56Z</time>
      </trkpt>
      <trkpt lat="45.52862" lon="4.53171">
        <ele>498</ele>
        <time>2012-01-14T10:38:01Z</time>
      </trkpt>
      <trkpt lat="45.52871" lon="4.53181">
        <ele>498</ele>
        <time>2012-01-14T10:38:06Z</time>
      </trkpt>
      <trkpt lat="45.52879" lon="4.5319">
        <ele>498</ele>
        <time>2012-01-14T10:38:11Z</time>
      </trkpt>
      <trkpt lat="45.5289" lon="4.53186">
        <ele>497</ele>
        <time>2012-01-14T10:38:16Z</time>
      </trkpt>
      <trkpt lat="45.52902" lon="4.53177">
        <ele>496</ele>
        <time>2012-01-14T10:38:21Z</time>
      </trkpt>
      <trkpt lat="45.52914" lon="4.53168">
        <ele>496</ele>
        <time>2012-01-14T10:38:26Z</time>
      </trkpt>
      <trkpt lat="45.52925" lon="4.53159">
        <ele>496</ele>
        <time>2012-01-14T10:38:31Z</time>
      </trkpt>
      <trkpt lat="45.52936" lon="4.5315">
        <ele>495</ele>
        <time>2012-01-14T10:38:36Z</time>
      </trkpt>
      <trkpt lat="45.52948" lon="4.53141">
        <ele>494</ele>
        <time>2012-01-14T10:38:41Z</time>
      </trkpt>
      <trkpt lat="45.52958" lon="4.53132">
        <ele>493</ele>
        <time>2012-01-14T10:38:46Z</time>
      </trkpt>
      <trkpt lat="45.52968" lon="4.53122">
        <ele>492</ele>
        <time>2012-01-14T10:38:51Z</time>
      </trkpt>
      <trkpt lat="45.52979" lon="4.53124">
        <ele>492</ele>
        <time>2012-01-14T10:38:56Z</time>
      </trkpt>
      <trkpt lat="45.52988" lon="4.53134">
        <ele>492</ele>
        <time>2012-01-14T10:39:01Z</time>
      </trkpt>
      <trkpt lat="45.52998" lon="4.53143">
        <ele>491</ele>
        <time>2012-01-14T10:39:06Z</time>
      </trkpt>
      <trkpt lat="45.53009" lon="4.53153">
        <ele>491</ele>
        <time>2012-01-14T10:39:11Z</time>
      </trkpt>
      <trkpt lat="45.53019" lon="4.53162">
        <ele>491</ele>
        <time>2012-01-14T10:39:16Z</time>
      </trkpt>
      <trkpt lat="45.5303" lon="4.53163">
        <ele>491</ele>
        <time>2012-01-14T10:39:21Z</time>
      </trkpt>
      <trkpt lat="45.53041" lon="4.5316">
        <ele>491</ele>
        <time>2012-01-14T10:39:26Z</time>
      </trkpt>
      <trkpt lat="45.53052" lon="4.53164">
        <ele>491</ele>
        <time>2012-01-14T10:39:31Z</time>
      </trkpt>
      <trkpt lat="45.53063" lon="4.53168">
        <ele>491</ele>
        <time>2012-01-14T10:39:36Z</time>
      </trkpt>
      <trkpt lat="45.53074" lon="4.53173">
        <ele>491</ele>
        <time>2012-01-14T10:39:41Z</time>
      </trkpt>
      <trkpt lat="45.53084" lon="4.53178">
        <ele>492</ele>
        <time>2012-01-14T10:39:46Z</time>
      </trkpt>
      <trkpt lat="45.53094" lon="4.53184">
        <ele>492</ele>
        <time>2012-01-14T10:39:51Z</time>
      </trkpt>
      <trkpt lat="45.53105" lon="4.53193">
        <ele>492</ele>
        <time>2012-01-14T10:39:56Z</time>
      </trkpt>
      <trkpt lat="45.53115" lon="4.53204">
        <ele>493</ele>
        <time>2012-01-14T10:40:01Z</time>
      </trkpt>
      <trkpt lat="45.53126" lon="4.53215">
        <ele>495</ele>
        <time>2012-01-14T10:40:06Z</time>
      </trkpt>
      <trkpt lat="45.53136" lon="4.53228">
        <ele>495</ele>
        <time>2012-01-14T10:40:11Z</time>
      </trkpt>
      <trkpt lat="45.53145" lon="4.5324">
        <ele>495</ele>
        <time>2012-01-14T10:40:16Z</time>
      </trkpt>
      <trkpt lat="45.53155" lon="4.53252">
        <ele>495</ele>
        <time>2012-01-14T10:40:21Z</time>
      </trkpt>
      <trkpt lat="45.53165" lon="4.53262">
        <ele>495</ele>
        <time>2012-01-14T10:40:26Z</time>
      </trkpt>
      <trkpt lat="45.53175" lon="4.53274">
        <ele>495</ele>
        <time>2012-01-14T10:40:31Z</time>
      </trkpt>
      <trkpt lat="45.53185" lon="4.53286">
        <ele>495</ele>
        <time>2012-01-14T10:40:36Z</time>
      </trkpt>
      <trkpt lat="45.53194" lon="4.53297">
        <ele>494</ele>
        <time>2012-01-14T10:40:41Z</time>
      </trkpt>
      <trkpt lat="45.53202" lon="4.53303">
        <ele>494</ele>
        <time>2012-01-14T10:40:48Z</time>
      </trkpt>
      <trkpt lat="45.53209" lon="4.53301">
        <ele>493</ele>
        <time>2012-01-14T10:40:53Z</time>
      </trkpt>
      <trkpt lat="45.53211" lon="4.53315">
        <ele>493</ele>
        <time>2012-01-14T10:40:58Z</time>
      </trkpt>
      <trkpt lat="45.53218" lon="4.53325">
        <ele>493</ele>
        <time>2012-01-14T10:41:03Z</time>
      </trkpt>
      <trkpt lat="45.53226" lon="4.53335">
        <ele>493</ele>
        <time>2012-01-14T10:41:08Z</time>
      </trkpt>
      <trkpt lat="45.53233" lon="4.53345">
        <ele>493</ele>
        <time>2012-01-14T10:41:13Z</time>
      </trkpt>
      <trkpt lat="45.53242" lon="4.53356">
        <ele>493</ele>
        <time>2012-01-14T10:41:18Z</time>
      </trkpt>
      <trkpt lat="45.53252" lon="4.53368">
        <ele>493</ele>
        <time>2012-01-14T10:41:23Z</time>
      </trkpt>
      <trkpt lat="45.53262" lon="4.53381">
        <ele>493</ele>
        <time>2012-01-14T10:41:28Z</time>
      </trkpt>
      <trkpt lat="45.53272" lon="4.53394">
        <ele>493</ele>
        <time>2012-01-14T10:41:33Z</time>
      </trkpt>
      <trkpt lat="45.53282" lon="4.53407">
        <ele>493</ele>
        <time>2012-01-14T10:41:38Z</time>
      </trkpt>
      <trkpt lat="45.53291" lon="4.53419">
        <ele>493</ele>
        <time>2012-01-14T10:41:43Z</time>
      </trkpt>
      <trkpt lat="45.53301" lon="4.53432">
        <ele>492</ele>
        <time>2012-01-14T10:41:48Z</time>
      </trkpt>
      <trkpt lat="45.5331" lon="4.53443">
        <ele>491</ele>
        <time>2012-01-14T10:41:53Z</time>
      </trkpt>
      <trkpt lat="45.53319" lon="4.53457">
        <ele>490</ele>
        <time>2012-01-14T10:41:58Z</time>
      </trkpt>
      <trkpt lat="45.53328" lon="4.53472">
        <ele>488</ele>
        <time>2012-01-14T10:42:03Z</time>
      </trkpt>
      <trkpt lat="45.53337" lon="4.53484">
        <ele>487</ele>
        <time>2012-01-14T10:42:08Z</time>
      </trkpt>
      <trkpt lat="45.53346" lon="4.53496">
        <ele>486</ele>
        <time>2012-01-14T10:42:13Z</time>
      </trkpt>
      <trkpt lat="45.53355" lon="4.53507">
        <ele>485</ele>
        <time>2012-01-14T10:42:18Z</time>
      </trkpt>
      <trkpt lat="45.53365" lon="4.53514">
        <ele>484</ele>
        <time>2012-01-14T10:42:23Z</time>
      </trkpt>
      <trkpt lat="45.53374" lon="4.53521">
        <ele>482</ele>
        <time>2012-01-14T10:42:28Z</time>
      </trkpt>
      <trkpt lat="45.5338" lon="4.53529">
        <ele>482</ele>
        <time>2012-01-14T10:42:33Z</time>
      </trkpt>
      <trkpt lat="45.53389" lon="4.5353">
        <ele>481</ele>
        <time>2012-01-14T10:42:38Z</time>
      </trkpt>
      <trkpt lat="45.53398" lon="4.53538">
        <ele>480</ele>
        <time>2012-01-14T10:42:44Z</time>
      </trkpt>
      <trkpt lat="45.534" lon="4.53532">
        <ele>478</ele>
        <time>2012-01-14T10:42:50Z</time>
      </trkpt>
      <trkpt lat="45.53399" lon="4.53524">
        <ele>477</ele>
        <time>2012-01-14T10:42:55Z</time>
      </trkpt>
      <trkpt lat="45.53396" lon="4.53514">
        <ele>477</ele>
        <time>2012-01-14T10:43:00Z</time>
      </trkpt>
      <trkpt lat="45.53392" lon="4.53498">
        <ele>476</ele>
        <time>2012-01-14T10:43:05Z</time>
      </trkpt>
      <trkpt lat="45.53387" lon="4.5348">
        <ele>476</ele>
        <time>2012-01-14T10:43:10Z</time>
      </trkpt>
      <trkpt lat="45.53382" lon="4.53461">
        <ele>476</ele>
        <time>2012-01-14T10:43:15Z</time>
      </trkpt>
      <trkpt lat="45.53381" lon="4.53443">
        <ele>474</ele>
        <time>2012-01-14T10:43:20Z</time>
      </trkpt>
      <trkpt lat="45.53381" lon="4.53425">
        <ele>473</ele>
        <time>2012-01-14T10:43:25Z</time>
      </trkpt>
      <trkpt lat="45.53385" lon="4.5341">
        <ele>470</ele>
        <time>2012-01-14T10:43:30Z</time>
      </trkpt>
      <trkpt lat="45.53388" lon="4.53395">
        <ele>467</ele>
        <time>2012-01-14T10:43:35Z</time>
      </trkpt>
      <trkpt lat="45.53391" lon="4.53378">
        <ele>463</ele>
        <time>2012-01-14T10:43:40Z</time>
      </trkpt>
      <trkpt lat="45.53394" lon="4.53361">
        <ele>461</ele>
        <time>2012-01-14T10:43:45Z</time>
      </trkpt>
      <trkpt lat="45.53396" lon="4.53343">
        <ele>459</ele>
        <time>2012-01-14T10:43:50Z</time>
      </trkpt>
      <trkpt lat="45.534" lon="4.53327">
        <ele>457</ele>
        <time>2012-01-14T10:43:55Z</time>
      </trkpt>
      <trkpt lat="45.53405" lon="4.5331">
        <ele>455</ele>
        <time>2012-01-14T10:44:00Z</time>
      </trkpt>
      <trkpt lat="45.53408" lon="4.53294">
        <ele>454</ele>
        <time>2012-01-14T10:44:05Z</time>
      </trkpt>
      <trkpt lat="45.53413" lon="4.53276">
        <ele>453</ele>
        <time>2012-01-14T10:44:10Z</time>
      </trkpt>
      <trkpt lat="45.53416" lon="4.53259">
        <ele>451</ele>
        <time>2012-01-14T10:44:15Z</time>
      </trkpt>
      <trkpt lat="45.53421" lon="4.5324">
        <ele>447</ele>
        <time>2012-01-14T10:44:20Z</time>
      </trkpt>
      <trkpt lat="45.53427" lon="4.53219">
        <ele>443</ele>
        <time>2012-01-14T10:44:25Z</time>
      </trkpt>
      <trkpt lat="45.53432" lon="4.53202">
        <ele>439</ele>
        <time>2012-01-14T10:44:30Z</time>
      </trkpt>
      <trkpt lat="45.53436" lon="4.53183">
        <ele>437</ele>
        <time>2012-01-14T10:44:35Z</time>
      </trkpt>
      <trkpt lat="45.5344" lon="4.53165">
        <ele>437</ele>
        <time>2012-01-14T10:44:40Z</time>
      </trkpt>
      <trkpt lat="45.53448" lon="4.53151">
        <ele>437</ele>
        <time>2012-01-14T10:44:45Z</time>
      </trkpt>
      <trkpt lat="45.5346" lon="4.53143">
        <ele>437</ele>
        <time>2012-01-14T10:44:50Z</time>
      </trkpt>
      <trkpt lat="45.53476" lon="4.53135">
        <ele>437</ele>
        <time>2012-01-14T10:44:55Z</time>
      </trkpt>
      <trkpt lat="45.53494" lon="4.53129">
        <ele>437</ele>
        <time>2012-01-14T10:45:00Z</time>
      </trkpt>
      <trkpt lat="45.53514" lon="4.53125">
        <ele>437</ele>
        <time>2012-01-14T10:45:05Z</time>
      </trkpt>
      <trkpt lat="45.53536" lon="4.53121">
        <ele>437</ele>
        <time>2012-01-14T10:45:10Z</time>
      </trkpt>
      <trkpt lat="45.53558" lon="4.53116">
        <ele>436</ele>
        <time>2012-01-14T10:45:15Z</time>
      </trkpt>
      <trkpt lat="45.53577" lon="4.53111">
        <ele>435</ele>
        <time>2012-01-14T10:45:20Z</time>
      </trkpt>
      <trkpt lat="45.53597" lon="4.53107">
        <ele>433</ele>
        <time>2012-01-14T10:45:25Z</time>
      </trkpt>
      <trkpt lat="45.53619" lon="4.53103">
        <ele>432</ele>
        <time>2012-01-14T10:45:30Z</time>
      </trkpt>
      <trkpt lat="45.53637" lon="4.531">
        <ele>429</ele>
        <time>2012-01-14T10:45:35Z</time>
      </trkpt>
      <trkpt lat="45.53654" lon="4.53103">
        <ele>428</ele>
        <time>2012-01-14T10:45:40Z</time>
      </trkpt>
      <trkpt lat="45.53667" lon="4.53115">
        <ele>426</ele>
        <time>2012-01-14T10:45:45Z</time>
      </trkpt>
      <trkpt lat="45.5368" lon="4.5313">
        <ele>423</ele>
        <time>2012-01-14T10:45:50Z</time>
      </trkpt>
      <trkpt lat="45.53691" lon="4.53145">
        <ele>419</ele>
        <time>2012-01-14T10:45:55Z</time>
      </trkpt>
      <trkpt lat="45.53699" lon="4.53163">
        <ele>416</ele>
        <time>2012-01-14T10:46:00Z</time>
      </trkpt>
      <trkpt lat="45.53706" lon="4.53181">
        <ele>413</ele>
        <time>2012-01-14T10:46:05Z</time>
      </trkpt>
      <trkpt lat="45.53713" lon="4.53198">
        <ele>409</ele>
        <time>2012-01-14T10:46:10Z</time>
      </trkpt>
      <trkpt lat="45.53717" lon="4.53213">
        <ele>404</ele>
        <time>2012-01-14T10:46:15Z</time>
      </trkpt>
      <trkpt lat="45.53719" lon="4.53221">
        <ele>401</ele>
        <time>2012-01-14T10:46:20Z</time>
      </trkpt>
      <trkpt lat="45.53719" lon="4.53226">
        <ele>400</ele>
        <time>2012-01-14T10:46:27Z</time>
      </trkpt>
      <trkpt lat="45.53721" lon="4.53232">
        <ele>399</ele>
        <time>2012-01-14T10:46:32Z</time>
      </trkpt>
      <trkpt lat="45.53723" lon="4.53238">
        <ele>398</ele>
        <time>2012-01-14T10:46:38Z</time>
      </trkpt>
      <trkpt lat="45.53725" lon="4.53246">
        <ele>397</ele>
        <time>2012-01-14T10:46:43Z</time>
      </trkpt>
      <trkpt lat="45.53729" lon="4.53252">
        <ele>394</ele>
        <time>2012-01-14T10:46:49Z</time>
      </trkpt>
      <trkpt lat="45.53732" lon="4.53253">
        <ele>392</ele>
        <time>2012-01-14T10:46:55Z</time>
      </trkpt>
      <trkpt lat="45.53734" lon="4.5325">
        <ele>390</ele>
        <time>2012-01-14T10:47:00Z</time>
      </trkpt>
      <trkpt lat="45.53734" lon="4.53243">
        <ele>388</ele>
        <time>2012-01-14T10:47:05Z</time>
      </trkpt>
      <trkpt lat="45.53733" lon="4.53234">
        <ele>386</ele>
        <time>2012-01-14T10:47:10Z</time>
      </trkpt>
      <trkpt lat="45.53735" lon="4.53225">
        <ele>384</ele>
        <time>2012-01-14T10:47:15Z</time>
      </trkpt>
      <trkpt lat="45.53738" lon="4.53214">
        <ele>379</ele>
        <time>2012-01-14T10:47:20Z</time>
      </trkpt>
      <trkpt lat="45.5374" lon="4.53204">
        <ele>374</ele>
        <time>2012-01-14T10:47:25Z</time>
      </trkpt>
      <trkpt lat="45.53741" lon="4.5319">
        <ele>369</ele>
        <time>2012-01-14T10:47:30Z</time>
      </trkpt>
      <trkpt lat="45.53743" lon="4.53179">
        <ele>367</ele>
        <time>2012-01-14T10:47:35Z</time>
      </trkpt>
      <trkpt lat="45.53744" lon="4.53167">
        <ele>366</ele>
        <time>2012-01-14T10:47:40Z</time>
      </trkpt>
      <trkpt lat="45.53745" lon="4.53154">
        <ele>363</ele>
        <time>2012-01-14T10:47:45Z</time>
      </trkpt>
      <trkpt lat="45.53743" lon="4.53137">
        <ele>360</ele>
        <time>2012-01-14T10:47:50Z</time>
      </trkpt>
      <trkpt lat="45.53739" lon="4.53122">
        <ele>358</ele>
        <time>2012-01-14T10:47:55Z</time>
      </trkpt>
      <trkpt lat="45.53735" lon="4.53108">
        <ele>357</ele>
        <time>2012-01-14T10:48:00Z</time>
      </trkpt>
      <trkpt lat="45.53731" lon="4.53095">
        <ele>357</ele>
        <time>2012-01-14T10:48:05Z</time>
      </trkpt>
      <trkpt lat="45.5373" lon="4.53091">
        <ele>359</ele>
        <time>2012-01-14T10:48:10Z</time>
      </trkpt>
      <trkpt lat="45.5373" lon="4.53087">
        <ele>362</ele>
        <time>2012-01-14T10:48:16Z</time>
      </trkpt>
      <trkpt lat="45.53731" lon="4.53082">
        <ele>364</ele>
        <time>2012-01-14T10:48:21Z</time>
      </trkpt>
      <trkpt lat="45.53731" lon="4.53072">
        <ele>370</ele>
        <time>2012-01-14T10:48:27Z</time>
      </trkpt>
      <trkpt lat="45.5373" lon="4.5307">
        <ele>376</ele>
        <time>2012-01-14T10:48:35Z</time>
      </trkpt>
      <trkpt lat="45.53728" lon="4.53062">
        <ele>378</ele>
        <time>2012-01-14T10:48:41Z</time>
      </trkpt>
      <trkpt lat="45.53721" lon="4.53053">
        <ele>381</ele>
        <time>2012-01-14T10:48:47Z</time>
      </trkpt>
      <trkpt lat="45.53718" lon="4.53045">
        <ele>383</ele>
        <time>2012-01-14T10:48:52Z</time>
      </trkpt>
      <trkpt lat="45.53717" lon="4.53037">
        <ele>383</ele>
        <time>2012-01-14T10:48:58Z</time>
      </trkpt>
      <trkpt lat="45.53719" lon="4.53038">
        <ele>383</ele>
        <time>2012-01-14T10:49:04Z</time>
      </trkpt>
      <trkpt lat="45.53718" lon="4.53041">
        <ele>383</ele>
        <time>2012-01-14T10:49:13Z</time>
      </trkpt>
      <trkpt lat="45.53717" lon="4.53038">
        <ele>384</ele>
        <time>2012-01-14T10:49:19Z</time>
      </trkpt>
      <trkpt lat="45.5372" lon="4.53041">
        <ele>384</ele>
        <time>2012-01-14T10:49:24Z</time>
      </trkpt>
      <trkpt lat="45.53723" lon="4.53047">
        <ele>384</ele>
        <time>2012-01-14T10:49:29Z</time>
      </trkpt>
      <trkpt lat="45.53727" lon="4.53054">
        <ele>384</ele>
        <time>2012-01-14T10:49:35Z</time>
      </trkpt>
      <trkpt lat="45.53732" lon="4.53059">
        <ele>384</ele>
        <time>2012-01-14T10:49:40Z</time>
      </trkpt>
      <trkpt lat="45.53736" lon="4.53066">
        <ele>384</ele>
        <time>2012-01-14T10:49:45Z</time>
      </trkpt>
      <trkpt lat="45.53743" lon="4.53079">
        <ele>382</ele>
        <time>2012-01-14T10:49:50Z</time>
      </trkpt>
      <trkpt lat="45.53748" lon="4.53092">
        <ele>381</ele>
        <time>2012-01-14T10:49:55Z</time>
      </trkpt>
      <trkpt lat="45.53754" lon="4.53103">
        <ele>380</ele>
        <time>2012-01-14T10:50:00Z</time>
      </trkpt>
      <trkpt lat="45.53759" lon="4.53117">
        <ele>377</ele>
        <time>2012-01-14T10:50:05Z</time>
      </trkpt>
      <trkpt lat="45.53764" lon="4.53132">
        <ele>374</ele>
        <time>2012-01-14T10:50:10Z</time>
      </trkpt>
      <trkpt lat="45.53765" lon="4.53148">
        <ele>372</ele>
        <time>2012-01-14T10:50:15Z</time>
      </trkpt>
      <trkpt lat="45.53767" lon="4.53165">
        <ele>371</ele>
        <time>2012-01-14T10:50:20Z</time>
      </trkpt>
      <trkpt lat="45.5377" lon="4.53184">
        <ele>371</ele>
        <time>2012-01-14T10:50:25Z</time>
      </trkpt>
      <trkpt lat="45.53775" lon="4.53201">
        <ele>374</ele>
        <time>2012-01-14T10:50:30Z</time>
      </trkpt>
      <trkpt lat="45.53783" lon="4.53218">
        <ele>374</ele>
        <time>2012-01-14T10:50:35Z</time>
      </trkpt>
      <trkpt lat="45.53788" lon="4.53234">
        <ele>374</ele>
        <time>2012-01-14T10:50:40Z</time>
      </trkpt>
      <trkpt lat="45.53791" lon="4.53248">
        <ele>374</ele>
        <time>2012-01-14T10:50:45Z</time>
      </trkpt>
      <trkpt lat="45.53795" lon="4.53264">
        <ele>374</ele>
        <time>2012-01-14T10:50:50Z</time>
      </trkpt>
      <trkpt lat="45.53799" lon="4.53279">
        <ele>377</ele>
        <time>2012-01-14T10:50:55Z</time>
      </trkpt>
      <trkpt lat="45.53804" lon="4.53295">
        <ele>377</ele>
        <time>2012-01-14T10:51:00Z</time>
      </trkpt>
      <trkpt lat="45.53809" lon="4.53311">
        <ele>376</ele>
        <time>2012-01-14T10:51:05Z</time>
      </trkpt>
      <trkpt lat="45.53814" lon="4.53328">
        <ele>374</ele>
        <time>2012-01-14T10:51:10Z</time>
      </trkpt>
      <trkpt lat="45.53818" lon="4.53344">
        <ele>374</ele>
        <time>2012-01-14T10:51:15Z</time>
      </trkpt>
      <trkpt lat="45.53823" lon="4.53361">
        <ele>372</ele>
        <time>2012-01-14T10:51:20Z</time>
      </trkpt>
      <trkpt lat="45.5383" lon="4.53379">
        <ele>372</ele>
        <time>2012-01-14T10:51:25Z</time>
      </trkpt>
      <trkpt lat="45.53835" lon="4.53393">
        <ele>375</ele>
        <time>2012-01-14T10:51:30Z</time>
      </trkpt>
      <trkpt lat="45.53841" lon="4.53408">
        <ele>376</ele>
        <time>2012-01-14T10:51:35Z</time>
      </trkpt>
      <trkpt lat="45.53847" lon="4.53423">
        <ele>376</ele>
        <time>2012-01-14T10:51:40Z</time>
      </trkpt>
      <trkpt lat="45.53853" lon="4.5344">
        <ele>373</ele>
        <time>2012-01-14T10:51:45Z</time>
      </trkpt>
      <trkpt lat="45.5386" lon="4.53456">
        <ele>368</ele>
        <time>2012-01-14T10:51:50Z</time>
      </trkpt>
      <trkpt lat="45.53867" lon="4.53472">
        <ele>363</ele>
        <time>2012-01-14T10:51:55Z</time>
      </trkpt>
      <trkpt lat="45.53874" lon="4.53489">
        <ele>360</ele>
        <time>2012-01-14T10:52:00Z</time>
      </trkpt>
      <trkpt lat="45.53882" lon="4.53506">
        <ele>359</ele>
        <time>2012-01-14T10:52:05Z</time>
      </trkpt>
      <trkpt lat="45.53889" lon="4.53523">
        <ele>359</ele>
        <time>2012-01-14T10:52:10Z</time>
      </trkpt>
      <trkpt lat="45.53901" lon="4.53534">
        <ele>359</ele>
        <time>2012-01-14T10:52:15Z</time>
      </trkpt>
      <trkpt lat="45.53913" lon="4.53535">
        <ele>359</ele>
        <time>2012-01-14T10:52:20Z</time>
      </trkpt>
      <trkpt lat="45.53916" lon="4.53549">
        <ele>359</ele>
        <time>2012-01-14T10:52:25Z</time>
      </trkpt>
      <trkpt lat="45.53915" lon="4.53568">
        <ele>362</ele>
        <time>2012-01-14T10:52:30Z</time>
      </trkpt>
      <trkpt lat="45.53913" lon="4.53584">
        <ele>367</ele>
        <time>2012-01-14T10:52:35Z</time>
      </trkpt>
      <trkpt lat="45.5391" lon="4.53603">
        <ele>369</ele>
        <time>2012-01-14T10:52:40Z</time>
      </trkpt>
      <trkpt lat="45.53912" lon="4.53623">
        <ele>371</ele>
        <time>2012-01-14T10:52:45Z</time>
      </trkpt>
      <trkpt lat="45.53914" lon="4.53643">
        <ele>371</ele>
        <time>2012-01-14T10:52:50Z</time>
      </trkpt>
      <trkpt lat="45.53914" lon="4.53664">
        <ele>372</ele>
        <time>2012-01-14T10:52:55Z</time>
      </trkpt>
      <trkpt lat="45.53914" lon="4.53683">
        <ele>372</ele>
        <time>2012-01-14T10:53:00Z</time>
      </trkpt>
      <trkpt lat="45.53913" lon="4.53704">
        <ele>372</ele>
        <time>2012-01-14T10:53:05Z</time>
      </trkpt>
      <trkpt lat="45.53913" lon="4.53724">
        <ele>372</ele>
        <time>2012-01-14T10:53:10Z</time>
      </trkpt>
      <trkpt lat="45.53909" lon="4.53742">
        <ele>372</ele>
        <time>2012-01-14T10:53:15Z</time>
      </trkpt>
      <trkpt lat="45.53906" lon="4.53759">
        <ele>372</ele>
        <time>2012-01-14T10:53:20Z</time>
      </trkpt>
      <trkpt lat="45.53901" lon="4.53776">
        <ele>372</ele>
        <time>2012-01-14T10:53:25Z</time>
      </trkpt>
      <trkpt lat="45.53899" lon="4.53793">
        <ele>372</ele>
        <time>2012-01-14T10:53:30Z</time>
      </trkpt>
      <trkpt lat="45.53898" lon="4.53812">
        <ele>372</ele>
        <time>2012-01-14T10:53:35Z</time>
      </trkpt>
      <trkpt lat="45.53895" lon="4.53828">
        <ele>372</ele>
        <time>2012-01-14T10:53:40Z</time>
      </trkpt>
      <trkpt lat="45.53894" lon="4.53841">
        <ele>371</ele>
        <time>2012-01-14T10:53:45Z</time>
      </trkpt>
      <trkpt lat="45.53891" lon="4.53858">
        <ele>370</ele>
        <time>2012-01-14T10:53:50Z</time>
      </trkpt>
      <trkpt lat="45.53887" lon="4.53875">
        <ele>370</ele>
        <time>2012-01-14T10:53:55Z</time>
      </trkpt>
      <trkpt lat="45.53883" lon="4.53889">
        <ele>370</ele>
        <time>2012-01-14T10:54:00Z</time>
      </trkpt>
      <trkpt lat="45.5388" lon="4.53904">
        <ele>370</ele>
        <time>2012-01-14T10:54:05Z</time>
      </trkpt>
      <trkpt lat="45.53878" lon="4.53916">
        <ele>370</ele>
        <time>2012-01-14T10:54:10Z</time>
      </trkpt>
      <trkpt lat="45.53874" lon="4.53926">
        <ele>370</ele>
        <time>2012-01-14T10:54:15Z</time>
      </trkpt>
      <trkpt lat="45.5387" lon="4.53931">
        <ele>368</ele>
        <time>2012-01-14T10:54:20Z</time>
      </trkpt>
      <trkpt lat="45.53865" lon="4.53937">
        <ele>368</ele>
        <time>2012-01-14T10:54:25Z</time>
      </trkpt>
      <trkpt lat="45.53854" lon="4.53938">
        <ele>367</ele>
        <time>2012-01-14T10:54:30Z</time>
      </trkpt>
      <trkpt lat="45.53844" lon="4.53942">
        <ele>365</ele>
        <time>2012-01-14T10:54:35Z</time>
      </trkpt>
      <trkpt lat="45.53843" lon="4.53956">
        <ele>363</ele>
        <time>2012-01-14T10:54:40Z</time>
      </trkpt>
      <trkpt lat="45.53847" lon="4.53972">
        <ele>363</ele>
        <time>2012-01-14T10:54:45Z</time>
      </trkpt>
      <trkpt lat="45.53848" lon="4.53989">
        <ele>363</ele>
        <time>2012-01-14T10:54:50Z</time>
      </trkpt>
      <trkpt lat="45.53847" lon="4.54007">
        <ele>361</ele>
        <time>2012-01-14T10:54:55Z</time>
      </trkpt>
      <trkpt lat="45.53843" lon="4.54025">
        <ele>361</ele>
        <time>2012-01-14T10:55:00Z</time>
      </trkpt>
      <trkpt lat="45.5384" lon="4.54041">
        <ele>361</ele>
        <time>2012-01-14T10:55:05Z</time>
      </trkpt>
      <trkpt lat="45.53836" lon="4.54055">
        <ele>361</ele>
        <time>2012-01-14T10:55:10Z</time>
      </trkpt>
      <trkpt lat="45.5383" lon="4.5407">
        <ele>361</ele>
        <time>2012-01-14T10:55:15Z</time>
      </trkpt>
      <trkpt lat="45.53826" lon="4.54085">
        <ele>361</ele>
        <time>2012-01-14T10:55:20Z</time>
      </trkpt>
      <trkpt lat="45.53822" lon="4.541">
        <ele>361</ele>
        <time>2012-01-14T10:55:25Z</time>
      </trkpt>
      <trkpt lat="45.53812" lon="4.54114">
        <ele>360</ele>
        <time>2012-01-14T10:55:31Z</time>
      </trkpt>
      <trkpt lat="45.53808" lon="4.54129">
        <ele>360</ele>
        <time>2012-01-14T10:55:36Z</time>
      </trkpt>
      <trkpt lat="45.53804" lon="4.54144">
        <ele>360</ele>
        <time>2012-01-14T10:55:41Z</time>
      </trkpt>
      <trkpt lat="45.538" lon="4.54162">
        <ele>360</ele>
        <time>2012-01-14T10:55:46Z</time>
      </trkpt>
      <trkpt lat="45.53795" lon="4.54179">
        <ele>360</ele>
        <time>2012-01-14T10:55:51Z</time>
      </trkpt>
      <trkpt lat="45.53793" lon="4.54195">
        <ele>360</ele>
        <time>2012-01-14T10:55:56Z</time>
      </trkpt>
      <trkpt lat="45.53791" lon="4.54212">
        <ele>360</ele>
        <time>2012-01-14T10:56:01Z</time>
      </trkpt>
      <trkpt lat="45.53789" lon="4.54232">
        <ele>360</ele>
        <time>2012-01-14T10:56:06Z</time>
      </trkpt>
      <trkpt lat="45.53787" lon="4.5425">
        <ele>360</ele>
        <time>2012-01-14T10:56:11Z</time>
      </trkpt>
      <trkpt lat="45.53783" lon="4.54265">
        <ele>360</ele>
        <time>2012-01-14T10:56:16Z</time>
      </trkpt>
      <trkpt lat="45.53779" lon="4.54279">
        <ele>361</ele>
        <time>2012-01-14T10:56:21Z</time>
      </trkpt>
      <trkpt lat="45.53773" lon="4.54293">
        <ele>361</ele>
        <time>2012-01-14T10:56:26Z</time>
      </trkpt>
      <trkpt lat="45.53767" lon="4.54309">
        <ele>362</ele>
        <time>2012-01-14T10:56:31Z</time>
      </trkpt>
      <trkpt lat="45.53759" lon="4.54325">
        <ele>362</ele>
        <time>2012-01-14T10:56:36Z</time>
      </trkpt>
      <trkpt lat="45.53756" lon="4.54341">
        <ele>362</ele>
        <time>2012-01-14T10:56:41Z</time>
      </trkpt>
      <trkpt lat="45.53755" lon="4.54358">
        <ele>362</ele>
        <time>2012-01-14T10:56:46Z</time>
      </trkpt>
      <trkpt lat="45.53756" lon="4.54373">
        <ele>362</ele>
        <time>2012-01-14T10:56:51Z</time>
      </trkpt>
      <trkpt lat="45.53758" lon="4.54382">
        <ele>361</ele>
        <time>2012-01-14T10:56:56Z</time>
      </trkpt>
      <trkpt lat="45.53756" lon="4.54392">
        <ele>361</ele>
        <time>2012-01-14T10:57:01Z</time>
      </trkpt>
      <trkpt lat="45.53754" lon="4.54406">
        <ele>360</ele>
        <time>2012-01-14T10:57:06Z</time>
      </trkpt>
      <trkpt lat="45.5375" lon="4.54422">
        <ele>360</ele>
        <time>2012-01-14T10:57:11Z</time>
      </trkpt>
      <trkpt lat="45.53748" lon="4.54437">
        <ele>360</ele>
        <time>2012-01-14T10:57:16Z</time>
      </trkpt>
      <trkpt lat="45.53742" lon="4.54451">
        <ele>359</ele>
        <time>2012-01-14T10:57:21Z</time>
      </trkpt>
      <trkpt lat="45.53733" lon="4.54464">
        <ele>356</ele>
        <time>2012-01-14T10:57:26Z</time>
      </trkpt>
      <trkpt lat="45.53726" lon="4.54475">
        <ele>353</ele>
        <time>2012-01-14T10:57:31Z</time>
      </trkpt>
      <trkpt lat="45.53718" lon="4.54487">
        <ele>351</ele>
        <time>2012-01-14T10:57:36Z</time>
      </trkpt>
      <trkpt lat="45.53709" lon="4.54499">
        <ele>349</ele>
        <time>2012-01-14T10:57:41Z</time>
      </trkpt>
      <trkpt lat="45.537" lon="4.54512">
        <ele>349</ele>
        <time>2012-01-14T10:57:47Z</time>
      </trkpt>
      <trkpt lat="45.53691" lon="4.5452">
        <ele>349</ele>
        <time>2012-01-14T10:57:52Z</time>
      </trkpt>
      <trkpt lat="45.53679" lon="4.54526">
        <ele>349</ele>
        <time>2012-01-14T10:57:57Z</time>
      </trkpt>
      <trkpt lat="45.53663" lon="4.54528">
        <ele>349</ele>
        <time>2012-01-14T10:58:03Z</time>
      </trkpt>
      <trkpt lat="45.53651" lon="4.5453">
        <ele>349</ele>
        <time>2012-01-14T10:58:08Z</time>
      </trkpt>
      <trkpt lat="45.53637" lon="4.54534">
        <ele>349</ele>
        <time>2012-01-14T10:58:14Z</time>
      </trkpt>
      <trkpt lat="45.53626" lon="4.54538">
        <ele>349</ele>
        <time>2012-01-14T10:58:19Z</time>
      </trkpt>
      <trkpt lat="45.53616" lon="4.54542">
        <ele>349</ele>
        <time>2012-01-14T10:58:24Z</time>
      </trkpt>
      <trkpt lat="45.53607" lon="4.54549">
        <ele>350</ele>
        <time>2012-01-14T10:58:29Z</time>
      </trkpt>
      <trkpt lat="45.53598" lon="4.54559">
        <ele>350</ele>
        <time>2012-01-14T10:58:35Z</time>
      </trkpt>
      <trkpt lat="45.53592" lon="4.5457">
        <ele>350</ele>
        <time>2012-01-14T10:58:41Z</time>
      </trkpt>
      <trkpt lat="45.53587" lon="4.54578">
        <ele>350</ele>
        <time>2012-01-14T10:58:47Z</time>
      </trkpt>
      <trkpt lat="45.53585" lon="4.54578">
        <ele>351</ele>
        <time>2012-01-14T10:58:52Z</time>
      </trkpt>
      <trkpt lat="45.53583" lon="4.54575">
        <ele>351</ele>
        <time>2012-01-14T10:59:01Z</time>
      </trkpt>
      <trkpt lat="45.53582" lon="4.54577">
        <ele>352</ele>
        <time>2012-01-14T10:59:09Z</time>
      </trkpt>
      <trkpt lat="45.53582" lon="4.54575">
        <ele>351</ele>
        <time>2012-01-14T10:59:16Z</time>
      </trkpt>
      <trkpt lat="45.5358" lon="4.54572">
        <ele>351</ele>
        <time>2012-01-14T10:59:22Z</time>
      </trkpt>
      <trkpt lat="45.5358" lon="4.5457">
        <ele>351</ele>
        <time>2012-01-14T10:59:28Z</time>
      </trkpt>
      <trkpt lat="45.53581" lon="4.54572">
        <ele>351</ele>
        <time>2012-01-14T10:59:33Z</time>
      </trkpt>
      <trkpt lat="45.5358" lon="4.54581">
        <ele>351</ele>
        <time>2012-01-14T10:59:38Z</time>
      </trkpt>
      <trkpt lat="45.53577" lon="4.54595">
        <ele>351</ele>
        <time>2012-01-14T10:59:43Z</time>
      </trkpt>
      <trkpt lat="45.5357" lon="4.54611">
        <ele>351</ele>
        <time>2012-01-14T10:59:49Z</time>
      </trkpt>
      <trkpt lat="45.53563" lon="4.5462">
        <ele>350</ele>
        <time>2012-01-14T10:59:54Z</time>
      </trkpt>
      <trkpt lat="45.53554" lon="4.54629">
        <ele>348</ele>
        <time>2012-01-14T10:59:59Z</time>
      </trkpt>
      <trkpt lat="45.53545" lon="4.54638">
        <ele>344</ele>
        <time>2012-01-14T11:00:04Z</time>
      </trkpt>
      <trkpt lat="45.53536" lon="4.5465">
        <ele>342</ele>
        <time>2012-01-14T11:00:09Z</time>
      </trkpt>
      <trkpt lat="45.53529" lon="4.54663">
        <ele>342</ele>
        <time>2012-01-14T11:00:14Z</time>
      </trkpt>
      <trkpt lat="45.53527" lon="4.54678">
        <ele>342</ele>
        <time>2012-01-14T11:00:19Z</time>
      </trkpt>
      <trkpt lat="45.53528" lon="4.54701">
        <ele>346</ele>
        <time>2012-01-14T11:00:25Z</time>
      </trkpt>
      <trkpt lat="45.5353" lon="4.54717">
        <ele>350</ele>
        <time>2012-01-14T11:00:30Z</time>
      </trkpt>
      <trkpt lat="45.53535" lon="4.54734">
        <ele>351</ele>
        <time>2012-01-14T11:00:35Z</time>
      </trkpt>
      <trkpt lat="45.53538" lon="4.54753">
        <ele>351</ele>
        <time>2012-01-14T11:00:41Z</time>
      </trkpt>
      <trkpt lat="45.53541" lon="4.5477">
        <ele>351</ele>
        <time>2012-01-14T11:00:46Z</time>
      </trkpt>
      <trkpt lat="45.53546" lon="4.54784">
        <ele>351</ele>
        <time>2012-01-14T11:00:51Z</time>
      </trkpt>
      <trkpt lat="45.53551" lon="4.54798">
        <ele>351</ele>
        <time>2012-01-14T11:00:56Z</time>
      </trkpt>
      <trkpt lat="45.53558" lon="4.54812">
        <ele>351</ele>
        <time>2012-01-14T11:01:01Z</time>
      </trkpt>
      <trkpt lat="45.53564" lon="4.54827">
        <ele>351</ele>
        <time>2012-01-14T11:01:07Z</time>
      </trkpt>
      <trkpt lat="45.53569" lon="4.54841">
        <ele>351</ele>
        <time>2012-01-14T11:01:12Z</time>
      </trkpt>
      <trkpt lat="45.53571" lon="4.54856">
        <ele>351</ele>
        <time>2012-01-14T11:01:17Z</time>
      </trkpt>
      <trkpt lat="45.53574" lon="4.5487">
        <ele>351</ele>
        <time>2012-01-14T11:01:22Z</time>
      </trkpt>
      <trkpt lat="45.53577" lon="4.54885">
        <ele>351</ele>
        <time>2012-01-14T11:01:27Z</time>
      </trkpt>
      <trkpt lat="45.53579" lon="4.54899">
        <ele>351</ele>
        <time>2012-01-14T11:01:32Z</time>
      </trkpt>
      <trkpt lat="45.53582" lon="4.54913">
        <ele>351</ele>
        <time>2012-01-14T11:01:37Z</time>
      </trkpt>
      <trkpt lat="45.53588" lon="4.54927">
        <ele>351</ele>
        <time>2012-01-14T11:01:42Z</time>
      </trkpt>
      <trkpt lat="45.53595" lon="4.54942">
        <ele>351</ele>
        <time>2012-01-14T11:01:47Z</time>
      </trkpt>
      <trkpt lat="45.53602" lon="4.54955">
        <ele>351</ele>
        <time>2012-01-14T11:01:52Z</time>
      </trkpt>
      <trkpt lat="45.53607" lon="4.54969">
        <ele>351</ele>
        <time>2012-01-14T11:01:57Z</time>
      </trkpt>
      <trkpt lat="45.53613" lon="4.54983">
        <ele>351</ele>
        <time>2012-01-14T11:02:02Z</time>
      </trkpt>
      <trkpt lat="45.53619" lon="4.54998">
        <ele>351</ele>
        <time>2012-01-14T11:02:07Z</time>
      </trkpt>
      <trkpt lat="45.5362" lon="4.55015">
        <ele>351</ele>
        <time>2012-01-14T11:02:12Z</time>
      </trkpt>
      <trkpt lat="45.53617" lon="4.55032">
        <ele>351</ele>
        <time>2012-01-14T11:02:17Z</time>
      </trkpt>
      <trkpt lat="45.53608" lon="4.55043">
        <ele>351</ele>
        <time>2012-01-14T11:02:22Z</time>
      </trkpt>
      <trkpt lat="45.53597" lon="4.55048">
        <ele>351</ele>
        <time>2012-01-14T11:02:27Z</time>
      </trkpt>
      <trkpt lat="45.53586" lon="4.55051">
        <ele>351</ele>
        <time>2012-01-14T11:02:32Z</time>
      </trkpt>
      <trkpt lat="45.53574" lon="4.55054">
        <ele>351</ele>
        <time>2012-01-14T11:02:37Z</time>
      </trkpt>
      <trkpt lat="45.53562" lon="4.55054">
        <ele>351</ele>
        <time>2012-01-14T11:02:42Z</time>
      </trkpt>
      <trkpt lat="45.5355" lon="4.55054">
        <ele>351</ele>
        <time>2012-01-14T11:02:47Z</time>
      </trkpt>
      <trkpt lat="45.53537" lon="4.55054">
        <ele>351</ele>
        <time>2012-01-14T11:02:52Z</time>
      </trkpt>
      <trkpt lat="45.53527" lon="4.5506">
        <ele>351</ele>
        <time>2012-01-14T11:02:57Z</time>
      </trkpt>
      <trkpt lat="45.53514" lon="4.55069">
        <ele>351</ele>
        <time>2012-01-14T11:03:03Z</time>
      </trkpt>
      <trkpt lat="45.53504" lon="4.55075">
        <ele>353</ele>
        <time>2012-01-14T11:03:08Z</time>
      </trkpt>
      <trkpt lat="45.53493" lon="4.55081">
        <ele>354</ele>
        <time>2012-01-14T11:03:13Z</time>
      </trkpt>
      <trkpt lat="45.53481" lon="4.55091">
        <ele>355</ele>
        <time>2012-01-14T11:03:19Z</time>
      </trkpt>
      <trkpt lat="45.53471" lon="4.55102">
        <ele>355</ele>
        <time>2012-01-14T11:03:24Z</time>
      </trkpt>
      <trkpt lat="45.53463" lon="4.55113">
        <ele>355</ele>
        <time>2012-01-14T11:03:29Z</time>
      </trkpt>
      <trkpt lat="45.53454" lon="4.55126">
        <ele>355</ele>
        <time>2012-01-14T11:03:34Z</time>
      </trkpt>
      <trkpt lat="45.53445" lon="4.55144">
        <ele>355</ele>
        <time>2012-01-14T11:03:39Z</time>
      </trkpt>
      <trkpt lat="45.5344" lon="4.55161">
        <ele>355</ele>
        <time>2012-01-14T11:03:44Z</time>
      </trkpt>
      <trkpt lat="45.53438" lon="4.5518">
        <ele>355</ele>
        <time>2012-01-14T11:03:49Z</time>
      </trkpt>
      <trkpt lat="45.53437" lon="4.55198">
        <ele>355</ele>
        <time>2012-01-14T11:03:54Z</time>
      </trkpt>
      <trkpt lat="45.53439" lon="4.55218">
        <ele>355</ele>
        <time>2012-01-14T11:04:00Z</time>
      </trkpt>
      <trkpt lat="45.53442" lon="4.55235">
        <ele>355</ele>
        <time>2012-01-14T11:04:05Z</time>
      </trkpt>
      <trkpt lat="45.53442" lon="4.55254">
        <ele>357</ele>
        <time>2012-01-14T11:04:10Z</time>
      </trkpt>
      <trkpt lat="45.53438" lon="4.55267">
        <ele>359</ele>
        <time>2012-01-14T11:04:15Z</time>
      </trkpt>
      <trkpt lat="45.53436" lon="4.55277">
        <ele>361</ele>
        <time>2012-01-14T11:04:20Z</time>
      </trkpt>
      <trkpt lat="45.5343" lon="4.55285">
        <ele>362</ele>
        <time>2012-01-14T11:04:25Z</time>
      </trkpt>
      <trkpt lat="45.53425" lon="4.55298">
        <ele>362</ele>
        <time>2012-01-14T11:04:31Z</time>
      </trkpt>
      <trkpt lat="45.53423" lon="4.55312">
        <ele>362</ele>
        <time>2012-01-14T11:04:36Z</time>
      </trkpt>
      <trkpt lat="45.53425" lon="4.5533">
        <ele>362</ele>
        <time>2012-01-14T11:04:41Z</time>
      </trkpt>
      <trkpt lat="45.53423" lon="4.55346">
        <ele>362</ele>
        <time>2012-01-14T11:04:46Z</time>
      </trkpt>
      <trkpt lat="45.53421" lon="4.55357">
        <ele>364</ele>
        <time>2012-01-14T11:04:51Z</time>
      </trkpt>
      <trkpt lat="45.5342" lon="4.55368">
        <ele>366</ele>
        <time>2012-01-14T11:04:56Z</time>
      </trkpt>
      <trkpt lat="45.53417" lon="4.55378">
        <ele>367</ele>
        <time>2012-01-14T11:05:01Z</time>
      </trkpt>
      <trkpt lat="45.53411" lon="4.55388">
        <ele>370</ele>
        <time>2012-01-14T11:05:06Z</time>
      </trkpt>
      <trkpt lat="45.53402" lon="4.55396">
        <ele>371</ele>
        <time>2012-01-14T11:05:11Z</time>
      </trkpt>
      <trkpt lat="45.53392" lon="4.55401">
        <ele>373</ele>
        <time>2012-01-14T11:05:16Z</time>
      </trkpt>
      <trkpt lat="45.53385" lon="4.55408">
        <ele>374</ele>
        <time>2012-01-14T11:05:21Z</time>
      </trkpt>
      <trkpt lat="45.53378" lon="4.55418">
        <ele>377</ele>
        <time>2012-01-14T11:05:26Z</time>
      </trkpt>
      <trkpt lat="45.53373" lon="4.5543">
        <ele>378</ele>
        <time>2012-01-14T11:05:31Z</time>
      </trkpt>
      <trkpt lat="45.53369" lon="4.55439">
        <ele>380</ele>
        <time>2012-01-14T11:05:36Z</time>
      </trkpt>
      <trkpt lat="45.53363" lon="4.55451">
        <ele>380</ele>
        <time>2012-01-14T11:05:41Z</time>
      </trkpt>
      <trkpt lat="45.53361" lon="4.55464">
        <ele>381</ele>
        <time>2012-01-14T11:05:46Z</time>
      </trkpt>
      <trkpt lat="45.53355" lon="4.55477">
        <ele>381</ele>
        <time>2012-01-14T11:05:51Z</time>
      </trkpt>
      <trkpt lat="45.53346" lon="4.55488">
        <ele>382</ele>
        <time>2012-01-14T11:05:56Z</time>
      </trkpt>
      <trkpt lat="45.53339" lon="4.55499">
        <ele>382</ele>
        <time>2012-01-14T11:06:01Z</time>
      </trkpt>
      <trkpt lat="45.53332" lon="4.55507">
        <ele>383</ele>
        <time>2012-01-14T11:06:06Z</time>
      </trkpt>
      <trkpt lat="45.53327" lon="4.55512">
        <ele>383</ele>
        <time>2012-01-14T11:06:12Z</time>
      </trkpt>
      <trkpt lat="45.53324" lon="4.5552">
        <ele>385</ele>
        <time>2012-01-14T11:06:17Z</time>
      </trkpt>
      <trkpt lat="45.5332" lon="4.55527">
        <ele>387</ele>
        <time>2012-01-14T11:06:23Z</time>
      </trkpt>
      <trkpt lat="45.53319" lon="4.55535">
        <ele>387</ele>
        <time>2012-01-14T11:06:28Z</time>
      </trkpt>
      <trkpt lat="45.53319" lon="4.55545">
        <ele>387</ele>
        <time>2012-01-14T11:06:33Z</time>
      </trkpt>
      <trkpt lat="45.53321" lon="4.55555">
        <ele>387</ele>
        <time>2012-01-14T11:06:39Z</time>
      </trkpt>
      <trkpt lat="45.53322" lon="4.55564">
        <ele>388</ele>
        <time>2012-01-14T11:06:44Z</time>
      </trkpt>
      <trkpt lat="45.53322" lon="4.55572">
        <ele>388</ele>
        <time>2012-01-14T11:06:49Z</time>
      </trkpt>
      <trkpt lat="45.53322" lon="4.5558">
        <ele>388</ele>
        <time>2012-01-14T11:06:54Z</time>
      </trkpt>
      <trkpt lat="45.53322" lon="4.55588">
        <ele>388</ele>
        <time>2012-01-14T11:06:59Z</time>
      </trkpt>
      <trkpt lat="45.53324" lon="4.55598">
        <ele>390</ele>
        <time>2012-01-14T11:07:05Z</time>
      </trkpt>
      <trkpt lat="45.53325" lon="4.55606">
        <ele>391</ele>
        <time>2012-01-14T11:07:10Z</time>
      </trkpt>
      <trkpt lat="45.53326" lon="4.55614">
        <ele>392</ele>
        <time>2012-01-14T11:07:15Z</time>
      </trkpt>
      <trkpt lat="45.53327" lon="4.55623">
        <ele>395</ele>
        <time>2012-01-14T11:07:20Z</time>
      </trkpt>
      <trkpt lat="45.53327" lon="4.55631">
        <ele>397</ele>
        <time>2012-01-14T11:07:25Z</time>
      </trkpt>
      <trkpt lat="45.53328" lon="4.5564">
        <ele>397</ele>
        <time>2012-01-14T11:07:31Z</time>
      </trkpt>
      <trkpt lat="45.53329" lon="4.55649">
        <ele>397</ele>
        <time>2012-01-14T11:07:37Z</time>
      </trkpt>
      <trkpt lat="45.53329" lon="4.55657">
        <ele>397</ele>
        <time>2012-01-14T11:07:42Z</time>
      </trkpt>
      <trkpt lat="45.5333" lon="4.55673">
        <ele>397</ele>
        <time>2012-01-14T11:07:47Z</time>
      </trkpt>
      <trkpt lat="45.53329" lon="4.55689">
        <ele>397</ele>
        <time>2012-01-14T11:07:52Z</time>
      </trkpt>
      <trkpt lat="45.53329" lon="4.55704">
        <ele>397</ele>
        <time>2012-01-14T11:07:57Z</time>
      </trkpt>
      <trkpt lat="45.53329" lon="4.5572">
        <ele>397</ele>
        <time>2012-01-14T11:08:02Z</time>
      </trkpt>
      <trkpt lat="45.53328" lon="4.55735">
        <ele>397</ele>
        <time>2012-01-14T11:08:07Z</time>
      </trkpt>
      <trkpt lat="45.53327" lon="4.55751">
        <ele>397</ele>
        <time>2012-01-14T11:08:12Z</time>
      </trkpt>
      <trkpt lat="45.53327" lon="4.55766">
        <ele>397</ele>
        <time>2012-01-14T11:08:17Z</time>
      </trkpt>
      <trkpt lat="45.53326" lon="4.55782">
        <ele>398</ele>
        <time>2012-01-14T11:08:22Z</time>
      </trkpt>
      <trkpt lat="45.53325" lon="4.55798">
        <ele>398</ele>
        <time>2012-01-14T11:08:27Z</time>
      </trkpt>
      <trkpt lat="45.53324" lon="4.55815">
        <ele>398</ele>
        <time>2012-01-14T11:08:32Z</time>
      </trkpt>
      <trkpt lat="45.53322" lon="4.55831">
        <ele>398</ele>
        <time>2012-01-14T11:08:37Z</time>
      </trkpt>
      <trkpt lat="45.53317" lon="4.55846">
        <ele>398</ele>
        <time>2012-01-14T11:08:42Z</time>
      </trkpt>
      <trkpt lat="45.5331" lon="4.55859">
        <ele>399</ele>
        <time>2012-01-14T11:08:47Z</time>
      </trkpt>
      <trkpt lat="45.53302" lon="4.55872">
        <ele>399</ele>
        <time>2012-01-14T11:08:52Z</time>
      </trkpt>
      <trkpt lat="45.53294" lon="4.55884">
        <ele>400</ele>
        <time>2012-01-14T11:08:57Z</time>
      </trkpt>
      <trkpt lat="45.53285" lon="4.55896">
        <ele>400</ele>
        <time>2012-01-14T11:09:02Z</time>
      </trkpt>
      <trkpt lat="45.53276" lon="4.55908">
        <ele>400</ele>
        <time>2012-01-14T11:09:07Z</time>
      </trkpt>
      <trkpt lat="45.53268" lon="4.55921">
        <ele>400</ele>
        <time>2012-01-14T11:09:12Z</time>
      </trkpt>
      <trkpt lat="45.53258" lon="4.55934">
        <ele>400</ele>
        <time>2012-01-14T11:09:17Z</time>
      </trkpt>
      <trkpt lat="45.53248" lon="4.55946">
        <ele>400</ele>
        <time>2012-01-14T11:09:22Z</time>
      </trkpt>
      <trkpt lat="45.53239" lon="4.55959">
        <ele>400</ele>
        <time>2012-01-14T11:09:27Z</time>
      </trkpt>
      <trkpt lat="45.53231" lon="4.55971">
        <ele>400</ele>
        <time>2012-01-14T11:09:32Z</time>
      </trkpt>
      <trkpt lat="45.5322" lon="4.55986">
        <ele>402</ele>
        <time>2012-01-14T11:09:37Z</time>
      </trkpt>
      <trkpt lat="45.53212" lon="4.55997">
        <ele>403</ele>
        <time>2012-01-14T11:09:42Z</time>
      </trkpt>
      <trkpt lat="45.53204" lon="4.56007">
        <ele>404</ele>
        <time>2012-01-14T11:09:47Z</time>
      </trkpt>
      <trkpt lat="45.53196" lon="4.56017">
        <ele>404</ele>
        <time>2012-01-14T11:09:52Z</time>
      </trkpt>
      <trkpt lat="45.53187" lon="4.56025">
        <ele>404</ele>
        <time>2012-01-14T11:09:57Z</time>
      </trkpt>
      <trkpt lat="45.53178" lon="4.56032">
        <ele>404</ele>
        <time>2012-01-14T11:10:02Z</time>
      </trkpt>
      <trkpt lat="45.53168" lon="4.56039">
        <ele>404</ele>
        <time>2012-01-14T11:10:07Z</time>
      </trkpt>
      <trkpt lat="45.53158" lon="4.56046">
        <ele>404</ele>
        <time>2012-01-14T11:10:12Z</time>
      </trkpt>
      <trkpt lat="45.53149" lon="4.56053">
        <ele>404</ele>
        <time>2012-01-14T11:10:17Z</time>
      </trkpt>
      <trkpt lat="45.53139" lon="4.56062">
        <ele>404</ele>
        <time>2012-01-14T11:10:22Z</time>
      </trkpt>
      <trkpt lat="45.5313" lon="4.5607">
        <ele>404</ele>
        <time>2012-01-14T11:10:27Z</time>
      </trkpt>
      <trkpt lat="45.53122" lon="4.56078">
        <ele>404</ele>
        <time>2012-01-14T11:10:32Z</time>
      </trkpt>
      <trkpt lat="45.53112" lon="4.56084">
        <ele>403</ele>
        <time>2012-01-14T11:10:37Z</time>
      </trkpt>
      <trkpt lat="45.531" lon="4.56089">
        <ele>403</ele>
        <time>2012-01-14T11:10:42Z</time>
      </trkpt>
      <trkpt lat="45.53089" lon="4.56095">
        <ele>403</ele>
        <time>2012-01-14T11:10:47Z</time>
      </trkpt>
      <trkpt lat="45.53079" lon="4.56102">
        <ele>403</ele>
        <time>2012-01-14T11:10:52Z</time>
      </trkpt>
      <trkpt lat="45.53066" lon="4.56106">
        <ele>403</ele>
        <time>2012-01-14T11:10:57Z</time>
      </trkpt>
      <trkpt lat="45.53054" lon="4.5611">
        <ele>403</ele>
        <time>2012-01-14T11:11:02Z</time>
      </trkpt>
      <trkpt lat="45.53042" lon="4.56114">
        <ele>403</ele>
        <time>2012-01-14T11:11:08Z</time>
      </trkpt>
      <trkpt lat="45.53032" lon="4.5612">
        <ele>403</ele>
        <time>2012-01-14T11:11:13Z</time>
      </trkpt>
      <trkpt lat="45.53023" lon="4.5613">
        <ele>404</ele>
        <time>2012-01-14T11:11:18Z</time>
      </trkpt>
      <trkpt lat="45.53016" lon="4.56141">
        <ele>404</ele>
        <time>2012-01-14T11:11:23Z</time>
      </trkpt>
      <trkpt lat="45.53012" lon="4.56152">
        <ele>404</ele>
        <time>2012-01-14T11:11:28Z</time>
      </trkpt>
      <trkpt lat="45.53009" lon="4.56166">
        <ele>404</ele>
        <time>2012-01-14T11:11:33Z</time>
      </trkpt>
      <trkpt lat="45.53003" lon="4.5618">
        <ele>404</ele>
        <time>2012-01-14T11:11:38Z</time>
      </trkpt>
      <trkpt lat="45.52995" lon="4.5619">
        <ele>404</ele>
        <time>2012-01-14T11:11:43Z</time>
      </trkpt>
      <trkpt lat="45.52985" lon="4.56198">
        <ele>404</ele>
        <time>2012-01-14T11:11:48Z</time>
      </trkpt>
      <trkpt lat="45.52976" lon="4.56206">
        <ele>404</ele>
        <time>2012-01-14T11:11:53Z</time>
      </trkpt>
      <trkpt lat="45.52968" lon="4.56215">
        <ele>404</ele>
        <time>2012-01-14T11:11:58Z</time>
      </trkpt>
      <trkpt lat="45.52958" lon="4.56221">
        <ele>404</ele>
        <time>2012-01-14T11:12:03Z</time>
      </trkpt>
      <trkpt lat="45.52948" lon="4.56231">
        <ele>404</ele>
        <time>2012-01-14T11:12:08Z</time>
      </trkpt>
      <trkpt lat="45.52938" lon="4.56242">
        <ele>404</ele>
        <time>2012-01-14T11:12:13Z</time>
      </trkpt>
      <trkpt lat="45.5293" lon="4.56253">
        <ele>404</ele>
        <time>2012-01-14T11:12:18Z</time>
      </trkpt>
      <trkpt lat="45.52923" lon="4.56263">
        <ele>404</ele>
        <time>2012-01-14T11:12:23Z</time>
      </trkpt>
      <trkpt lat="45.52918" lon="4.56279">
        <ele>405</ele>
        <time>2012-01-14T11:12:28Z</time>
      </trkpt>
      <trkpt lat="45.52911" lon="4.56293">
        <ele>406</ele>
        <time>2012-01-14T11:12:33Z</time>
      </trkpt>
      <trkpt lat="45.52906" lon="4.56306">
        <ele>406</ele>
        <time>2012-01-14T11:12:38Z</time>
      </trkpt>
      <trkpt lat="45.52909" lon="4.56319">
        <ele>406</ele>
        <time>2012-01-14T11:12:43Z</time>
      </trkpt>
      <trkpt lat="45.52915" lon="4.56331">
        <ele>406</ele>
        <time>2012-01-14T11:12:48Z</time>
      </trkpt>
      <trkpt lat="45.52915" lon="4.56348">
        <ele>406</ele>
        <time>2012-01-14T11:12:53Z</time>
      </trkpt>
      <trkpt lat="45.52909" lon="4.56362">
        <ele>405</ele>
        <time>2012-01-14T11:12:58Z</time>
      </trkpt>
      <trkpt lat="45.52903" lon="4.56373">
        <ele>403</ele>
        <time>2012-01-14T11:13:03Z</time>
      </trkpt>
      <trkpt lat="45.529" lon="4.56368">
        <ele>402</ele>
        <time>2012-01-14T11:13:08Z</time>
      </trkpt>
      <trkpt lat="45.52907" lon="4.56355">
        <ele>401</ele>
        <time>2012-01-14T11:13:13Z</time>
      </trkpt>
      <trkpt lat="45.52914" lon="4.56341">
        <ele>400</ele>
        <time>2012-01-14T11:13:18Z</time>
      </trkpt>
      <trkpt lat="45.52914" lon="4.56329">
        <ele>400</ele>
        <time>2012-01-14T11:13:23Z</time>
      </trkpt>
      <trkpt lat="45.5291" lon="4.56344">
        <ele>400</ele>
        <time>2012-01-14T11:13:28Z</time>
      </trkpt>
      <trkpt lat="45.52914" lon="4.56348">
        <ele>400</ele>
        <time>2012-01-14T11:13:33Z</time>
      </trkpt>
      <trkpt lat="45.52916" lon="4.5634">
        <ele>400</ele>
        <time>2012-01-14T11:13:39Z</time>
      </trkpt>
      <trkpt lat="45.52917" lon="4.56334">
        <ele>400</ele>
        <time>2012-01-14T11:13:45Z</time>
      </trkpt>
      <trkpt lat="45.52919" lon="4.56331">
        <ele>400</ele>
        <time>2012-01-14T11:13:50Z</time>
      </trkpt>
      <trkpt lat="45.52919" lon="4.56331">
        <ele>400</ele>
        <time>2012-01-14T11:13:51Z</time>
      </trkpt>
    </trkseg>
  </trk>
</gpx>